Darstellungsparameter: Aktuell verwendete Einstellungen:
Skalierung der Graphiken ... ?
xyx+y,   Skalierungsfaktor:      Skalierung: Modus: x, Faktor: 1
Darstellungszeitraum ... ?
Vom - - bis: - -   Zeitraum: 11.03.2021 - 31.03.2021
Min/Max/Avg-Anzeige ... ?
Zeige MMA aktuell
Zeige MMA Monat
Zeige MMA alles
Zeige --A aktuell
Zeige --A Monat
Zeige --A alles
Keine MMA-Anzeige
MMA:
Keine MMA-Graphiken
MMA-Basis: 11.03.2021 - 31.03.2021
Quicknavigation für Darstellung... ?
Tage:      1T, 2T, 3T, 5T -1T -2T -3T -5T +1T +2T +3T +5T
Wochen: 1W, 2W, 3W -1W -2W -3W +1W +2W +3W
Monate: 1M, 3M, 6M -1M -3M -6M +1M +3M +6M
Jahre:    1J, 3J, 5J, 10J -1J -3J -5J -10J +1J +3J +5J +10J
Nutze für die Darstellung ... ?
Originaldaten oder Mittelwerte auf ...
Stundenbasis Tagesbasis Wochenbasis
Monatsbasis Jahresbasis      Datenbasis: Original-Daten
Darstellen als:
Statistik (Auto) Statistik J:M      Darstellung:
Zur Graphik,    zurück zur Übersicht aller Sensoren.
 
Tabellarische Datenbersicht: ?
 
Sensor: Nr:Datum:Temp:Feuchte:
Aussen-T/F 1 11-03-2021 00:00:17 5.7 C 46 %
2 11-03-2021 00:10:18 5.7 C 46 %
3 11-03-2021 00:20:18 5.6 C 46 %
4 11-03-2021 00:30:18 5.6 C 45 %
5 11-03-2021 00:40:18 5.8 C 45 %
6 11-03-2021 00:50:18 5.6 C 45 %
7 11-03-2021 01:00:18 5.6 C 44 %
8 11-03-2021 01:10:18 5.7 C 45 %
9 11-03-2021 01:20:17 5.5 C 45 %
10 11-03-2021 01:30:17 5.6 C 45 %
11 11-03-2021 01:40:17 5.6 C 43 %
12 11-03-2021 01:50:17 5.8 C 44 %
13 11-03-2021 02:00:17 5.9 C 43 %
14 11-03-2021 02:10:17 6.5 C 41 %
15 11-03-2021 02:20:18 6.4 C 41 %
16 11-03-2021 02:30:18 6.7 C 40 %
17 11-03-2021 02:40:18 7.5 C 38 %
18 11-03-2021 02:50:17 7.7 C 37 %
19 11-03-2021 03:00:18 7.7 C 37 %
20 11-03-2021 03:10:18 7.8 C 37 %
21 11-03-2021 03:20:18 7.6 C 38 %
22 11-03-2021 03:30:18 7.7 C 37 %
23 11-03-2021 03:40:18 7.8 C 37 %
24 11-03-2021 03:50:17 7.9 C 38 %
25 11-03-2021 04:00:18 7.8 C 38 %
Sensor: Nr:Datum:Temp:Feuchte:
Aussen-T/F 26 11-03-2021 04:10:18 7.7 C 38 %
27 11-03-2021 04:20:18 7.7 C 38 %
28 11-03-2021 04:30:17 7.8 C 38 %
29 11-03-2021 04:40:17 7.8 C 38 %
30 11-03-2021 04:50:18 8.1 C 37 %
31 11-03-2021 05:00:18 8 C 38 %
32 11-03-2021 05:10:18 7.9 C 38 %
33 11-03-2021 05:20:17 8 C 38 %
34 11-03-2021 05:30:17 8 C 38 %
35 11-03-2021 05:40:17 7.9 C 39 %
36 11-03-2021 05:50:17 7.8 C 40 %
37 11-03-2021 06:00:18 7.8 C 40 %
38 11-03-2021 06:10:18 7.6 C 40 %
39 11-03-2021 06:20:18 7.8 C 40 %
40 11-03-2021 06:30:18 7.8 C 40 %
41 11-03-2021 06:40:18 7.8 C 40 %
42 11-03-2021 06:50:17 8 C 40 %
43 11-03-2021 07:00:17 8.1 C 40 %
44 11-03-2021 07:10:17 8.3 C 40 %
45 11-03-2021 07:20:17 8.5 C 40 %
46 11-03-2021 07:30:17 8.7 C 39 %
47 11-03-2021 07:40:17 8.7 C 40 %
48 11-03-2021 07:50:18 8.9 C 40 %
49 11-03-2021 08:00:17 9 C 39 %
50 11-03-2021 08:10:17 9.1 C 39 %
Sensor: Nr:Datum:Temp:Feuchte:
Aussen-T/F 51 11-03-2021 08:20:17 9.2 C 39 %
52 11-03-2021 08:30:17 9.4 C 39 %
53 11-03-2021 08:40:17 9.6 C 39 %
54 11-03-2021 08:50:17 9.8 C 39 %
55 11-03-2021 09:00:17 10 C 38 %
56 11-03-2021 09:10:17 10.2 C 38 %
57 11-03-2021 09:20:17 10.3 C 38 %
58 11-03-2021 09:30:17 10.5 C 37 %
59 11-03-2021 09:40:17 10.7 C 37 %
60 11-03-2021 09:50:17 10.8 C 37 %
61 11-03-2021 10:00:18 11.2 C 37 %
62 11-03-2021 10:10:18 11.4 C 36 %
63 11-03-2021 10:20:17 11.8 C 36 %
64 11-03-2021 10:30:17 11.8 C 36 %
65 11-03-2021 10:40:17 12.1 C 36 %
66 11-03-2021 10:50:18 11.8 C 37 %
67 11-03-2021 11:00:18 12 C 36 %
68 11-03-2021 11:10:18 11.4 C 37 %
69 11-03-2021 11:20:18 10.8 C 40 %
70 11-03-2021 11:30:17 10.5 C 41 %
71 11-03-2021 11:40:18 10.4 C 42 %
72 11-03-2021 11:50:17 10.1 C 42 %
73 11-03-2021 12:00:18 9.9 C 43 %
74 11-03-2021 12:10:18 10.3 C 42 %
75 11-03-2021 12:20:18 10.3 C 42 %
Sensor: Nr:Datum:Temp:Feuchte:
Aussen-T/F 76 11-03-2021 12:30:18 11.3 C 40 %
77 11-03-2021 12:40:18 11.8 C 38 %
78 11-03-2021 12:50:17 14.4 C 35 %
79 11-03-2021 13:00:18 13.9 C 35 %
80 11-03-2021 13:10:18 15.3 C 34 %
81 11-03-2021 13:20:18 15.8 C 33 %
82 11-03-2021 13:30:18 13.6 C 35 %
83 11-03-2021 13:40:18 13.2 C 35 %
84 11-03-2021 13:50:18 13.8 C 34 %
85 11-03-2021 14:00:18 12.9 C 35 %
86 11-03-2021 14:10:18 8.8 C 41 %
87 11-03-2021 14:20:18 9 C 41 %
88 11-03-2021 14:30:17 9.9 C 40 %
89 11-03-2021 14:40:17 10.3 C 40 %
90 11-03-2021 14:50:17 10.1 C 40 %
91 11-03-2021 15:00:17 8.5 C 41 %
92 11-03-2021 15:10:17 8.8 C 41 %
93 11-03-2021 15:20:18 9.5 C 39 %
94 11-03-2021 15:30:17 11.8 C 36 %
95 11-03-2021 15:40:17 13.2 C 33 %
96 11-03-2021 15:50:17 14.2 C 31 %
97 11-03-2021 16:00:17 14.4 C 31 %
98 11-03-2021 16:10:17 14.6 C 30 %
99 11-03-2021 16:20:17 13.7 C 31 %
100 11-03-2021 16:30:18 13.1 C 31 %
Sensor: Nr:Datum:Temp:Feuchte:
Aussen-T/F 101 11-03-2021 16:40:18 12.2 C 32 %
102 11-03-2021 16:50:17 12.2 C 32 %
103 11-03-2021 17:00:17 12.1 C 32 %
104 11-03-2021 17:10:17 10.5 C 35 %
105 11-03-2021 17:20:17 9.7 C 36 %
106 11-03-2021 17:30:18 9.9 C 36 %
107 11-03-2021 17:40:18 10 C 35 %
108 11-03-2021 17:50:17 10.2 C 35 %
109 11-03-2021 18:00:17 9.6 C 35 %
110 11-03-2021 18:10:17 9.3 C 36 %
111 11-03-2021 18:20:17 9.6 C 35 %
112 11-03-2021 18:30:18 9.3 C 36 %
113 11-03-2021 18:40:18 8.8 C 37 %
114 11-03-2021 18:50:18 8.6 C 37 %
115 11-03-2021 19:00:18 8.7 C 36 %
116 11-03-2021 19:10:18 8.4 C 36 %
117 11-03-2021 19:20:17 8.6 C 35 %
118 11-03-2021 19:30:18 8.3 C 36 %
119 11-03-2021 19:40:18 7.9 C 36 %
120 11-03-2021 19:50:18 7.9 C 36 %
121 11-03-2021 20:00:17 8.2 C 36 %
122 11-03-2021 20:10:18 8.2 C 35 %
123 11-03-2021 20:20:18 8.1 C 36 %
124 11-03-2021 20:30:17 8.2 C 35 %
125 11-03-2021 20:40:17 8.2 C 35 %
Sensor: Nr:Datum:Temp:Feuchte:
Aussen-T/F 126 11-03-2021 20:50:17 8 C 36 %
127 11-03-2021 21:00:18 7.9 C 36 %
128 11-03-2021 21:10:18 7.6 C 36 %
129 11-03-2021 21:20:17 7.4 C 36 %
130 11-03-2021 21:30:17 7.8 C 36 %
131 11-03-2021 21:40:17 8 C 36 %
132 11-03-2021 21:50:18 7.9 C 36 %
133 11-03-2021 22:00:18 8 C 36 %
134 11-03-2021 22:10:18 7.4 C 36 %
135 11-03-2021 22:20:17 7.4 C 36 %
136 11-03-2021 22:30:18 7.1 C 36 %
137 11-03-2021 22:40:18 7.3 C 36 %
138 11-03-2021 22:50:18 7.6 C 36 %
139 11-03-2021 23:00:18 7.8 C 36 %
140 11-03-2021 23:10:18 7.7 C 36 %
141 11-03-2021 23:20:18 6 C 40 %
142 11-03-2021 23:30:17 4.7 C 43 %
143 11-03-2021 23:40:17 4.6 C 44 %
144 11-03-2021 23:50:17 4.4 C 44 %
145 12-03-2021 00:00:17 4.9 C 43 %
146 12-03-2021 00:10:17 4.9 C 42 %
147 12-03-2021 00:20:17 5 C 41 %
148 12-03-2021 00:30:17 4.5 C 42 %
149 12-03-2021 00:40:17 4.1 C 44 %
150 12-03-2021 00:50:18 4.6 C 43 %
Sensor: Nr:Datum:Temp:Feuchte:
Aussen-T/F 151 12-03-2021 01:00:17 4.9 C 43 %
152 12-03-2021 01:10:17 5.1 C 42 %
153 12-03-2021 01:20:18 5.1 C 41 %
154 12-03-2021 01:30:17 5.1 C 41 %
155 12-03-2021 01:40:17 5.4 C 41 %
156 12-03-2021 01:50:17 5.4 C 40 %
157 12-03-2021 02:00:17 5.8 C 39 %
158 12-03-2021 02:10:17 5.9 C 39 %
159 12-03-2021 02:20:18 6.2 C 37 %
160 12-03-2021 02:30:18 5.7 C 38 %
161 12-03-2021 02:40:18 5.1 C 39 %
162 12-03-2021 02:50:18 4.9 C 40 %
163 12-03-2021 03:00:18 4.7 C 40 %
164 12-03-2021 03:10:18 5.1 C 39 %
165 12-03-2021 03:20:17 4.9 C 40 %
166 12-03-2021 03:30:17 5.3 C 38 %
167 12-03-2021 03:40:17 4.9 C 40 %
168 12-03-2021 03:50:17 4.6 C 40 %
169 12-03-2021 04:00:17 4.6 C 40 %
170 12-03-2021 04:10:17 4.6 C 40 %
171 12-03-2021 04:20:18 4.4 C 40 %
172 12-03-2021 04:30:18 5.6 C 38 %
173 12-03-2021 04:40:18 5.5 C 38 %
174 12-03-2021 04:50:17 5.3 C 39 %
175 12-03-2021 05:00:18 5.2 C 39 %
Sensor: Nr:Datum:Temp:Feuchte:
Aussen-T/F 176 12-03-2021 05:10:18 5.2 C 39 %
177 12-03-2021 05:20:17 5.3 C 39 %
178 12-03-2021 05:30:18 5.1 C 39 %
179 12-03-2021 05:40:18 5.2 C 39 %
180 12-03-2021 05:50:17 5.2 C 38 %
181 12-03-2021 06:00:17 4.9 C 40 %
182 12-03-2021 06:10:18 4.9 C 40 %
183 12-03-2021 06:20:18 4.6 C 40 %
184 12-03-2021 06:30:18 4.5 C 40 %
185 12-03-2021 06:40:18 4.6 C 40 %
186 12-03-2021 06:50:17 4.9 C 40 %
187 12-03-2021 07:00:18 4.6 C 40 %
188 12-03-2021 07:10:18 4.4 C 41 %
189 12-03-2021 07:20:17 5.1 C 40 %
190 12-03-2021 07:30:17 5.2 C 39 %
191 12-03-2021 07:40:17 5.4 C 39 %
192 12-03-2021 07:50:18 5.6 C 39 %
193 12-03-2021 08:00:17 5.7 C 39 %
194 12-03-2021 08:10:17 5.9 C 38 %
195 12-03-2021 08:20:17 6.1 C 37 %
196 12-03-2021 08:30:17 6.2 C 37 %
197 12-03-2021 08:40:17 6 C 38 %
198 12-03-2021 08:50:18 6.3 C 38 %
199 12-03-2021 09:00:18 6.5 C 38 %
200 12-03-2021 09:10:18 6.9 C 38 %
Sensor: Nr:Datum:Temp:Feuchte:
Aussen-T/F 201 12-03-2021 09:20:18 6.7 C 38 %
202 12-03-2021 09:30:17 6.2 C 39 %
203 12-03-2021 09:40:17 6.5 C 40 %
204 12-03-2021 09:50:18 7 C 38 %
205 12-03-2021 10:00:17 7.5 C 38 %
206 12-03-2021 10:10:18 8 C 36 %
207 12-03-2021 10:20:17 8.6 C 36 %
208 12-03-2021 10:30:17 8.4 C 35 %
209 12-03-2021 10:40:17 7.7 C 36 %
210 12-03-2021 10:50:18 8 C 36 %
211 12-03-2021 11:00:17 8.1 C 35 %
212 12-03-2021 11:10:17 8.4 C 35 %
213 12-03-2021 11:20:17 8.3 C 35 %
214 12-03-2021 11:30:17 9.1 C 34 %
215 12-03-2021 11:40:17 9.4 C 35 %
216 12-03-2021 11:50:18 8.9 C 35 %
217 12-03-2021 12:00:18 10.8 C 33 %
218 12-03-2021 12:10:18 8.5 C 35 %
219 12-03-2021 12:20:18 8.5 C 35 %
220 12-03-2021 12:30:18 9.4 C 35 %
221 12-03-2021 12:40:18 9.6 C 34 %
222 12-03-2021 12:50:17 9.7 C 33 %
223 12-03-2021 13:00:17 9.7 C 33 %
224 12-03-2021 13:10:18 10 C 31 %
225 12-03-2021 13:20:17 10.2 C 31 %
Sensor: Nr:Datum:Temp:Feuchte:
Aussen-T/F 226 12-03-2021 13:30:18 10.1 C 31 %
227 12-03-2021 13:40:18 11.1 C 30 %
228 12-03-2021 13:50:17 10.1 C 31 %
229 12-03-2021 14:00:17 9.1 C 32 %
230 12-03-2021 14:10:17 9.6 C 33 %
231 12-03-2021 14:20:17 10.6 C 32 %
232 12-03-2021 14:30:18 11.5 C 30 %
233 12-03-2021 14:40:18 11.3 C 30 %
234 12-03-2021 14:50:18 11.3 C 30 %
235 12-03-2021 15:00:18 10.8 C 30 %
236 12-03-2021 15:10:18 11.2 C 30 %
237 12-03-2021 15:20:17 11.7 C 30 %
238 12-03-2021 15:30:17 12 C 29 %
239 12-03-2021 15:40:17 10.9 C 30 %
240 12-03-2021 15:50:18 10.7 C 30 %
241 12-03-2021 16:00:17 10.7 C 30 %
242 12-03-2021 16:10:17 11.5 C 30 %
243 12-03-2021 16:20:17 12.1 C 28 %
244 12-03-2021 16:30:17 11.7 C 30 %
245 12-03-2021 16:40:18 12.3 C 28 %
246 12-03-2021 16:50:17 11.3 C 30 %
247 12-03-2021 17:00:18 10.9 C 30 %
248 12-03-2021 17:10:18 10.4 C 30 %
249 12-03-2021 17:20:17 10 C 30 %
250 12-03-2021 17:30:18 10 C 30 %
Sensor: Nr:Datum:Temp:Feuchte:
Aussen-T/F 251 12-03-2021 17:40:18 9.7 C 31 %
252 12-03-2021 17:50:17 9.4 C 32 %
253 12-03-2021 18:00:18 9.4 C 32 %
254 12-03-2021 18:10:18 9.5 C 32 %
255 12-03-2021 18:20:18 9.5 C 32 %
256 12-03-2021 18:30:18 9.5 C 32 %
257 12-03-2021 18:40:18 8 C 36 %
258 12-03-2021 18:50:18 7.3 C 39 %
259 12-03-2021 19:00:18 7.3 C 39 %
260 12-03-2021 19:10:18 7 C 39 %
261 12-03-2021 19:20:18 6.7 C 40 %
262 12-03-2021 19:30:17 6.9 C 39 %
263 12-03-2021 19:40:17 6.9 C 39 %
264 12-03-2021 19:50:18 6.8 C 40 %
265 12-03-2021 20:00:18 6.8 C 39 %
266 12-03-2021 20:10:18 6.9 C 38 %
267 12-03-2021 20:20:17 6.7 C 39 %
268 12-03-2021 20:30:18 6.5 C 38 %
269 12-03-2021 20:40:18 6.5 C 38 %
270 12-03-2021 20:50:18 6.4 C 38 %
271 12-03-2021 21:00:18 6.3 C 38 %
272 12-03-2021 21:10:18 6 C 38 %
273 12-03-2021 21:20:17 6.2 C 38 %
274 12-03-2021 21:30:17 6.2 C 38 %
275 12-03-2021 21:40:17 6.2 C 38 %
Sensor: Nr:Datum:Temp:Feuchte:
Aussen-T/F 276 12-03-2021 21:50:17 6.2 C 38 %
277 12-03-2021 22:00:18 6.3 C 38 %
278 12-03-2021 22:10:18 6 C 38 %
279 12-03-2021 22:20:17 6.1 C 39 %
280 12-03-2021 22:30:17 6.2 C 39 %
281 12-03-2021 22:40:17 6.2 C 39 %
282 12-03-2021 22:50:18 5.9 C 40 %
283 12-03-2021 23:00:17 5.8 C 40 %
284 12-03-2021 23:10:18 5.6 C 40 %
285 12-03-2021 23:20:18 5.7 C 40 %
286 12-03-2021 23:30:18 6 C 40 %
287 12-03-2021 23:40:18 6 C 40 %
288 12-03-2021 23:50:17 6.2 C 39 %
289 13-03-2021 00:00:17 6 C 40 %
290 13-03-2021 00:10:17 6.3 C 39 %
291 13-03-2021 00:20:18 6.3 C 39 %
292 13-03-2021 00:30:17 6.5 C 39 %
293 13-03-2021 00:40:17 6.6 C 39 %
294 13-03-2021 00:50:18 6.3 C 39 %
295 13-03-2021 01:00:18 6.3 C 39 %
296 13-03-2021 01:10:18 6.4 C 39 %
297 13-03-2021 01:20:18 6.7 C 39 %
298 13-03-2021 01:30:17 5.9 C 41 %
299 13-03-2021 01:40:17 6 C 41 %
300 13-03-2021 01:50:17 6.1 C 40 %
Sensor: Nr:Datum:Temp:Feuchte:
Aussen-T/F 301 13-03-2021 02:00:17 6.3 C 40 %
302 13-03-2021 02:10:17 6.5 C 40 %
303 13-03-2021 02:20:17 6.7 C 40 %
304 13-03-2021 02:30:17 6.8 C 40 %
305 13-03-2021 02:40:17 6.7 C 40 %
306 13-03-2021 02:50:18 6.7 C 40 %
307 13-03-2021 03:00:17 6.7 C 40 %
308 13-03-2021 03:10:17 6.5 C 40 %
309 13-03-2021 03:20:17 6.5 C 40 %
310 13-03-2021 03:30:17 6.5 C 40 %
311 13-03-2021 03:40:17 6.4 C 40 %
312 13-03-2021 03:50:17 6.2 C 40 %
313 13-03-2021 04:00:18 6 C 41 %
314 13-03-2021 04:10:18 6.2 C 41 %
315 13-03-2021 04:20:18 6.1 C 40 %
316 13-03-2021 04:30:17 6.2 C 40 %
317 13-03-2021 04:40:17 6.3 C 41 %
318 13-03-2021 04:50:18 6.1 C 40 %
319 13-03-2021 05:00:18 6.5 C 40 %
320 13-03-2021 05:10:18 7.1 C 40 %
321 13-03-2021 05:20:17 7.1 C 39 %
322 13-03-2021 05:30:18 7.2 C 40 %
323 13-03-2021 05:40:18 7.4 C 40 %
324 13-03-2021 05:50:17 7.6 C 39 %
325 13-03-2021 06:00:18 7.3 C 40 %
Sensor: Nr:Datum:Temp:Feuchte:
Aussen-T/F 326 13-03-2021 06:10:18 6.9 C 40 %
327 13-03-2021 06:20:18 6.9 C 41 %
328 13-03-2021 06:30:17 7.5 C 39 %
329 13-03-2021 06:40:17 7.5 C 39 %
330 13-03-2021 06:50:17 7.6 C 39 %
331 13-03-2021 07:00:17 7.6 C 39 %
332 13-03-2021 07:10:17 7.4 C 40 %
333 13-03-2021 07:20:18 7.9 C 39 %
334 13-03-2021 07:30:18 8.4 C 37 %
335 13-03-2021 07:40:18 8.5 C 37 %
336 13-03-2021 07:50:18 8.1 C 38 %
337 13-03-2021 08:00:17 7.6 C 40 %
338 13-03-2021 08:10:17 7.6 C 40 %
339 13-03-2021 08:20:18 7.3 C 40 %
340 13-03-2021 08:30:17 7.1 C 41 %
341 13-03-2021 08:40:18 7.2 C 41 %
342 13-03-2021 08:50:17 7.4 C 41 %
343 13-03-2021 09:00:17 7.6 C 40 %
344 13-03-2021 09:10:17 7.7 C 40 %
345 13-03-2021 09:20:18 7.7 C 40 %
346 13-03-2021 09:30:17 7.9 C 40 %
347 13-03-2021 09:40:17 7.9 C 40 %
348 13-03-2021 09:50:17 8.2 C 40 %
349 13-03-2021 10:00:18 8 C 40 %
350 13-03-2021 10:10:18 7.9 C 40 %
Sensor: Nr:Datum:Temp:Feuchte:
Aussen-T/F 351 13-03-2021 10:20:17 7.6 C 41 %
352 13-03-2021 10:30:17 7.4 C 41 %
353 13-03-2021 10:40:17 6.9 C 42 %
354 13-03-2021 10:50:18 6.4 C 41 %
355 13-03-2021 11:00:17 5.6 C 41 %
356 13-03-2021 11:10:17 5.6 C 41 %
357 13-03-2021 11:20:18 5.7 C 41 %
358 13-03-2021 11:30:17 6 C 40 %
359 13-03-2021 11:40:17 6.2 C 40 %
360 13-03-2021 11:50:17 6.3 C 40 %
361 13-03-2021 12:00:17 6.3 C 39 %
362 13-03-2021 12:10:17 6.1 C 39 %
363 13-03-2021 12:20:18 6.4 C 39 %
364 13-03-2021 12:30:17 6.8 C 39 %
365 13-03-2021 12:40:17 8 C 37 %
366 13-03-2021 12:51:17 8.6 C 36 %
367 13-03-2021 13:01:17 9 C 36 %
368 13-03-2021 13:10:17 8.2 C 37 %
369 13-03-2021 13:20:18 9.1 C 36 %
370 13-03-2021 13:30:17 9.3 C 36 %
371 13-03-2021 13:40:17 9.8 C 36 %
372 13-03-2021 13:50:18 8.5 C 36 %
373 13-03-2021 14:00:17 8.5 C 36 %
374 13-03-2021 14:10:17 10.1 C 35 %
375 13-03-2021 14:21:17 10.2 C 35 %
Sensor: Nr:Datum:Temp:Feuchte:
Aussen-T/F 376 13-03-2021 14:30:17 9.6 C 35 %
377 13-03-2021 14:40:18 8.2 C 36 %
378 13-03-2021 14:50:18 9.7 C 36 %
379 13-03-2021 15:00:18 9.7 C 35 %
380 13-03-2021 15:10:18 9.6 C 35 %
381 13-03-2021 15:20:17 10.9 C 32 %
382 13-03-2021 15:31:17 11.9 C 31 %
383 13-03-2021 15:41:17 10 C 32 %
384 13-03-2021 15:51:17 7.9 C 34 %
385 13-03-2021 16:01:17 7.3 C 36 %
386 13-03-2021 16:10:17 6.9 C 37 %
387 13-03-2021 16:21:17 5.7 C 40 %
388 13-03-2021 16:31:17 7 C 37 %
389 13-03-2021 16:41:17 9.1 C 34 %
390 13-03-2021 16:50:18 9.3 C 33 %
391 13-03-2021 17:00:18 9.1 C 33 %
392 13-03-2021 17:10:18 8.5 C 34 %
393 13-03-2021 17:21:17 8.3 C 35 %
394 13-03-2021 17:30:18 7.6 C 35 %
395 13-03-2021 17:40:18 7.9 C 35 %
396 13-03-2021 17:50:19 7.7 C 35 %
397 13-03-2021 18:01:17 7.3 C 35 %
398 13-03-2021 18:11:17 5.4 C 41 %
399 13-03-2021 18:21:17 4.1 C 43 %
400 13-03-2021 18:31:17 3.9 C 45 %
Sensor: Nr:Datum:Temp:Feuchte:
Aussen-T/F 401 13-03-2021 18:41:17 3.6 C 46 %
402 13-03-2021 18:51:17 3.6 C 47 %
403 13-03-2021 19:00:18 3.7 C 47 %
404 13-03-2021 19:10:18 5 C 41 %
405 13-03-2021 19:21:17 5.7 C 40 %
406 13-03-2021 19:31:17 5.7 C 39 %
407 13-03-2021 19:41:17 6 C 37 %
408 13-03-2021 19:51:18 5.4 C 38 %
409 13-03-2021 20:01:18 5.3 C 38 %
410 13-03-2021 20:11:18 5.5 C 38 %
411 13-03-2021 20:21:17 5.4 C 38 %
412 13-03-2021 20:31:18 5.6 C 38 %
413 13-03-2021 20:41:18 5.4 C 38 %
414 13-03-2021 20:51:17 5.3 C 38 %
415 13-03-2021 21:01:17 5.6 C 38 %
416 13-03-2021 21:11:17 5.6 C 38 %
417 13-03-2021 21:21:18 5.3 C 38 %
418 13-03-2021 21:31:17 5.1 C 38 %
419 13-03-2021 21:41:17 4.6 C 39 %
420 13-03-2021 21:51:18 4.5 C 40 %
421 13-03-2021 22:01:17 4.5 C 40 %
422 13-03-2021 22:11:17 5.2 C 38 %
423 13-03-2021 22:21:17 4.6 C 40 %
424 13-03-2021 22:31:17 4.8 C 39 %
425 13-03-2021 22:41:17 4.4 C 40 %
Sensor: Nr:Datum:Temp:Feuchte:
Aussen-T/F 426 13-03-2021 22:51:17 4.2 C 40 %
427 13-03-2021 23:01:17 4.6 C 40 %
428 13-03-2021 23:11:17 4.7 C 39 %
429 13-03-2021 23:21:18 4.6 C 40 %
430 13-03-2021 23:31:17 4.6 C 40 %
431 13-03-2021 23:41:17 4.6 C 40 %
432 13-03-2021 23:51:17 4.2 C 40 %
433 14-03-2021 00:01:18 4.3 C 40 %
434 14-03-2021 00:11:18 4 C 40 %
435 14-03-2021 00:21:17 3.5 C 42 %
436 14-03-2021 00:31:17 4 C 41 %
437 14-03-2021 00:41:17 4.6 C 40 %
438 14-03-2021 00:51:17 4.6 C 40 %
439 14-03-2021 01:01:17 4.4 C 40 %
440 14-03-2021 01:11:17 3.3 C 43 %
441 14-03-2021 01:21:17 2.8 C 46 %
442 14-03-2021 01:31:17 2.7 C 48 %
443 14-03-2021 01:41:17 2.7 C 49 %
444 14-03-2021 01:51:17 3.1 C 48 %
445 14-03-2021 02:01:18 3.2 C 46 %
446 14-03-2021 02:11:18 3.2 C 46 %
447 14-03-2021 02:21:17 3.2 C 46 %
448 14-03-2021 02:31:17 3.2 C 45 %
449 14-03-2021 02:41:17 3 C 45 %
450 14-03-2021 02:51:18 3.2 C 45 %
Sensor: Nr:Datum:Temp:Feuchte:
Aussen-T/F 451 14-03-2021 03:01:17 3.2 C 45 %
452 14-03-2021 03:11:17 3.1 C 46 %
453 14-03-2021 03:21:18 3.2 C 46 %
454 14-03-2021 03:31:18 3.3 C 45 %
455 14-03-2021 03:41:18 3.3 C 44 %
456 14-03-2021 03:51:18 3.3 C 44 %
457 14-03-2021 04:01:17 3.2 C 45 %
458 14-03-2021 04:11:17 3.2 C 44 %
459 14-03-2021 04:21:18 3.4 C 43 %
460 14-03-2021 04:31:18 3.3 C 43 %
461 14-03-2021 04:41:18 3.1 C 43 %
462 14-03-2021 04:51:18 3 C 43 %
463 14-03-2021 05:01:17 3 C 43 %
464 14-03-2021 05:11:17 3.1 C 43 %
465 14-03-2021 05:21:17 3 C 43 %
466 14-03-2021 05:31:18 3.2 C 42 %
467 14-03-2021 05:41:18 2.9 C 43 %
468 14-03-2021 05:51:18 3.3 C 42 %
469 14-03-2021 06:01:17 3.2 C 41 %
470 14-03-2021 06:11:17 3.2 C 41 %
471 14-03-2021 06:21:17 3 C 41 %
472 14-03-2021 06:31:18 3.2 C 42 %
473 14-03-2021 06:41:18 3.2 C 41 %
474 14-03-2021 06:51:18 3.3 C 41 %
475 14-03-2021 07:01:17 3.4 C 41 %
Sensor: Nr:Datum:Temp:Feuchte:
Aussen-T/F 476 14-03-2021 07:11:17 3.5 C 41 %
477 14-03-2021 07:21:18 3.6 C 41 %
478 14-03-2021 07:31:17 3.6 C 41 %
479 14-03-2021 07:41:18 3.8 C 41 %
480 14-03-2021 07:51:18 4.3 C 40 %
481 14-03-2021 08:01:18 4.3 C 40 %
482 14-03-2021 08:11:18 4.2 C 40 %
483 14-03-2021 08:21:17 4.4 C 40 %
484 14-03-2021 08:31:18 4.6 C 40 %
485 14-03-2021 08:41:18 4.6 C 40 %
486 14-03-2021 08:51:18 4.6 C 39 %
487 14-03-2021 09:01:18 4.6 C 39 %
488 14-03-2021 09:11:18 5.1 C 38 %
489 14-03-2021 09:21:17 5.6 C 38 %
490 14-03-2021 09:31:18 5.9 C 38 %
491 14-03-2021 09:41:18 5.9 C 38 %
492 14-03-2021 09:51:17 5.8 C 38 %
493 14-03-2021 10:01:17 6.2 C 37 %
494 14-03-2021 10:11:17 6.1 C 37 %
495 14-03-2021 10:21:18 6.3 C 37 %
496 14-03-2021 10:31:17 6 C 37 %
497 14-03-2021 10:41:17 5.9 C 38 %
498 14-03-2021 10:51:17 5.7 C 38 %
499 14-03-2021 11:01:18 5.9 C 38 %
500 14-03-2021 11:11:18 5.7 C 38 %
Sensor: Nr:Datum:Temp:Feuchte:
Aussen-T/F 501 14-03-2021 11:21:18 5.7 C 38 %
502 14-03-2021 11:31:18 5.8 C 39 %
503 14-03-2021 11:41:18 6.2 C 38 %
504 14-03-2021 11:51:18 7.6 C 36 %
505 14-03-2021 12:01:17 7.2 C 37 %
506 14-03-2021 12:11:17 7 C 36 %
507 14-03-2021 12:21:18 7.3 C 36 %
508 14-03-2021 12:31:18 7.2 C 36 %
509 14-03-2021 12:41:18 6.8 C 37 %
510 14-03-2021 12:51:18 6.9 C 37 %
511 14-03-2021 13:01:17 7 C 36 %
512 14-03-2021 13:11:18 6.7 C 37 %
513 14-03-2021 13:21:17 6.6 C 38 %
514 14-03-2021 13:31:17 7.1 C 37 %
515 14-03-2021 13:41:18 6.9 C 37 %
516 14-03-2021 13:51:18 7.3 C 37 %
517 14-03-2021 14:01:18 7.5 C 37 %
518 14-03-2021 14:11:18 6.4 C 38 %
519 14-03-2021 14:21:18 5.1 C 41 %
520 14-03-2021 14:31:18 5.4 C 43 %
521 14-03-2021 14:41:18 6.1 C 42 %
522 14-03-2021 14:51:17 6.9 C 41 %
523 14-03-2021 15:01:17 6.7 C 41 %
524 14-03-2021 15:11:17 7.6 C 40 %
525 14-03-2021 15:21:18 7.7 C 40 %
Sensor: Nr:Datum:Temp:Feuchte:
Aussen-T/F 526 14-03-2021 15:31:18 8.1 C 38 %
527 14-03-2021 15:41:18 8 C 37 %
528 14-03-2021 15:51:17 7.9 C 37 %
529 14-03-2021 16:01:17 7.9 C 36 %
530 14-03-2021 16:11:17 7.3 C 37 %
531 14-03-2021 16:21:17 5.4 C 40 %
532 14-03-2021 16:31:18 5.4 C 41 %
533 14-03-2021 16:41:18 7.7 C 39 %
534 14-03-2021 16:51:18 9 C 37 %
535 14-03-2021 17:01:17 7.1 C 39 %
536 14-03-2021 17:11:17 6.8 C 41 %
537 14-03-2021 17:21:18 6.1 C 42 %
538 14-03-2021 17:31:18 5.6 C 45 %
539 14-03-2021 17:41:18 5.3 C 45 %
540 14-03-2021 17:51:18 5.6 C 42 %
541 14-03-2021 18:01:17 5.2 C 45 %
542 14-03-2021 18:11:17 4.8 C 46 %
543 14-03-2021 18:21:18 4.7 C 45 %
544 14-03-2021 18:31:17 4.6 C 44 %
545 14-03-2021 18:41:18 4.6 C 44 %
546 14-03-2021 18:51:18 4.6 C 43 %
547 14-03-2021 19:01:18 4.3 C 42 %
548 14-03-2021 19:11:18 4.1 C 43 %
549 14-03-2021 19:21:17 3.8 C 45 %
550 14-03-2021 19:31:18 3.6 C 45 %
Sensor: Nr:Datum:Temp:Feuchte:
Aussen-T/F 551 14-03-2021 19:41:18 3.5 C 46 %
552 14-03-2021 19:51:17 3.6 C 45 %
553 14-03-2021 20:01:18 3.5 C 46 %
554 14-03-2021 20:11:18 3.5 C 45 %
555 14-03-2021 20:21:18 3.5 C 45 %
556 14-03-2021 20:31:17 3.6 C 45 %
557 14-03-2021 20:41:18 3.7 C 46 %
558 14-03-2021 20:51:18 3.6 C 46 %
559 14-03-2021 21:01:17 3.7 C 45 %
560 14-03-2021 21:11:17 3.6 C 46 %
561 14-03-2021 21:21:17 3.4 C 46 %
562 14-03-2021 21:31:17 3.5 C 45 %
563 14-03-2021 21:41:17 4.1 C 42 %
564 14-03-2021 21:51:18 4.2 C 42 %
565 14-03-2021 22:01:17 4.3 C 42 %
566 14-03-2021 22:11:17 4.2 C 42 %
567 14-03-2021 22:21:17 4.3 C 42 %
568 14-03-2021 22:31:17 4.2 C 42 %
569 14-03-2021 22:41:17 4.3 C 42 %
570 14-03-2021 22:51:18 4.5 C 41 %
571 14-03-2021 23:01:17 4.1 C 42 %
572 14-03-2021 23:11:17 4.2 C 42 %
573 14-03-2021 23:21:18 4.5 C 41 %
574 14-03-2021 23:31:18 4.2 C 41 %
575 14-03-2021 23:41:18 4.3 C 41 %
Sensor: Nr:Datum:Temp:Feuchte:
Aussen-T/F 576 14-03-2021 23:51:17 4 C 42 %
577 15-03-2021 00:01:18 3.6 C 43 %
578 15-03-2021 00:11:18 3.5 C 43 %
579 15-03-2021 00:21:17 3.3 C 44 %
580 15-03-2021 00:31:18 3.2 C 44 %
581 15-03-2021 00:41:18 3.2 C 44 %
582 15-03-2021 00:51:17 3.4 C 44 %
583 15-03-2021 01:01:17 4.2 C 42 %
584 15-03-2021 01:11:17 3.9 C 43 %
585 15-03-2021 01:21:18 4 C 42 %
586 15-03-2021 01:31:17 3.8 C 43 %
587 15-03-2021 01:41:17 4.4 C 42 %
588 15-03-2021 01:51:17 4.6 C 41 %
589 15-03-2021 02:01:17 4.4 C 42 %
590 15-03-2021 02:11:17 4.2 C 42 %
591 15-03-2021 02:21:17 4.2 C 42 %
592 15-03-2021 02:31:18 4.3 C 42 %
593 15-03-2021 02:41:18 4 C 44 %
594 15-03-2021 02:51:18 3.9 C 45 %
595 15-03-2021 03:01:18 4 C 44 %
596 15-03-2021 03:11:18 3.8 C 46 %
597 15-03-2021 03:21:18 3.8 C 48 %
598 15-03-2021 03:31:18 3.8 C 48 %
599 15-03-2021 03:41:18 3.8 C 48 %
600 15-03-2021 03:51:18 3.9 C 47 %
Sensor: Nr:Datum:Temp:Feuchte:
Aussen-T/F 601 15-03-2021 04:01:17 3.9 C 48 %
602 15-03-2021 04:11:17 4.1 C 46 %
603 15-03-2021 04:21:18 4.2 C 45 %
604 15-03-2021 04:31:17 4.4 C 43 %
605 15-03-2021 04:41:17 4.4 C 44 %
606 15-03-2021 04:51:17 4.5 C 44 %
607 15-03-2021 05:01:17 4.3 C 44 %
608 15-03-2021 05:11:17 4.3 C 45 %
609 15-03-2021 05:21:17 4.3 C 45 %
610 15-03-2021 05:31:17 4.2 C 45 %
611 15-03-2021 05:41:18 4.1 C 46 %
612 15-03-2021 05:51:17 4.1 C 46 %
613 15-03-2021 06:01:17 4.1 C 46 %
614 15-03-2021 06:11:17 3.9 C 47 %
615 15-03-2021 06:21:18 3.6 C 47 %
616 15-03-2021 06:31:17 3.6 C 47 %
617 15-03-2021 06:41:17 3.7 C 47 %
618 15-03-2021 06:51:17 3.6 C 47 %
619 15-03-2021 07:01:17 3.7 C 46 %
620 15-03-2021 07:11:17 3.7 C 47 %
621 15-03-2021 07:21:17 3.8 C 46 %
622 15-03-2021 07:31:17 3.8 C 46 %
623 15-03-2021 07:41:17 3.8 C 47 %
624 15-03-2021 07:51:17 3.8 C 46 %
625 15-03-2021 08:01:18 3.8 C 47 %
Sensor: Nr:Datum:Temp:Feuchte:
Aussen-T/F 626 15-03-2021 08:11:18 3.8 C 48 %
627 15-03-2021 08:21:17 3.8 C 49 %
628 15-03-2021 08:31:17 4.3 C 48 %
629 15-03-2021 08:41:17 4.5 C 47 %
630 15-03-2021 08:51:18 4.6 C 45 %
631 15-03-2021 09:01:17 4.7 C 44 %
632 15-03-2021 09:11:17 5.1 C 43 %
633 15-03-2021 09:21:17 5 C 43 %
634 15-03-2021 09:31:18 5.2 C 43 %
635 15-03-2021 09:41:18 5.5 C 42 %
636 15-03-2021 09:51:17 5.5 C 42 %
637 15-03-2021 10:01:17 5.7 C 42 %
638 15-03-2021 10:11:17 6.4 C 41 %
639 15-03-2021 10:21:18 6.5 C 40 %
640 15-03-2021 10:31:17 6.2 C 41 %
641 15-03-2021 10:41:17 6.3 C 41 %
642 15-03-2021 10:51:17 6.9 C 40 %
643 15-03-2021 11:01:17 7 C 39 %
644 15-03-2021 11:11:17 7.9 C 38 %
645 15-03-2021 11:21:17 8.1 C 37 %
646 15-03-2021 11:31:17 7.2 C 37 %
647 15-03-2021 11:41:17 6.5 C 39 %
648 15-03-2021 11:51:17 6.4 C 39 %
649 15-03-2021 12:01:17 6.4 C 40 %
650 15-03-2021 12:11:17 7.2 C 38 %
Sensor: Nr:Datum:Temp:Feuchte:
Aussen-T/F 651 15-03-2021 12:21:17 9.2 C 36 %
652 15-03-2021 12:31:17 8.1 C 36 %
653 15-03-2021 12:41:18 7.9 C 37 %
654 15-03-2021 12:51:18 8.6 C 36 %
655 15-03-2021 13:01:17 9 C 35 %
656 15-03-2021 13:11:17 8.5 C 35 %
657 15-03-2021 13:21:18 8.7 C 35 %
658 15-03-2021 13:31:18 10.3 C 34 %
659 15-03-2021 13:41:18 8.9 C 35 %
660 15-03-2021 13:51:18 5.9 C 40 %
661 15-03-2021 14:01:17 5.3 C 41 %
662 15-03-2021 14:11:17 5.4 C 41 %
663 15-03-2021 14:21:17 5.6 C 41 %
664 15-03-2021 14:31:17 6.5 C 40 %
665 15-03-2021 14:41:17 8.2 C 36 %
666 15-03-2021 14:51:18 8.2 C 37 %
667 15-03-2021 15:01:18 7.5 C 37 %
668 15-03-2021 15:11:18 9.3 C 35 %
669 15-03-2021 15:21:17 12.7 C 31 %
670 15-03-2021 15:31:17 12 C 30 %
671 15-03-2021 15:41:17 8.7 C 35 %
672 15-03-2021 15:51:17 9.9 C 33 %
673 15-03-2021 16:01:17 10.7 C 31 %
674 15-03-2021 16:11:17 11.1 C 31 %
675 15-03-2021 16:21:18 10.8 C 32 %
Sensor: Nr:Datum:Temp:Feuchte:
Aussen-T/F 676 15-03-2021 16:31:17 11.1 C 31 %
677 15-03-2021 16:41:17 11.9 C 31 %
678 15-03-2021 16:51:17 10.9 C 32 %
679 15-03-2021 17:01:17 9 C 33 %
680 15-03-2021 17:11:18 8.4 C 34 %
681 15-03-2021 17:21:17 8.7 C 33 %
682 15-03-2021 17:31:17 8.4 C 33 %
683 15-03-2021 17:41:17 7.9 C 35 %
684 15-03-2021 17:51:18 7.8 C 35 %
685 15-03-2021 18:01:17 6 C 39 %
686 15-03-2021 18:11:17 5.3 C 42 %
687 15-03-2021 18:21:18 4.7 C 44 %
688 15-03-2021 18:31:17 5 C 44 %
689 15-03-2021 18:41:17 5 C 43 %
690 15-03-2021 18:51:17 4.9 C 45 %
691 15-03-2021 19:01:18 4.8 C 44 %
692 15-03-2021 19:11:18 4.6 C 44 %
693 15-03-2021 19:21:17 4.9 C 44 %
694 15-03-2021 19:31:17 4.9 C 44 %
695 15-03-2021 19:41:17 5 C 42 %
696 15-03-2021 19:51:18 5.2 C 42 %
697 15-03-2021 20:01:17 5 C 42 %
698 15-03-2021 20:11:17 4.9 C 43 %
699 15-03-2021 20:21:18 4.6 C 44 %
700 15-03-2021 20:31:17 4.5 C 45 %
Sensor: Nr:Datum:Temp:Feuchte:
Aussen-T/F 701 15-03-2021 20:41:18 4.5 C 46 %
702 15-03-2021 20:51:17 4.5 C 45 %
703 15-03-2021 21:01:18 4.2 C 44 %
704 15-03-2021 21:11:18 4.1 C 45 %
705 15-03-2021 21:21:17 4.2 C 45 %
706 15-03-2021 21:31:17 4.5 C 44 %
707 15-03-2021 21:41:17 4.4 C 44 %
708 15-03-2021 21:51:17 4.4 C 44 %
709 15-03-2021 22:01:17 4.4 C 44 %
710 15-03-2021 22:11:18 4.2 C 44 %
711 15-03-2021 22:21:17 4.4 C 43 %
712 15-03-2021 22:31:17 4.2 C 43 %
713 15-03-2021 22:41:17 3.9 C 45 %
714 15-03-2021 22:51:18 4.2 C 43 %
715 15-03-2021 23:01:17 3.7 C 44 %
716 15-03-2021 23:11:17 3.4 C 44 %
717 15-03-2021 23:21:18 3.3 C 45 %
718 15-03-2021 23:31:17 3.3 C 45 %
719 15-03-2021 23:41:17 3.3 C 45 %
720 15-03-2021 23:51:18 3.5 C 45 %
721 16-03-2021 00:01:17 4.3 C 43 %
722 16-03-2021 00:11:17 4.2 C 43 %
723 16-03-2021 00:21:17 4.4 C 42 %
724 16-03-2021 00:31:17 4.1 C 43 %
725 16-03-2021 00:41:17 4.5 C 42 %
Sensor: Nr:Datum:Temp:Feuchte:
Aussen-T/F 726 16-03-2021 00:51:17 4.6 C 42 %
727 16-03-2021 01:01:18 4.7 C 42 %
728 16-03-2021 01:11:18 4.6 C 42 %
729 16-03-2021 01:21:18 4.6 C 42 %
730 16-03-2021 01:31:18 4.1 C 42 %
731 16-03-2021 01:41:18 3.7 C 44 %
732 16-03-2021 01:51:17 3.8 C 44 %
733 16-03-2021 02:01:18 3.4 C 45 %
734 16-03-2021 02:11:18 3.4 C 45 %
735 16-03-2021 02:21:18 3.4 C 45 %
736 16-03-2021 02:31:17 3.5 C 45 %
737 16-03-2021 02:41:17 3.5 C 45 %
738 16-03-2021 02:51:18 3.5 C 46 %
739 16-03-2021 03:01:17 3.3 C 47 %
740 16-03-2021 03:11:17 3.2 C 47 %
741 16-03-2021 03:21:17 3.2 C 48 %
742 16-03-2021 03:31:18 3.3 C 48 %
743 16-03-2021 03:41:18 3.3 C 48 %
744 16-03-2021 03:51:17 3.5 C 48 %
745 16-03-2021 04:01:18 3.8 C 45 %
746 16-03-2021 04:11:18 3.9 C 45 %
747 16-03-2021 04:21:17 4 C 43 %
748 16-03-2021 04:31:18 3.8 C 45 %
749 16-03-2021 04:41:18 3.7 C 45 %
750 16-03-2021 04:51:17 3.8 C 44 %
Sensor: Nr:Datum:Temp:Feuchte:
Aussen-T/F 751 16-03-2021 05:01:18 3.7 C 44 %
752 16-03-2021 05:11:18 3.6 C 45 %
753 16-03-2021 05:21:17 3.4 C 45 %
754 16-03-2021 05:31:18 3.3 C 45 %
755 16-03-2021 05:41:18 3.4 C 48 %
756 16-03-2021 05:51:17 3.3 C 47 %
757 16-03-2021 06:01:17 3.4 C 47 %
758 16-03-2021 06:11:17 3.5 C 46 %
759 16-03-2021 06:21:18 3.5 C 46 %
760 16-03-2021 06:31:17 3.6 C 46 %
761 16-03-2021 06:41:17 3.6 C 45 %
762 16-03-2021 06:51:17 3.5 C 45 %
763 16-03-2021 07:01:17 3.6 C 44 %
764 16-03-2021 07:11:17 3.9 C 44 %
765 16-03-2021 07:21:17 4.1 C 43 %
766 16-03-2021 07:31:17 4.1 C 43 %
767 16-03-2021 07:41:17 4.2 C 43 %
768 16-03-2021 07:51:17 4.3 C 43 %
769 16-03-2021 08:01:18 4.5 C 43 %
770 16-03-2021 08:11:18 4.7 C 42 %
771 16-03-2021 08:21:18 5.1 C 41 %
772 16-03-2021 08:31:17 5.2 C 41 %
773 16-03-2021 08:41:17 4.1 C 43 %
774 16-03-2021 08:51:18 4.3 C 44 %
775 16-03-2021 09:01:17 4.5 C 44 %
Sensor: Nr:Datum:Temp:Feuchte:
Aussen-T/F 776 16-03-2021 09:11:17 4.4 C 43 %
777 16-03-2021 09:21:17 4.1 C 43 %
778 16-03-2021 09:31:17 4.9 C 42 %
779 16-03-2021 09:41:17 6 C 40 %
780 16-03-2021 09:51:18 6.3 C 39 %
781 16-03-2021 10:01:18 6.6 C 39 %
782 16-03-2021 10:11:18 6.8 C 38 %
783 16-03-2021 10:21:17 6.7 C 37 %
784 16-03-2021 10:31:18 6.8 C 37 %
785 16-03-2021 10:41:18 7.4 C 36 %
786 16-03-2021 10:51:18 5.2 C 41 %
787 16-03-2021 11:01:17 5.2 C 41 %
788 16-03-2021 11:11:17 5.9 C 41 %
789 16-03-2021 11:21:17 6.2 C 40 %
790 16-03-2021 11:31:17 6.9 C 40 %
791 16-03-2021 11:41:17 6.2 C 38 %
792 16-03-2021 11:51:17 5.4 C 41 %
793 16-03-2021 12:01:17 5.5 C 41 %
794 16-03-2021 12:11:17 5.6 C 41 %
795 16-03-2021 12:21:17 5.7 C 41 %
796 16-03-2021 12:31:17 6.3 C 40 %
797 16-03-2021 12:41:17 7 C 39 %
798 16-03-2021 12:51:17 7.5 C 38 %
799 16-03-2021 13:01:18 9.3 C 36 %
800 16-03-2021 13:11:18 9.3 C 36 %
Sensor: Nr:Datum:Temp:Feuchte:
Aussen-T/F 801 16-03-2021 13:21:17 10.1 C 35 %
802 16-03-2021 13:31:17 8.7 C 35 %
803 16-03-2021 13:41:17 8.9 C 35 %
804 16-03-2021 13:51:17 8 C 35 %
805 16-03-2021 14:01:18 7.9 C 36 %
806 16-03-2021 14:11:18 7.9 C 36 %
807 16-03-2021 14:21:17 7.9 C 37 %
808 16-03-2021 14:31:17 7.5 C 37 %
809 16-03-2021 14:41:17 7.6 C 37 %
810 16-03-2021 14:51:17 7.6 C 36 %
811 16-03-2021 15:01:17 8.5 C 35 %
812 16-03-2021 15:11:17 8.1 C 35 %
813 16-03-2021 15:21:18 8.8 C 35 %
814 16-03-2021 15:31:18 10.7 C 33 %
815 16-03-2021 15:41:18 9.6 C 34 %
816 16-03-2021 15:51:17 9.3 C 34 %
817 16-03-2021 16:01:17 8.2 C 35 %
818 16-03-2021 16:11:17 7.9 C 35 %
819 16-03-2021 16:21:17 6 C 38 %
820 16-03-2021 16:31:17 5.7 C 40 %
821 16-03-2021 16:41:17 5.7 C 40 %
822 16-03-2021 16:51:17 5.7 C 41 %
823 16-03-2021 17:01:17 5.9 C 40 %
824 16-03-2021 17:11:17 6.2 C 40 %
825 16-03-2021 17:21:17 6.3 C 40 %
Sensor: Nr:Datum:Temp:Feuchte:
Aussen-T/F 826 16-03-2021 17:31:17 6.3 C 40 %
827 16-03-2021 17:41:17 6.4 C 40 %
828 16-03-2021 17:51:17 6.2 C 40 %
829 16-03-2021 18:01:18 5.9 C 40 %
830 16-03-2021 18:11:18 5.7 C 40 %
831 16-03-2021 18:21:17 5.4 C 40 %
832 16-03-2021 18:31:18 5.7 C 40 %
833 16-03-2021 18:41:18 5.4 C 39 %
834 16-03-2021 18:51:17 5.2 C 40 %
835 16-03-2021 19:01:17 5.2 C 40 %
836 16-03-2021 19:11:17 5.2 C 40 %
837 16-03-2021 19:21:18 5 C 40 %
838 16-03-2021 19:31:18 5 C 41 %
839 16-03-2021 19:41:18 5 C 41 %
840 16-03-2021 19:51:17 5.1 C 40 %
841 16-03-2021 20:01:18 5 C 41 %
842 16-03-2021 20:11:18 5.1 C 40 %
843 16-03-2021 20:21:17 5.1 C 40 %
844 16-03-2021 20:31:17 4.8 C 41 %
845 16-03-2021 20:41:17 4.9 C 41 %
846 16-03-2021 20:51:17 4.8 C 41 %
847 16-03-2021 21:01:17 5 C 40 %
848 16-03-2021 21:11:17 4.8 C 42 %
849 16-03-2021 21:21:17 4.7 C 42 %
850 16-03-2021 21:31:18 4.8 C 42 %
Sensor: Nr:Datum:Temp:Feuchte:
Aussen-T/F 851 16-03-2021 21:41:18 4.6 C 42 %
852 16-03-2021 21:51:18 4.6 C 42 %
853 16-03-2021 22:01:17 4.6 C 42 %
854 16-03-2021 22:11:17 4.6 C 43 %
855 16-03-2021 22:21:18 4.6 C 42 %
856 16-03-2021 22:31:17 4.6 C 42 %
857 16-03-2021 22:41:17 4.5 C 43 %
858 16-03-2021 22:51:18 4.2 C 43 %
859 16-03-2021 23:01:17 4 C 43 %
860 16-03-2021 23:11:17 4.1 C 44 %
861 16-03-2021 23:21:17 3.9 C 45 %
862 16-03-2021 23:31:17 4.1 C 45 %
863 16-03-2021 23:41:17 4.1 C 45 %
864 16-03-2021 23:51:18 3.9 C 47 %
865 17-03-2021 00:01:17 4 C 46 %
866 17-03-2021 00:11:17 4 C 46 %
867 17-03-2021 00:21:18 4 C 47 %
868 17-03-2021 00:31:18 4 C 47 %
869 17-03-2021 00:41:18 4 C 48 %
870 17-03-2021 00:51:18 4 C 48 %
871 17-03-2021 01:01:17 3.9 C 49 %
872 17-03-2021 01:11:17 4 C 48 %
873 17-03-2021 01:21:17 4 C 48 %
874 17-03-2021 01:31:18 3.9 C 49 %
875 17-03-2021 01:41:18 3.8 C 49 %
Sensor: Nr:Datum:Temp:Feuchte:
Aussen-T/F 876 17-03-2021 01:51:17 3.8 C 49 %
877 17-03-2021 02:01:17 3.8 C 49 %
878 17-03-2021 02:11:17 3.8 C 49 %
879 17-03-2021 02:21:17 3.8 C 49 %
880 17-03-2021 02:31:18 3.8 C 49 %
881 17-03-2021 02:41:18 3.7 C 48 %
882 17-03-2021 02:51:17 3.7 C 48 %
883 17-03-2021 03:01:17 3.8 C 48 %
884 17-03-2021 03:11:17 3.7 C 48 %
885 17-03-2021 03:21:17 3.7 C 48 %
886 17-03-2021 03:31:18 3.6 C 48 %
887 17-03-2021 03:41:18 3.6 C 48 %
888 17-03-2021 03:51:17 3.5 C 48 %
889 17-03-2021 04:01:18 3.4 C 48 %
890 17-03-2021 04:11:18 3.4 C 48 %
891 17-03-2021 04:21:18 3.4 C 48 %
892 17-03-2021 04:31:18 3.4 C 49 %
893 17-03-2021 04:41:18 3.4 C 49 %
894 17-03-2021 04:51:18 3.4 C 49 %
895 17-03-2021 05:01:17 3.5 C 49 %
896 17-03-2021 05:11:17 3.5 C 49 %
897 17-03-2021 05:21:18 3.5 C 49 %
898 17-03-2021 05:31:18 3.5 C 49 %
899 17-03-2021 05:41:18 3.5 C 49 %
900 17-03-2021 05:51:17 3.5 C 49 %
Sensor: Nr:Datum:Temp:Feuchte:
Aussen-T/F 901 17-03-2021 06:01:17 3.5 C 49 %
902 17-03-2021 06:11:17 3.5 C 49 %
903 17-03-2021 06:21:17 3.5 C 49 %
904 17-03-2021 06:31:17 3.5 C 49 %
905 17-03-2021 06:41:18 3.6 C 49 %
906 17-03-2021 06:51:17 3.6 C 49 %
907 17-03-2021 07:01:18 3.6 C 50 %
908 17-03-2021 07:11:18 3.7 C 49 %
909 17-03-2021 07:21:17 3.5 C 48 %
910 17-03-2021 07:31:18 3.6 C 47 %
911 17-03-2021 07:41:18 3.6 C 46 %
912 17-03-2021 07:51:17 3.6 C 46 %
913 17-03-2021 08:01:17 3.7 C 46 %
914 17-03-2021 08:11:17 3.7 C 46 %
915 17-03-2021 08:21:18 3.6 C 46 %
916 17-03-2021 08:31:18 3.6 C 46 %
917 17-03-2021 08:41:18 3.6 C 46 %
918 17-03-2021 08:51:17 3.6 C 45 %
919 17-03-2021 09:01:17 3.6 C 46 %
920 17-03-2021 09:11:17 3.6 C 45 %
921 17-03-2021 09:21:17 3.7 C 45 %
922 17-03-2021 09:31:17 4 C 44 %
923 17-03-2021 09:41:17 3.8 C 45 %
924 17-03-2021 09:51:18 3.8 C 45 %
925 17-03-2021 10:01:17 3.8 C 45 %
Sensor: Nr:Datum:Temp:Feuchte:
Aussen-T/F 926 17-03-2021 10:11:17 3.8 C 45 %
927 17-03-2021 10:21:17 4 C 44 %
928 17-03-2021 10:31:18 4.2 C 44 %
929 17-03-2021 10:41:18 4.8 C 43 %
930 17-03-2021 10:51:18 6 C 41 %
931 17-03-2021 11:01:17 5 C 41 %
932 17-03-2021 11:11:17 4.7 C 42 %
933 17-03-2021 11:21:18 5.3 C 41 %
934 17-03-2021 11:31:17 5.5 C 40 %
935 17-03-2021 11:41:17 6.1 C 40 %
936 17-03-2021 11:51:17 6.5 C 39 %
937 17-03-2021 12:01:17 6.4 C 39 %
938 17-03-2021 12:11:17 7.3 C 39 %
939 17-03-2021 12:21:17 8.6 C 36 %
940 17-03-2021 12:31:17 8.8 C 35 %
941 17-03-2021 12:41:18 7.1 C 35 %
942 17-03-2021 12:51:18 6 C 36 %
943 17-03-2021 13:01:17 5.9 C 37 %
944 17-03-2021 13:11:17 5.4 C 38 %
945 17-03-2021 13:21:17 6 C 36 %
946 17-03-2021 13:31:18 6.4 C 36 %
947 17-03-2021 13:41:18 6.4 C 35 %
948 17-03-2021 13:51:17 7.4 C 35 %
949 17-03-2021 14:01:17 7.6 C 33 %
950 17-03-2021 14:11:18 6.7 C 35 %
Sensor: Nr:Datum:Temp:Feuchte:
Aussen-T/F 951 17-03-2021 14:21:17 6.4 C 35 %
952 17-03-2021 14:31:17 6.3 C 35 %
953 17-03-2021 14:41:17 5.9 C 35 %
954 17-03-2021 14:51:18 5.8 C 36 %
955 17-03-2021 15:01:17 5.3 C 36 %
956 17-03-2021 15:11:17 4.8 C 38 %
957 17-03-2021 15:21:18 4.2 C 39 %
958 17-03-2021 15:31:17 4.8 C 39 %
959 17-03-2021 15:41:17 5.6 C 37 %
960 17-03-2021 15:51:18 5.7 C 36 %
961 17-03-2021 16:01:18 5.9 C 36 %
962 17-03-2021 16:11:18 6.2 C 36 %
963 17-03-2021 16:21:18 6.3 C 35 %
964 17-03-2021 16:31:18 5.9 C 35 %
965 17-03-2021 16:41:18 5.7 C 34 %
966 17-03-2021 16:51:18 5.7 C 34 %
967 17-03-2021 17:01:17 5.7 C 34 %
968 17-03-2021 17:11:17 5.6 C 34 %
969 17-03-2021 17:21:17 5.6 C 34 %
970 17-03-2021 17:31:18 5.5 C 34 %
971 17-03-2021 17:41:18 5.4 C 34 %
972 17-03-2021 17:51:17 5.4 C 34 %
973 17-03-2021 18:01:17 5.3 C 33 %
974 17-03-2021 18:11:17 5.2 C 34 %
975 17-03-2021 18:21:18 5.2 C 34 %
Sensor: Nr:Datum:Temp:Feuchte:
Aussen-T/F 976 17-03-2021 18:31:18 5 C 35 %
977 17-03-2021 18:41:18 4.8 C 35 %
978 17-03-2021 18:51:18 4.6 C 35 %
979 17-03-2021 19:01:17 4.6 C 36 %
980 17-03-2021 19:11:17 4.4 C 35 %
981 17-03-2021 19:21:18 4.3 C 36 %
982 17-03-2021 19:31:18 4.2 C 37 %
983 17-03-2021 19:41:18 4 C 38 %
984 17-03-2021 19:51:17 3.9 C 40 %
985 17-03-2021 20:01:18 3.8 C 39 %
986 17-03-2021 20:11:18 3.8 C 39 %
987 17-03-2021 20:21:17 3.7 C 40 %
988 17-03-2021 20:31:18 3.5 C 38 %
989 17-03-2021 20:41:18 2.8 C 40 %
990 17-03-2021 20:51:18 2.6 C 40 %
991 17-03-2021 21:01:17 2.2 C 41 %
992 17-03-2021 21:11:17 2.4 C 41 %
993 17-03-2021 21:21:18 2.7 C 41 %
994 17-03-2021 21:31:18 2.7 C 43 %
995 17-03-2021 21:41:18 2.9 C 43 %
996 17-03-2021 21:51:18 3.1 C 41 %
997 17-03-2021 22:01:17 3.1 C 41 %
998 17-03-2021 22:11:17 3.1 C 41 %
999 17-03-2021 22:21:18 3 C 41 %
1000 17-03-2021 22:31:17 2.8 C 42 %
Sensor: Nr:Datum:Temp:Feuchte:
Aussen-T/F 1001 17-03-2021 22:41:17 2.6 C 44 %
1002 17-03-2021 22:51:17 2.2 C 44 %
1003 17-03-2021 23:01:17 2.4 C 44 %
1004 17-03-2021 23:11:17 2.5 C 43 %
1005 17-03-2021 23:21:17 2.4 C 43 %
1006 17-03-2021 23:31:18 1.7 C 45 %
1007 17-03-2021 23:41:18 1.1 C 45 %
1008 17-03-2021 23:51:18 1.2 C 45 %
1009 18-03-2021 00:01:17 0.8 C 46 %
1010 18-03-2021 00:11:17 0.7 C 46 %
1011 18-03-2021 00:21:18 0.9 C 46 %
1012 18-03-2021 00:31:18 0.8 C 46 %
1013 18-03-2021 00:41:18 0.7 C 46 %
1014 18-03-2021 00:51:17 0.7 C 46 %
1015 18-03-2021 01:01:18 0.6 C 46 %
1016 18-03-2021 01:11:18 0.6 C 46 %
1017 18-03-2021 01:21:18 0.1 C 46 %
1018 18-03-2021 01:31:17 -0.1 C 49 %
1019 18-03-2021 01:41:17 -0.8 C 47 %
1020 18-03-2021 01:51:17 -1.1 C 48 %
1021 18-03-2021 02:01:17 -1.1 C 50 %
1022 18-03-2021 02:11:17 -1.1 C 49 %
1023 18-03-2021 02:21:17 -1.4 C 49 %
1024 18-03-2021 02:31:17 -1.8 C 49 %
1025 18-03-2021 02:41:17 -1.7 C 50 %
Sensor: Nr:Datum:Temp:Feuchte:
Aussen-T/F 1026 18-03-2021 02:51:18 -1.5 C 50 %
1027 18-03-2021 03:01:18 -1.4 C 50 %
1028 18-03-2021 03:11:18 -1.5 C 50 %
1029 18-03-2021 03:21:18 -1.5 C 50 %
1030 18-03-2021 03:31:18 -1.5 C 50 %
1031 18-03-2021 03:41:18 -1.6 C 50 %
1032 18-03-2021 03:51:18 -1.8 C 50 %
1033 18-03-2021 04:01:17 -1.9 C 50 %
1034 18-03-2021 04:11:18 -1.7 C 50 %
1035 18-03-2021 04:21:17 -2.1 C 50 %
1036 18-03-2021 04:31:18 -2.3 C 50 %
1037 18-03-2021 04:41:18 -2.2 C 50 %
1038 18-03-2021 04:51:18 -2.3 C 50 %
1039 18-03-2021 05:01:18 -2.4 C 50 %
1040 18-03-2021 05:11:18 -2.3 C 50 %
1041 18-03-2021 05:21:17 -2.3 C 50 %
1042 18-03-2021 05:31:17 -0.8 C 51 %
1043 18-03-2021 05:41:17 -0.6 C 51 %
1044 18-03-2021 05:51:18 -0.4 C 51 %
1045 18-03-2021 06:01:18 -0.4 C 51 %
1046 18-03-2021 06:11:18 -0.4 C 50 %
1047 18-03-2021 06:21:18 -0.4 C 50 %
1048 18-03-2021 06:31:17 -0.3 C 50 %
1049 18-03-2021 06:41:17 -0.1 C 50 %
1050 18-03-2021 06:51:17 0.1 C 51 %
Sensor: Nr:Datum:Temp:Feuchte:
Aussen-T/F 1051 18-03-2021 07:01:18 0.1 C 51 %
1052 18-03-2021 07:11:18 0.2 C 51 %
1053 18-03-2021 07:21:18 0.5 C 51 %
1054 18-03-2021 07:31:17 0.4 C 50 %
1055 18-03-2021 07:41:17 0.5 C 50 %
1056 18-03-2021 07:51:17 0.5 C 50 %
1057 18-03-2021 08:01:17 0.6 C 50 %
1058 18-03-2021 08:11:17 0.9 C 50 %
1059 18-03-2021 08:21:18 1.2 C 49 %
1060 18-03-2021 08:31:18 1.1 C 47 %
1061 18-03-2021 08:41:18 1.3 C 47 %
1062 18-03-2021 08:51:18 1.4 C 47 %
1063 18-03-2021 09:01:17 1.5 C 46 %
1064 18-03-2021 09:11:18 1.7 C 46 %
1065 18-03-2021 09:21:18 1.9 C 46 %
1066 18-03-2021 09:31:18 2.2 C 45 %
1067 18-03-2021 09:41:18 2.2 C 44 %
1068 18-03-2021 09:51:18 2.7 C 43 %
1069 18-03-2021 10:01:17 3.1 C 42 %
1070 18-03-2021 10:11:17 4.2 C 40 %
1071 18-03-2021 10:21:18 3.7 C 41 %
1072 18-03-2021 10:31:17 3.2 C 41 %
1073 18-03-2021 10:41:17 3.3 C 41 %
1074 18-03-2021 10:51:17 3.1 C 41 %
1075 18-03-2021 11:01:18 3.3 C 41 %
Sensor: Nr:Datum:Temp:Feuchte:
Aussen-T/F 1076 18-03-2021 11:11:18 3.7 C 41 %
1077 18-03-2021 11:21:18 3.8 C 41 %
1078 18-03-2021 11:31:17 4 C 40 %
1079 18-03-2021 11:41:17 3.6 C 41 %
1080 18-03-2021 11:51:17 4.1 C 40 %
1081 18-03-2021 12:01:17 5.2 C 38 %
1082 18-03-2021 12:11:17 4.5 C 39 %
1083 18-03-2021 12:21:17 4.8 C 39 %
1084 18-03-2021 12:31:18 5.2 C 38 %
1085 18-03-2021 12:41:18 6.2 C 37 %
1086 18-03-2021 12:51:18 7.7 C 35 %
1087 18-03-2021 13:01:18 7.1 C 35 %
1088 18-03-2021 13:11:18 7 C 34 %
1089 18-03-2021 13:21:17 7.8 C 34 %
1090 18-03-2021 13:31:17 9.4 C 32 %
1091 18-03-2021 13:41:17 8.3 C 32 %
1092 18-03-2021 13:51:17 7.7 C 33 %
1093 18-03-2021 14:01:17 7.8 C 33 %
1094 18-03-2021 14:11:17 7 C 34 %
1095 18-03-2021 14:21:17 7.8 C 33 %
1096 18-03-2021 14:31:18 8.1 C 32 %
1097 18-03-2021 14:41:18 6.8 C 35 %
1098 18-03-2021 14:51:17 7.5 C 33 %
1099 18-03-2021 15:01:18 9.2 C 32 %
1100 18-03-2021 15:11:18 6.7 C 34 %
Sensor: Nr:Datum:Temp:Feuchte:
Aussen-T/F 1101 18-03-2021 15:21:17 6.9 C 35 %
1102 18-03-2021 15:31:17 6.9 C 34 %
1103 18-03-2021 15:41:17 7.1 C 33 %
1104 18-03-2021 15:51:18 7.5 C 33 %
1105 18-03-2021 16:01:17 6.8 C 35 %
1106 18-03-2021 16:11:17 6.8 C 35 %
1107 18-03-2021 16:21:18 7 C 34 %
1108 18-03-2021 16:31:17 7.4 C 33 %
1109 18-03-2021 16:41:18 7 C 33 %
1110 18-03-2021 16:51:17 6.9 C 35 %
1111 18-03-2021 17:01:17 6.7 C 34 %
1112 18-03-2021 17:11:17 6.7 C 34 %
1113 18-03-2021 17:21:18 6.6 C 34 %
1114 18-03-2021 17:31:17 6.3 C 34 %
1115 18-03-2021 17:41:17 6.1 C 34 %
1116 18-03-2021 17:51:17 5.9 C 35 %
1117 18-03-2021 18:01:17 5.8 C 35 %
1118 18-03-2021 18:11:17 5.6 C 35 %
1119 18-03-2021 18:21:17 5.4 C 35 %
1120 18-03-2021 18:31:18 5.2 C 36 %
1121 18-03-2021 18:41:18 5.1 C 36 %
1122 18-03-2021 18:51:17 5.2 C 36 %
1123 18-03-2021 19:01:17 4.8 C 37 %
1124 18-03-2021 19:11:17 4.7 C 37 %
1125 18-03-2021 19:21:17 4.6 C 37 %
Sensor: Nr:Datum:Temp:Feuchte:
Aussen-T/F 1126 18-03-2021 19:31:17 4.7 C 37 %
1127 18-03-2021 19:41:18 4.5 C 38 %
1128 18-03-2021 19:51:17 4.4 C 38 %
1129 18-03-2021 20:01:17 4.4 C 39 %
1130 18-03-2021 20:11:17 4.2 C 40 %
1131 18-03-2021 20:21:17 4.2 C 39 %
1132 18-03-2021 20:31:17 4.4 C 39 %
1133 18-03-2021 20:41:17 4.2 C 40 %
1134 18-03-2021 20:51:18 4.3 C 40 %
1135 18-03-2021 21:01:17 3.8 C 42 %
1136 18-03-2021 21:11:17 3.8 C 42 %
1137 18-03-2021 21:21:18 3.6 C 44 %
1138 18-03-2021 21:31:17 3.6 C 44 %
1139 18-03-2021 21:41:17 3.5 C 43 %
1140 18-03-2021 21:51:17 3.5 C 45 %
1141 18-03-2021 22:01:18 3.2 C 45 %
1142 18-03-2021 22:11:18 3.1 C 45 %
1143 18-03-2021 22:21:17 3.2 C 46 %
1144 18-03-2021 22:31:18 3.2 C 46 %
1145 18-03-2021 22:41:18 3.1 C 47 %
1146 18-03-2021 22:51:18 3.1 C 47 %
1147 18-03-2021 23:01:18 3.2 C 47 %
1148 18-03-2021 23:11:18 3.1 C 47 %
1149 18-03-2021 23:21:18 2.9 C 49 %
1150 18-03-2021 23:31:17 2.7 C 49 %
Sensor: Nr:Datum:Temp:Feuchte:
Aussen-T/F 1151 18-03-2021 23:41:17 2.5 C 49 %
1152 18-03-2021 23:51:17 2.3 C 49 %
1153 19-03-2021 00:01:17 1.9 C 50 %
1154 19-03-2021 00:11:17 1.7 C 50 %
1155 19-03-2021 00:21:18 1.5 C 50 %
1156 19-03-2021 00:31:17 1.4 C 50 %
1157 19-03-2021 00:41:17 1.3 C 50 %
1158 19-03-2021 00:51:18 1.1 C 50 %
1159 19-03-2021 01:01:17 1.2 C 50 %
1160 19-03-2021 01:11:18 1.2 C 50 %
1161 19-03-2021 01:21:18 1.3 C 50 %
1162 19-03-2021 01:31:18 1.4 C 50 %
1163 19-03-2021 01:41:18 1.4 C 50 %
1164 19-03-2021 01:51:17 1.5 C 50 %
1165 19-03-2021 02:01:18 1.5 C 50 %
1166 19-03-2021 02:11:18 1.5 C 50 %
1167 19-03-2021 02:21:18 1.5 C 50 %
1168 19-03-2021 02:31:17 1.5 C 50 %
1169 19-03-2021 02:41:18 1.5 C 50 %
1170 19-03-2021 02:51:18 1.6 C 50 %
1171 19-03-2021 03:01:17 1.7 C 50 %
1172 19-03-2021 03:11:17 1.7 C 50 %
1173 19-03-2021 03:21:18 1.8 C 50 %
1174 19-03-2021 03:31:17 1.8 C 50 %
1175 19-03-2021 03:41:17 1.8 C 50 %
Sensor: Nr:Datum:Temp:Feuchte:
Aussen-T/F 1176 19-03-2021 03:51:18 1.9 C 50 %
1177 19-03-2021 04:01:18 1.9 C 50 %
1178 19-03-2021 04:11:18 1.9 C 50 %
1179 19-03-2021 04:21:17 1.9 C 50 %
1180 19-03-2021 04:31:17 1.9 C 50 %
1181 19-03-2021 04:41:17 1.9 C 50 %
1182 19-03-2021 04:51:17 1.9 C 50 %
1183 19-03-2021 05:01:18 1.8 C 50 %
1184 19-03-2021 05:11:18 1.7 C 50 %
1185 19-03-2021 05:21:17 1.7 C 50 %
1186 19-03-2021 05:31:17 1.3 C 50 %
1187 19-03-2021 05:41:17 1.3 C 50 %
1188 19-03-2021 05:51:17 1.4 C 50 %
1189 19-03-2021 06:01:17 1.2 C 50 %
1190 19-03-2021 06:11:17 0.9 C 51 %
1191 19-03-2021 06:21:18 0.6 C 51 %
1192 19-03-2021 06:31:17 0.3 C 51 %
1193 19-03-2021 06:41:17 0.4 C 51 %
1194 19-03-2021 06:51:18 0.5 C 51 %
1195 19-03-2021 07:01:18 0.4 C 51 %
1196 19-03-2021 07:11:18 0.5 C 51 %
1197 19-03-2021 07:21:18 0.6 C 51 %
1198 19-03-2021 07:31:17 0.7 C 51 %
1199 19-03-2021 07:41:17 0.6 C 51 %
1200 19-03-2021 07:51:17 0.6 C 51 %
Sensor: Nr:Datum:Temp:Feuchte:
Aussen-T/F 1201 19-03-2021 08:01:17 0.3 C 51 %
1202 19-03-2021 08:11:17 0.5 C 51 %
1203 19-03-2021 08:21:17 1.2 C 50 %
1204 19-03-2021 08:31:17 1.6 C 45 %
1205 19-03-2021 08:41:17 1.7 C 44 %
1206 19-03-2021 08:51:18 2.3 C 42 %
1207 19-03-2021 09:01:17 3.1 C 40 %
1208 19-03-2021 09:11:17 2.8 C 40 %
1209 19-03-2021 09:21:17 2.9 C 40 %
1210 19-03-2021 09:31:18 3 C 40 %
1211 19-03-2021 09:41:18 2.9 C 40 %
1212 19-03-2021 09:51:17 3.6 C 39 %
1213 19-03-2021 10:01:18 3.5 C 39 %
1214 19-03-2021 10:11:18 3.6 C 38 %
1215 19-03-2021 10:21:17 3.4 C 38 %
1216 19-03-2021 10:31:18 3.4 C 38 %
1217 19-03-2021 10:41:18 3.4 C 38 %
1218 19-03-2021 10:51:17 4.5 C 36 %
1219 19-03-2021 11:01:17 5.7 C 32 %
1220 19-03-2021 11:11:17 5.8 C 33 %
1221 19-03-2021 11:21:17 5.3 C 33 %
1222 19-03-2021 11:31:18 4.9 C 33 %
1223 19-03-2021 11:41:18 7.8 C 30 %
1224 19-03-2021 11:51:18 6.6 C 30 %
1225 19-03-2021 12:01:17 6.8 C 30 %
Sensor: Nr:Datum:Temp:Feuchte:
Aussen-T/F 1226 19-03-2021 12:11:17 5.9 C 30 %
1227 19-03-2021 12:21:18 7.2 C 27 %
1228 19-03-2021 12:31:17 7.1 C 26 %
1229 19-03-2021 12:41:17 7.1 C 26 %
1230 19-03-2021 12:51:17 8.2 C 26 %
1231 19-03-2021 13:01:18 7.4 C 25 %
1232 19-03-2021 13:11:18 7.8 C 26 %
1233 19-03-2021 13:21:17 8.9 C 26 %
1234 19-03-2021 13:31:17 8.3 C 25 %
1235 19-03-2021 13:41:17 8.1 C 25 %
1236 19-03-2021 13:51:17 7.8 C 25 %
1237 19-03-2021 14:01:18 8.1 C 26 %
1238 19-03-2021 14:11:18 7.1 C 26 %
1239 19-03-2021 14:21:18 8.5 C 26 %
1240 19-03-2021 14:31:18 8 C 25 %
1241 19-03-2021 14:41:18 8.9 C 25 %
1242 19-03-2021 14:51:17 7.6 C 26 %
1243 19-03-2021 15:01:18 7.2 C 26 %
1244 19-03-2021 15:11:18 6.8 C 27 %
1245 19-03-2021 15:21:17 6.8 C 27 %
1246 19-03-2021 15:31:17 8.9 C 26 %
1247 19-03-2021 15:41:17 8.1 C 25 %
1248 19-03-2021 15:51:17 9.2 C 25 %
1249 19-03-2021 16:01:17 8.4 C 25 %
1250 19-03-2021 16:11:17 7.8 C 25 %
Sensor: Nr:Datum:Temp:Feuchte:
Aussen-T/F 1251 19-03-2021 16:21:18 6.5 C 28 %
1252 19-03-2021 16:31:17 6.5 C 29 %
1253 19-03-2021 16:41:17 6.2 C 27 %
1254 19-03-2021 16:51:17 7.4 C 26 %
1255 19-03-2021 17:01:18 6.8 C 27 %
1256 19-03-2021 17:11:18 6.8 C 27 %
1257 19-03-2021 17:21:17 6.9 C 27 %
1258 19-03-2021 17:31:18 6.8 C 27 %
1259 19-03-2021 17:41:18 6.5 C 28 %
1260 19-03-2021 17:51:17 6.9 C 26 %
1261 19-03-2021 18:01:17 7 C 25 %
1262 19-03-2021 18:11:17 6.8 C 26 %
1263 19-03-2021 18:21:17 6 C 27 %
1264 19-03-2021 18:31:17 5.7 C 28 %
1265 19-03-2021 18:41:17 5.2 C 29 %
1266 19-03-2021 18:51:17 4.4 C 32 %
1267 19-03-2021 19:01:17 4.4 C 31 %
1268 19-03-2021 19:11:17 4.4 C 31 %
1269 19-03-2021 19:21:18 3.9 C 35 %
1270 19-03-2021 19:31:18 3.7 C 33 %
1271 19-03-2021 19:41:18 3 C 37 %
1272 19-03-2021 19:51:18 2.5 C 38 %
1273 19-03-2021 20:01:18 2.3 C 38 %
1274 19-03-2021 20:11:18 2.1 C 38 %
1275 19-03-2021 20:21:18 1.9 C 40 %
Sensor: Nr:Datum:Temp:Feuchte:
Aussen-T/F 1276 19-03-2021 20:31:18 1.9 C 40 %
1277 19-03-2021 20:41:18 1.5 C 40 %
1278 19-03-2021 20:51:17 1.3 C 41 %
1279 19-03-2021 21:01:18 1.4 C 42 %
1280 19-03-2021 21:11:18 1.5 C 42 %
1281 19-03-2021 21:21:17 1.1 C 42 %
1282 19-03-2021 21:31:17 1 C 42 %
1283 19-03-2021 21:41:17 1.1 C 42 %
1284 19-03-2021 21:51:17 1.1 C 42 %
1285 19-03-2021 22:01:18 0.5 C 44 %
1286 19-03-2021 22:11:18 1.1 C 41 %
1287 19-03-2021 22:21:17 0.3 C 44 %
1288 19-03-2021 22:31:18 0.2 C 45 %
1289 19-03-2021 22:41:18 0.1 C 45 %
1290 19-03-2021 22:51:17 -0.2 C 45 %
1291 19-03-2021 23:01:17 -0.4 C 46 %
1292 19-03-2021 23:11:17 -0.4 C 44 %
1293 19-03-2021 23:21:17 -0.5 C 45 %
1294 19-03-2021 23:31:18 -1 C 46 %
1295 19-03-2021 23:41:18 -1.3 C 46 %
1296 19-03-2021 23:51:17 0.3 C 45 %
1297 20-03-2021 00:01:17 0 C 45 %
1298 20-03-2021 00:11:17 0.3 C 44 %
1299 20-03-2021 00:21:18 0.6 C 44 %
1300 20-03-2021 00:31:18 0.7 C 44 %
Sensor: Nr:Datum:Temp:Feuchte:
Aussen-T/F 1301 20-03-2021 00:41:18 0.8 C 44 %
1302 20-03-2021 00:51:17 0.6 C 45 %
1303 20-03-2021 01:01:17 0.6 C 44 %
1304 20-03-2021 01:11:17 0.4 C 44 %
1305 20-03-2021 01:21:18 0 C 45 %
1306 20-03-2021 01:31:17 -1.1 C 45 %
1307 20-03-2021 01:41:17 -1.1 C 47 %
1308 20-03-2021 01:51:18 -1.2 C 48 %
1309 20-03-2021 02:01:17 -1.6 C 47 %
1310 20-03-2021 02:11:17 -1.3 C 49 %
1311 20-03-2021 02:21:18 -1.3 C 48 %
1312 20-03-2021 02:31:18 -1.8 C 47 %
1313 20-03-2021 02:41:18 -1.8 C 48 %
1314 20-03-2021 02:51:18 -1.7 C 49 %
1315 20-03-2021 03:01:17 -2.2 C 48 %
1316 20-03-2021 03:11:17 -2.4 C 48 %
1317 20-03-2021 03:21:18 -2.4 C 48 %
1318 20-03-2021 03:31:18 -2.4 C 49 %
1319 20-03-2021 03:41:18 -2.5 C 49 %
1320 20-03-2021 03:51:17 -2.6 C 49 %
1321 20-03-2021 04:01:18 -2.3 C 50 %
1322 20-03-2021 04:11:18 -2.4 C 50 %
1323 20-03-2021 04:21:17 -2.1 C 50 %
1324 20-03-2021 04:31:18 -2.1 C 50 %
1325 20-03-2021 04:41:18 -2.3 C 49 %
Sensor: Nr:Datum:Temp:Feuchte:
Aussen-T/F 1326 20-03-2021 04:51:17 -2.3 C 50 %
1327 20-03-2021 05:01:17 -2.4 C 49 %
1328 20-03-2021 05:11:17 -2.3 C 50 %
1329 20-03-2021 05:21:18 -1.8 C 50 %
1330 20-03-2021 05:31:18 -1.4 C 50 %
1331 20-03-2021 05:41:18 -1.3 C 50 %
1332 20-03-2021 05:51:17 -1.4 C 50 %
1333 20-03-2021 06:01:18 -1.3 C 50 %
1334 20-03-2021 06:11:18 -1.5 C 50 %
1335 20-03-2021 06:21:18 -1.8 C 50 %
1336 20-03-2021 06:31:17 -1.3 C 51 %
1337 20-03-2021 06:41:17 -1.5 C 50 %
1338 20-03-2021 06:51:18 -1.6 C 50 %
1339 20-03-2021 07:01:18 -1.2 C 50 %
1340 20-03-2021 07:11:18 -0.9 C 51 %
1341 20-03-2021 07:21:17 -0.6 C 51 %
1342 20-03-2021 07:31:18 -0.7 C 50 %
1343 20-03-2021 07:41:18 -0.5 C 50 %
1344 20-03-2021 07:51:17 -0.5 C 50 %
1345 20-03-2021 08:01:17 -0.7 C 49 %
1346 20-03-2021 08:11:17 -0.4 C 50 %
1347 20-03-2021 08:21:17 0.2 C 50 %
1348 20-03-2021 08:31:17 0.5 C 46 %
1349 20-03-2021 08:41:18 0.4 C 46 %
1350 20-03-2021 08:51:17 0.8 C 46 %
Sensor: Nr:Datum:Temp:Feuchte:
Aussen-T/F 1351 20-03-2021 09:01:17 1.4 C 44 %
1352 20-03-2021 09:11:18 1.5 C 43 %
1353 20-03-2021 09:21:17 2.6 C 42 %
1354 20-03-2021 09:31:17 2.2 C 40 %
1355 20-03-2021 09:41:17 2.5 C 39 %
1356 20-03-2021 09:51:17 2.4 C 38 %
1357 20-03-2021 10:01:18 3.2 C 37 %
1358 20-03-2021 10:11:18 3.1 C 37 %
1359 20-03-2021 10:21:17 3.1 C 37 %
1360 20-03-2021 10:31:17 3.1 C 37 %
1361 20-03-2021 10:41:18 3.7 C 37 %
1362 20-03-2021 10:51:17 3.9 C 36 %
1363 20-03-2021 11:01:18 4.3 C 34 %
1364 20-03-2021 11:11:18 4.9 C 32 %
1365 20-03-2021 11:21:17 5.8 C 31 %
1366 20-03-2021 11:31:17 6.8 C 30 %
1367 20-03-2021 11:41:17 6.8 C 30 %
1368 20-03-2021 11:51:17 5.2 C 30 %
1369 20-03-2021 12:01:18 6.6 C 29 %
1370 20-03-2021 12:11:18 7 C 27 %
1371 20-03-2021 12:21:17 5.6 C 28 %
1372 20-03-2021 12:31:17 5.6 C 29 %
1373 20-03-2021 12:41:17 6.2 C 30 %
1374 20-03-2021 12:51:17 7.2 C 28 %
1375 20-03-2021 13:01:17 7.2 C 27 %
Sensor: Nr:Datum:Temp:Feuchte:
Aussen-T/F 1376 20-03-2021 13:11:17 10.8 C 26 %
1377 20-03-2021 13:21:17 9.3 C 25 %
1378 20-03-2021 13:31:18 12 C 20 %
1379 20-03-2021 13:41:18 10 C 22 %
1380 20-03-2021 13:51:18 9.7 C 25 %
1381 20-03-2021 14:01:18 9.5 C 25 %
1382 20-03-2021 14:11:18 9.7 C 21 %
1383 20-03-2021 14:21:17 9.7 C 21 %
1384 20-03-2021 14:31:17 9.5 C 25 %
1385 20-03-2021 14:41:17 9.4 C 25 %
1386 20-03-2021 14:51:18 8.6 C 25 %
1387 20-03-2021 15:01:17 11.2 C 20 %
1388 20-03-2021 15:11:17 12.5 C 20 %
1389 20-03-2021 15:21:17 13.8 C 20 %
1390 20-03-2021 15:31:18 13 C 20 %
1391 20-03-2021 15:41:18 12.3 C 20 %
1392 20-03-2021 15:51:18 12 C 20 %
1393 20-03-2021 16:01:17 13.6 C 20 %
1394 20-03-2021 16:11:17 10.2 C 20 %
1395 20-03-2021 16:21:18 13.2 C 20 %
1396 20-03-2021 16:31:17 12.4 C 20 %
1397 20-03-2021 16:41:17 12.8 C 20 %
1398 20-03-2021 16:51:18 10.7 C 20 %
1399 20-03-2021 17:01:18 8.9 C 20 %
1400 20-03-2021 17:11:18 7.9 C 20 %
Sensor: Nr:Datum:Temp:Feuchte:
Aussen-T/F 1401 20-03-2021 17:21:17 7.9 C 20 %
1402 20-03-2021 17:31:18 7.9 C 20 %
1403 20-03-2021 17:41:18 7.8 C 20 %
1404 20-03-2021 17:51:19 7.4 C 20 %
1405 20-03-2021 18:01:17 7.2 C 20 %
1406 20-03-2021 18:11:17 6.9 C 21 %
1407 20-03-2021 18:21:17 6.8 C 23 %
1408 20-03-2021 18:31:18 6.6 C 23 %
1409 20-03-2021 18:41:18 6.3 C 23 %
1410 20-03-2021 18:51:18 6.1 C 25 %
1411 20-03-2021 19:01:18 6 C 25 %
1412 20-03-2021 19:11:18 5.9 C 25 %
1413 20-03-2021 19:21:18 5.8 C 25 %
1414 20-03-2021 19:31:17 5.6 C 26 %
1415 20-03-2021 19:41:17 5.6 C 26 %
1416 20-03-2021 19:51:17 5.5 C 26 %
1417 20-03-2021 20:01:18 5.3 C 26 %
1418 20-03-2021 20:11:18 5.4 C 25 %
1419 20-03-2021 20:21:17 5.2 C 26 %
1420 20-03-2021 20:31:17 5.2 C 26 %
1421 20-03-2021 20:41:17 5 C 27 %
1422 20-03-2021 20:51:17 4.8 C 30 %
1423 20-03-2021 21:01:18 4.6 C 30 %
1424 20-03-2021 21:11:18 4.6 C 30 %
1425 20-03-2021 21:21:17 4.5 C 31 %
Sensor: Nr:Datum:Temp:Feuchte:
Aussen-T/F 1426 20-03-2021 21:31:17 4.6 C 31 %
1427 20-03-2021 21:41:17 4.7 C 31 %
1428 20-03-2021 21:51:18 4.5 C 32 %
1429 20-03-2021 22:01:18 4.4 C 32 %
1430 20-03-2021 22:11:18 4.3 C 32 %
1431 20-03-2021 22:21:17 4.4 C 32 %
1432 20-03-2021 22:31:17 4.2 C 33 %
1433 20-03-2021 22:41:17 4.2 C 33 %
1434 20-03-2021 22:51:18 4.2 C 34 %
1435 20-03-2021 23:01:17 4.2 C 33 %
1436 20-03-2021 23:11:17 4.2 C 34 %
1437 20-03-2021 23:21:17 4.1 C 34 %
1438 20-03-2021 23:31:17 4 C 34 %
1439 20-03-2021 23:41:18 4 C 34 %
1440 20-03-2021 23:51:17 4.2 C 33 %
1441 21-03-2021 00:01:18 4.1 C 35 %
1442 21-03-2021 00:11:18 4.1 C 35 %
1443 21-03-2021 00:21:18 4.2 C 33 %
1444 21-03-2021 00:31:17 4.5 C 32 %
1445 21-03-2021 00:41:17 4.4 C 32 %
1446 21-03-2021 00:51:18 4.3 C 33 %
1447 21-03-2021 01:01:17 4.3 C 33 %
1448 21-03-2021 01:11:17 4.2 C 33 %
1449 21-03-2021 01:21:18 4.3 C 33 %
1450 21-03-2021 01:31:17 4.3 C 32 %
Sensor: Nr:Datum:Temp:Feuchte:
Aussen-T/F 1451 21-03-2021 01:41:17 4.3 C 34 %
1452 21-03-2021 01:51:17 4.2 C 35 %
1453 21-03-2021 02:01:17 4.4 C 33 %
1454 21-03-2021 02:11:17 4.4 C 34 %
1455 21-03-2021 02:21:17 4.4 C 35 %
1456 21-03-2021 02:31:17 4.4 C 35 %
1457 21-03-2021 02:41:17 4.5 C 35 %
1458 21-03-2021 02:51:17 4.6 C 35 %
1459 21-03-2021 03:01:18 4.6 C 36 %
1460 21-03-2021 03:11:18 4.8 C 37 %
1461 21-03-2021 03:21:18 5 C 37 %
1462 21-03-2021 03:31:18 4.7 C 39 %
1463 21-03-2021 03:41:18 4.5 C 40 %
1464 21-03-2021 03:51:17 4.3 C 40 %
1465 21-03-2021 04:01:18 4.2 C 41 %
1466 21-03-2021 04:11:18 4.3 C 41 %
1467 21-03-2021 04:21:18 4.2 C 41 %
1468 21-03-2021 04:31:17 4.1 C 41 %
1469 21-03-2021 04:41:17 4 C 42 %
1470 21-03-2021 04:51:17 4 C 42 %
1471 21-03-2021 05:01:18 3.7 C 45 %
1472 21-03-2021 05:11:18 3.6 C 45 %
1473 21-03-2021 05:21:17 3.6 C 45 %
1474 21-03-2021 05:31:17 3.7 C 45 %
1475 21-03-2021 05:41:17 3.7 C 44 %
Sensor: Nr:Datum:Temp:Feuchte:
Aussen-T/F 1476 21-03-2021 05:51:17 3.7 C 45 %
1477 21-03-2021 06:01:17 3.5 C 45 %
1478 21-03-2021 06:11:17 3.6 C 45 %
1479 21-03-2021 06:21:17 3.5 C 46 %
1480 21-03-2021 06:31:17 3.5 C 46 %
1481 21-03-2021 06:41:17 3.6 C 46 %
1482 21-03-2021 06:51:17 3.6 C 46 %
1483 21-03-2021 07:01:18 3.6 C 46 %
1484 21-03-2021 07:11:18 3.6 C 47 %
1485 21-03-2021 07:21:17 3.7 C 47 %
1486 21-03-2021 07:31:17 3.7 C 47 %
1487 21-03-2021 07:41:17 3.8 C 46 %
1488 21-03-2021 07:51:17 3.8 C 46 %
1489 21-03-2021 08:01:18 4 C 45 %
1490 21-03-2021 08:11:18 4.2 C 45 %
1491 21-03-2021 08:21:18 4.3 C 45 %
1492 21-03-2021 08:31:17 4.4 C 45 %
1493 21-03-2021 08:41:17 4.4 C 45 %
1494 21-03-2021 08:51:17 4.5 C 45 %
1495 21-03-2021 09:01:18 4.6 C 45 %
1496 21-03-2021 09:11:18 4.8 C 45 %
1497 21-03-2021 09:21:18 5.1 C 44 %
1498 21-03-2021 09:31:18 5.3 C 44 %
1499 21-03-2021 09:41:18 5.5 C 43 %
1500 21-03-2021 09:51:17 5.5 C 44 %
Sensor: Nr:Datum:Temp:Feuchte:
Aussen-T/F 1501 21-03-2021 10:01:18 5.7 C 44 %
1502 21-03-2021 10:11:18 6.3 C 41 %
1503 21-03-2021 10:21:17 6.5 C 40 %
1504 21-03-2021 10:31:18 6.5 C 40 %
1505 21-03-2021 10:41:18 6.7 C 40 %
1506 21-03-2021 10:51:18 6.4 C 40 %
1507 21-03-2021 11:01:17 6.7 C 40 %
1508 21-03-2021 11:11:17 7.1 C 39 %
1509 21-03-2021 11:21:17 7.5 C 39 %
1510 21-03-2021 11:31:17 7.3 C 39 %
1511 21-03-2021 11:41:17 7.4 C 39 %
1512 21-03-2021 11:51:17 7.5 C 38 %
1513 21-03-2021 12:01:18 7.3 C 38 %
1514 21-03-2021 12:11:18 7.4 C 38 %
1515 21-03-2021 12:21:18 7.2 C 38 %
1516 21-03-2021 12:31:18 7.9 C 37 %
1517 21-03-2021 12:41:18 8.2 C 36 %
1518 21-03-2021 12:51:18 8.1 C 36 %
1519 21-03-2021 13:01:17 7.9 C 37 %
1520 21-03-2021 13:11:17 8.9 C 36 %
1521 21-03-2021 13:21:17 8.3 C 35 %
1522 21-03-2021 13:31:17 8.2 C 35 %
1523 21-03-2021 13:41:17 8.5 C 34 %
1524 21-03-2021 13:51:18 8.3 C 34 %
1525 21-03-2021 14:01:17 9.2 C 33 %
Sensor: Nr:Datum:Temp:Feuchte:
Aussen-T/F 1526 21-03-2021 14:11:17 8.4 C 33 %
1527 21-03-2021 14:21:17 8.5 C 34 %
1528 21-03-2021 14:31:18 8.6 C 33 %
1529 21-03-2021 14:41:18 8.8 C 33 %
1530 21-03-2021 14:51:17 8.6 C 34 %
1531 21-03-2021 15:01:18 9.2 C 33 %
1532 21-03-2021 15:11:18 8.9 C 33 %
1533 21-03-2021 15:21:18 8.2 C 33 %
1534 21-03-2021 15:31:18 8.6 C 33 %
1535 21-03-2021 15:41:18 8.7 C 33 %
1536 21-03-2021 15:51:18 8.8 C 33 %
1537 21-03-2021 16:01:17 8.5 C 33 %
1538 21-03-2021 16:11:17 8.5 C 33 %
1539 21-03-2021 16:21:17 9.2 C 32 %
1540 21-03-2021 16:31:18 8.8 C 32 %
1541 21-03-2021 16:41:18 9.1 C 32 %
1542 21-03-2021 16:51:17 9.3 C 32 %
1543 21-03-2021 17:01:18 8.2 C 32 %
1544 21-03-2021 17:11:18 8 C 32 %
1545 21-03-2021 17:21:18 8 C 32 %
1546 21-03-2021 17:31:17 8 C 32 %
1547 21-03-2021 17:41:17 7.8 C 33 %
1548 21-03-2021 17:51:17 7.5 C 33 %
1549 21-03-2021 18:01:18 7.4 C 33 %
1550 21-03-2021 18:11:18 7 C 34 %
Sensor: Nr:Datum:Temp:Feuchte:
Aussen-T/F 1551 21-03-2021 18:21:18 6.8 C 35 %
1552 21-03-2021 18:31:17 6.5 C 35 %
1553 21-03-2021 18:41:17 6.4 C 35 %
1554 21-03-2021 18:51:18 6.3 C 35 %
1555 21-03-2021 19:01:18 6 C 35 %
1556 21-03-2021 19:11:18 5.7 C 35 %
1557 21-03-2021 19:21:17 5.5 C 35 %
1558 21-03-2021 19:31:18 5.6 C 36 %
1559 21-03-2021 19:41:18 5.4 C 36 %
1560 21-03-2021 19:51:18 5.3 C 36 %
1561 21-03-2021 20:01:18 5.3 C 36 %
1562 21-03-2021 20:11:18 5.2 C 36 %
1563 21-03-2021 20:21:17 5.3 C 36 %
1564 21-03-2021 20:31:17 5.2 C 36 %
1565 21-03-2021 20:41:17 5 C 36 %
1566 21-03-2021 20:51:17 5.2 C 36 %
1567 21-03-2021 21:01:18 5.2 C 36 %
1568 21-03-2021 21:11:18 5.3 C 36 %
1569 21-03-2021 21:21:17 5.4 C 36 %
1570 21-03-2021 21:31:17 5.3 C 36 %
1571 21-03-2021 21:41:17 4.7 C 38 %
1572 21-03-2021 21:51:17 4.5 C 38 %
1573 21-03-2021 22:01:17 4.4 C 38 %
1574 21-03-2021 22:11:17 4.1 C 39 %
1575 21-03-2021 22:21:18 4.2 C 39 %
Sensor: Nr:Datum:Temp:Feuchte:
Aussen-T/F 1576 21-03-2021 22:31:17 4.6 C 38 %
1577 21-03-2021 22:41:17 3.9 C 39 %
1578 21-03-2021 22:51:18 3.6 C 40 %
1579 21-03-2021 23:01:18 3.9 C 40 %
1580 21-03-2021 23:11:18 4 C 38 %
1581 21-03-2021 23:21:17 3.9 C 40 %
1582 21-03-2021 23:31:18 3.4 C 40 %
1583 21-03-2021 23:41:18 3.4 C 40 %
1584 21-03-2021 23:51:17 3.8 C 40 %
1585 22-03-2021 00:01:17 3.7 C 40 %
1586 22-03-2021 00:11:17 3.5 C 40 %
1587 22-03-2021 00:21:18 3.5 C 40 %
1588 22-03-2021 00:31:17 3.3 C 40 %
1589 22-03-2021 00:41:17 2.9 C 40 %
1590 22-03-2021 00:51:17 3.2 C 40 %
1591 22-03-2021 01:01:17 3.4 C 40 %
1592 22-03-2021 01:11:17 3.2 C 40 %
1593 22-03-2021 01:21:18 3.5 C 40 %
1594 22-03-2021 01:31:18 3.6 C 40 %
1595 22-03-2021 01:41:18 3.5 C 40 %
1596 22-03-2021 01:51:18 3.8 C 40 %
1597 22-03-2021 02:01:18 3.8 C 40 %
1598 22-03-2021 02:11:18 3.8 C 41 %
1599 22-03-2021 02:21:18 3.8 C 40 %
1600 22-03-2021 02:31:18 3.9 C 40 %
Sensor: Nr:Datum:Temp:Feuchte:
Aussen-T/F 1601 22-03-2021 02:41:18 4 C 40 %
1602 22-03-2021 02:51:18 3.9 C 40 %
1603 22-03-2021 03:01:17 4 C 39 %
1604 22-03-2021 03:11:17 3.9 C 40 %
1605 22-03-2021 03:21:17 3.8 C 40 %
1606 22-03-2021 03:31:18 3.9 C 40 %
1607 22-03-2021 03:41:18 3.8 C 40 %
1608 22-03-2021 03:51:18 3.8 C 40 %
1609 22-03-2021 04:01:17 3.8 C 40 %
1610 22-03-2021 04:11:18 3.9 C 40 %
1611 22-03-2021 04:21:18 3.9 C 40 %
1612 22-03-2021 04:31:18 3.8 C 41 %
1613 22-03-2021 04:41:18 3.9 C 41 %
1614 22-03-2021 04:51:18 3.8 C 41 %
1615 22-03-2021 05:01:18 3.9 C 41 %
1616 22-03-2021 05:11:18 3.9 C 41 %
1617 22-03-2021 05:21:18 3.7 C 41 %
1618 22-03-2021 05:31:18 3.8 C 41 %
1619 22-03-2021 05:41:18 3.8 C 41 %
1620 22-03-2021 05:51:17 3.7 C 41 %
1621 22-03-2021 06:01:17 3.6 C 42 %
1622 22-03-2021 06:11:18 3.7 C 41 %
1623 22-03-2021 06:21:18 3.6 C 41 %
1624 22-03-2021 06:31:18 3.2 C 42 %
1625 22-03-2021 06:41:18 3.4 C 42 %
Sensor: Nr:Datum:Temp:Feuchte:
Aussen-T/F 1626 22-03-2021 06:51:18 3.6 C 42 %
1627 22-03-2021 07:01:17 3.7 C 42 %
1628 22-03-2021 07:11:17 3.8 C 42 %
1629 22-03-2021 07:21:17 3.9 C 42 %
1630 22-03-2021 07:31:17 4 C 41 %
1631 22-03-2021 07:41:17 4 C 41 %
1632 22-03-2021 07:51:17 4.3 C 41 %
1633 22-03-2021 08:01:17 4.3 C 41 %
1634 22-03-2021 08:11:18 4.7 C 41 %
1635 22-03-2021 08:21:18 4.8 C 41 %
1636 22-03-2021 08:31:17 5.1 C 40 %
1637 22-03-2021 08:41:17 5.2 C 40 %
1638 22-03-2021 08:51:18 5.6 C 39 %
1639 22-03-2021 09:01:17 5.8 C 39 %
1640 22-03-2021 09:11:17 5.8 C 39 %
1641 22-03-2021 09:21:17 6.1 C 38 %
1642 22-03-2021 09:31:17 5.9 C 38 %
1643 22-03-2021 09:41:17 6.1 C 38 %
1644 22-03-2021 09:51:17 5.9 C 39 %
1645 22-03-2021 10:01:17 5.7 C 39 %
1646 22-03-2021 10:11:17 6.3 C 39 %
1647 22-03-2021 10:21:17 6.2 C 39 %
1648 22-03-2021 10:31:18 6.5 C 38 %
1649 22-03-2021 10:41:18 6.1 C 38 %
1650 22-03-2021 10:51:18 6.2 C 39 %
Sensor: Nr:Datum:Temp:Feuchte:
Aussen-T/F 1651 22-03-2021 11:01:17 6.2 C 38 %
1652 22-03-2021 11:11:17 6.2 C 38 %
1653 22-03-2021 11:21:17 6.5 C 39 %
1654 22-03-2021 11:31:17 6.3 C 38 %
1655 22-03-2021 11:41:17 8.2 C 36 %
1656 22-03-2021 11:51:18 7.4 C 36 %
1657 22-03-2021 12:01:17 7.3 C 36 %
1658 22-03-2021 12:11:17 7.1 C 36 %
1659 22-03-2021 12:21:17 6.4 C 36 %
1660 22-03-2021 12:31:18 6.4 C 37 %
1661 22-03-2021 12:41:18 6 C 37 %
1662 22-03-2021 12:51:17 7 C 36 %
1663 22-03-2021 13:01:17 7.5 C 36 %
1664 22-03-2021 13:11:17 7 C 36 %
1665 22-03-2021 13:21:17 6.8 C 36 %
1666 22-03-2021 13:31:17 7.1 C 36 %
1667 22-03-2021 13:41:17 7.1 C 36 %
1668 22-03-2021 13:51:17 7.4 C 35 %
1669 22-03-2021 14:01:18 7.7 C 35 %
1670 22-03-2021 14:11:18 7.4 C 35 %
1671 22-03-2021 14:21:17 7.4 C 35 %
1672 22-03-2021 14:31:18 7.7 C 35 %
1673 22-03-2021 14:41:18 7.6 C 35 %
1674 22-03-2021 14:51:17 7.1 C 35 %
1675 22-03-2021 15:01:17 7.1 C 36 %
Sensor: Nr:Datum:Temp:Feuchte:
Aussen-T/F 1676 22-03-2021 15:11:17 7.3 C 36 %
1677 22-03-2021 15:21:18 7.3 C 36 %
1678 22-03-2021 15:31:17 7.3 C 36 %
1679 22-03-2021 15:41:17 7.5 C 36 %
1680 22-03-2021 15:51:18 7.3 C 36 %
1681 22-03-2021 16:01:17 7.1 C 36 %
1682 22-03-2021 16:11:17 7.3 C 36 %
1683 22-03-2021 16:21:17 7.4 C 36 %
1684 22-03-2021 16:31:18 7.5 C 36 %
1685 22-03-2021 16:41:18 7.3 C 36 %
1686 22-03-2021 16:51:17 7.1 C 36 %
1687 22-03-2021 17:01:18 6.9 C 37 %
1688 22-03-2021 17:11:18 6.8 C 37 %
1689 22-03-2021 17:21:17 6.7 C 37 %
1690 22-03-2021 17:31:17 6.7 C 37 %
1691 22-03-2021 17:41:17 6.7 C 37 %
1692 22-03-2021 17:51:18 6.7 C 37 %
1693 22-03-2021 18:01:18 6.6 C 37 %
1694 22-03-2021 18:11:18 6.6 C 37 %
1695 22-03-2021 18:21:17 6.5 C 37 %
1696 22-03-2021 18:31:17 6.4 C 37 %
1697 22-03-2021 18:41:17 6.3 C 37 %
1698 22-03-2021 18:51:17 6.3 C 37 %
1699 22-03-2021 19:01:18 6.2 C 37 %
1700 22-03-2021 19:11:18 6.1 C 38 %
Sensor: Nr:Datum:Temp:Feuchte:
Aussen-T/F 1701 22-03-2021 19:21:18 6 C 38 %
1702 22-03-2021 19:31:17 5.9 C 38 %
1703 22-03-2021 19:41:18 5.9 C 39 %
1704 22-03-2021 19:51:18 5.9 C 38 %
1705 22-03-2021 20:01:18 5.8 C 39 %
1706 22-03-2021 20:11:18 5.8 C 39 %
1707 22-03-2021 20:21:17 5.7 C 39 %
1708 22-03-2021 20:31:18 5.6 C 39 %
1709 22-03-2021 20:41:18 5.7 C 39 %
1710 22-03-2021 20:51:17 5.6 C 40 %
1711 22-03-2021 21:01:17 5.5 C 40 %
1712 22-03-2021 21:11:17 5.5 C 40 %
1713 22-03-2021 21:21:18 5.5 C 39 %
1714 22-03-2021 21:31:18 5.7 C 39 %
1715 22-03-2021 21:41:18 5.7 C 39 %
1716 22-03-2021 21:51:17 5.7 C 39 %
1717 22-03-2021 22:01:17 5.8 C 38 %
1718 22-03-2021 22:11:17 5.7 C 39 %
1719 22-03-2021 22:21:17 5.7 C 38 %
1720 22-03-2021 22:31:17 5.6 C 39 %
1721 22-03-2021 22:41:17 5.4 C 40 %
1722 22-03-2021 22:51:18 5.3 C 40 %
1723 22-03-2021 23:01:18 5.3 C 40 %
1724 22-03-2021 23:11:18 5.1 C 40 %
1725 22-03-2021 23:21:17 5.2 C 40 %
Sensor: Nr:Datum:Temp:Feuchte:
Aussen-T/F 1726 22-03-2021 23:31:17 5.1 C 40 %
1727 22-03-2021 23:41:18 5.2 C 40 %
1728 22-03-2021 23:51:18 5.1 C 40 %
1729 23-03-2021 00:01:17 5.1 C 40 %
1730 23-03-2021 00:11:17 4.9 C 41 %
1731 23-03-2021 00:21:17 4.8 C 41 %
1732 23-03-2021 00:31:17 4.8 C 41 %
1733 23-03-2021 00:41:18 4.7 C 41 %
1734 23-03-2021 00:51:18 4.7 C 41 %
1735 23-03-2021 01:01:17 4.7 C 41 %
1736 23-03-2021 01:11:17 4.7 C 41 %
1737 23-03-2021 01:21:18 4.7 C 41 %
1738 23-03-2021 01:31:17 4.6 C 42 %
1739 23-03-2021 01:41:17 4.5 C 42 %
1740 23-03-2021 01:51:17 4.5 C 41 %
1741 23-03-2021 02:01:18 4.5 C 41 %
1742 23-03-2021 02:11:18 4.4 C 42 %
1743 23-03-2021 02:21:18 4.3 C 42 %
1744 23-03-2021 02:31:18 4.3 C 42 %
1745 23-03-2021 02:41:18 4.3 C 41 %
1746 23-03-2021 02:51:17 4.4 C 41 %
1747 23-03-2021 03:01:17 4.3 C 41 %
1748 23-03-2021 03:11:17 4.3 C 41 %
1749 23-03-2021 03:21:17 4.4 C 41 %
1750 23-03-2021 03:31:17 4.3 C 41 %
Sensor: Nr:Datum:Temp:Feuchte:
Aussen-T/F 1751 23-03-2021 03:41:17 4.5 C 41 %
1752 23-03-2021 03:51:17 4.6 C 40 %
1753 23-03-2021 04:01:17 4.5 C 41 %
1754 23-03-2021 04:11:17 4.5 C 41 %
1755 23-03-2021 04:21:17 4.6 C 40 %
1756 23-03-2021 04:31:17 4.6 C 40 %
1757 23-03-2021 04:41:18 4.7 C 40 %
1758 23-03-2021 04:51:18 5 C 39 %
1759 23-03-2021 05:01:18 5.1 C 39 %
1760 23-03-2021 05:11:18 4.8 C 39 %
1761 23-03-2021 05:21:17 4.8 C 40 %
1762 23-03-2021 05:31:18 4.7 C 40 %
1763 23-03-2021 05:41:18 4.8 C 40 %
1764 23-03-2021 05:51:17 4.9 C 39 %
1765 23-03-2021 06:01:18 5.1 C 38 %
1766 23-03-2021 06:11:18 5.1 C 38 %
1767 23-03-2021 06:21:18 5.1 C 38 %
1768 23-03-2021 06:31:17 5.1 C 37 %
1769 23-03-2021 06:41:17 5.2 C 37 %
1770 23-03-2021 06:51:18 5.2 C 37 %
1771 23-03-2021 07:01:17 5.2 C 37 %
1772 23-03-2021 07:11:17 5.3 C 37 %
1773 23-03-2021 07:21:17 5.4 C 37 %
1774 23-03-2021 07:31:17 5.3 C 37 %
1775 23-03-2021 07:41:17 5.3 C 37 %
Sensor: Nr:Datum:Temp:Feuchte:
Aussen-T/F 1776 23-03-2021 07:51:18 5.5 C 37 %
1777 23-03-2021 08:01:17 5.6 C 37 %
1778 23-03-2021 08:11:17 5.7 C 37 %
1779 23-03-2021 08:21:17 5.8 C 37 %
1780 23-03-2021 08:31:17 5.9 C 36 %
1781 23-03-2021 08:41:17 5.9 C 36 %
1782 23-03-2021 08:51:17 6 C 36 %
1783 23-03-2021 09:01:17 6.3 C 36 %
1784 23-03-2021 09:11:17 6.3 C 35 %
1785 23-03-2021 09:21:17 6.2 C 35 %
1786 23-03-2021 09:31:17 6.4 C 35 %
1787 23-03-2021 09:41:17 6.4 C 35 %
1788 23-03-2021 09:51:17 6.5 C 35 %
1789 23-03-2021 10:01:17 6.5 C 35 %
1790 23-03-2021 10:11:18 6.8 C 35 %
1791 23-03-2021 10:21:18 7.1 C 35 %
1792 23-03-2021 10:31:17 7.1 C 35 %
1793 23-03-2021 10:41:18 7.1 C 35 %
1794 23-03-2021 10:51:18 7.4 C 35 %
1795 23-03-2021 11:01:17 7.4 C 35 %
1796 23-03-2021 11:11:17 7.5 C 35 %
1797 23-03-2021 11:21:18 7.4 C 35 %
1798 23-03-2021 11:31:17 8.1 C 34 %
1799 23-03-2021 11:41:17 8.1 C 34 %
1800 23-03-2021 11:51:18 9.3 C 33 %
Sensor: Nr:Datum:Temp:Feuchte:
Aussen-T/F 1801 23-03-2021 12:01:18 8.8 C 33 %
1802 23-03-2021 12:11:18 8.9 C 33 %
1803 23-03-2021 12:21:18 9.8 C 32 %
1804 23-03-2021 12:31:18 10.8 C 31 %
1805 23-03-2021 12:41:18 10.6 C 31 %
1806 23-03-2021 12:51:17 10.8 C 31 %
1807 23-03-2021 13:01:17 10.8 C 31 %
1808 23-03-2021 13:11:17 10.2 C 31 %
1809 23-03-2021 13:21:17 10.7 C 31 %
1810 23-03-2021 13:31:18 10.3 C 31 %
1811 23-03-2021 13:41:18 10.9 C 31 %
1812 23-03-2021 13:51:18 11.5 C 30 %
1813 23-03-2021 14:01:17 11.1 C 30 %
1814 23-03-2021 14:11:17 11.7 C 30 %
1815 23-03-2021 14:21:17 11.6 C 30 %
1816 23-03-2021 14:31:18 11 C 30 %
1817 23-03-2021 14:41:18 11.8 C 30 %
1818 23-03-2021 14:51:17 12 C 30 %
1819 23-03-2021 15:01:18 13 C 28 %
1820 23-03-2021 15:11:18 13.8 C 27 %
1821 23-03-2021 15:21:18 13.8 C 27 %
1822 23-03-2021 15:31:18 15.6 C 25 %
1823 23-03-2021 15:41:18 13.4 C 27 %
1824 23-03-2021 15:51:17 15.3 C 25 %
1825 23-03-2021 16:01:17 14.3 C 26 %
Sensor: Nr:Datum:Temp:Feuchte:
Aussen-T/F 1826 23-03-2021 16:11:17 13.2 C 26 %
1827 23-03-2021 16:21:17 13.3 C 26 %
1828 23-03-2021 16:31:18 13.7 C 26 %
1829 23-03-2021 16:41:18 14.6 C 26 %
1830 23-03-2021 16:51:18 13.4 C 26 %
1831 23-03-2021 17:01:18 11.9 C 29 %
1832 23-03-2021 17:11:18 11.7 C 29 %
1833 23-03-2021 17:21:17 11.5 C 30 %
1834 23-03-2021 17:31:17 11.4 C 30 %
1835 23-03-2021 17:41:18 10.8 C 30 %
1836 23-03-2021 17:51:17 10.7 C 30 %
1837 23-03-2021 18:01:17 10.1 C 30 %
1838 23-03-2021 18:11:17 9.6 C 33 %
1839 23-03-2021 18:21:18 8.7 C 35 %
1840 23-03-2021 18:31:18 8.2 C 35 %
1841 23-03-2021 18:41:18 7.7 C 35 %
1842 23-03-2021 18:51:17 7.3 C 36 %
1843 23-03-2021 19:01:17 6.7 C 37 %
1844 23-03-2021 19:11:17 6.4 C 37 %
1845 23-03-2021 19:21:17 6.3 C 37 %
1846 23-03-2021 19:31:18 6.1 C 37 %
1847 23-03-2021 19:41:18 6.1 C 37 %
1848 23-03-2021 19:51:17 5.5 C 39 %
1849 23-03-2021 20:01:17 5.2 C 40 %
1850 23-03-2021 20:11:17 4.2 C 41 %
Sensor: Nr:Datum:Temp:Feuchte:
Aussen-T/F 1851 23-03-2021 20:21:17 3.8 C 43 %
1852 23-03-2021 20:31:17 3.6 C 43 %
1853 23-03-2021 20:41:17 3.7 C 43 %
1854 23-03-2021 20:51:18 3.2 C 43 %
1855 23-03-2021 21:01:17 2.8 C 45 %
1856 23-03-2021 21:11:17 2.5 C 45 %
1857 23-03-2021 21:21:17 2.4 C 45 %
1858 23-03-2021 21:31:18 2.2 C 45 %
1859 23-03-2021 21:41:18 2 C 45 %
1860 23-03-2021 21:51:17 2.1 C 46 %
1861 23-03-2021 22:01:17 2 C 46 %
1862 23-03-2021 22:11:17 1.6 C 46 %
1863 23-03-2021 22:21:18 1.5 C 47 %
1864 23-03-2021 22:31:18 1.5 C 47 %
1865 23-03-2021 22:41:18 1.4 C 47 %
1866 23-03-2021 22:51:18 1.2 C 47 %
1867 23-03-2021 23:01:17 0.9 C 48 %
1868 23-03-2021 23:11:17 1 C 48 %
1869 23-03-2021 23:21:17 0.8 C 49 %
1870 23-03-2021 23:31:17 0.7 C 49 %
1871 23-03-2021 23:41:18 0.7 C 50 %
1872 23-03-2021 23:51:18 0.5 C 50 %
1873 24-03-2021 00:01:17 0.4 C 49 %
1874 24-03-2021 00:11:17 0.1 C 50 %
1875 24-03-2021 00:21:18 0.2 C 50 %
Sensor: Nr:Datum:Temp:Feuchte:
Aussen-T/F 1876 24-03-2021 00:31:17 0.1 C 50 %
1877 24-03-2021 00:41:17 -0.2 C 50 %
1878 24-03-2021 00:51:17 -0.1 C 50 %
1879 24-03-2021 01:01:17 0 C 50 %
1880 24-03-2021 01:11:17 0 C 50 %
1881 24-03-2021 01:21:17 -0.2 C 50 %
1882 24-03-2021 01:31:17 -0.3 C 50 %
1883 24-03-2021 01:41:17 -0.4 C 50 %
1884 24-03-2021 01:51:17 -0.6 C 50 %
1885 24-03-2021 02:01:17 -0.7 C 50 %
1886 24-03-2021 02:11:17 -0.8 C 50 %
1887 24-03-2021 02:21:17 -0.9 C 50 %
1888 24-03-2021 02:31:18 -1 C 50 %
1889 24-03-2021 02:41:18 -1.1 C 50 %
1890 24-03-2021 02:51:17 -1.3 C 50 %
1891 24-03-2021 03:01:17 -1.3 C 50 %
1892 24-03-2021 03:11:17 -1.2 C 50 %
1893 24-03-2021 03:21:17 -1.2 C 51 %
1894 24-03-2021 03:31:17 -1.4 C 51 %
1895 24-03-2021 03:41:17 -1.3 C 50 %
1896 24-03-2021 03:51:18 -1.2 C 51 %
1897 24-03-2021 04:01:18 -1.3 C 51 %
1898 24-03-2021 04:11:18 -1.1 C 51 %
1899 24-03-2021 04:21:17 -1.5 C 50 %
1900 24-03-2021 04:31:17 -1.1 C 51 %
Sensor: Nr:Datum:Temp:Feuchte:
Aussen-T/F 1901 24-03-2021 04:41:17 -1.2 C 51 %
1902 24-03-2021 04:51:17 -1.6 C 50 %
1903 24-03-2021 05:01:17 -1.3 C 51 %
1904 24-03-2021 05:11:17 -1.6 C 50 %
1905 24-03-2021 05:21:18 -1.6 C 50 %
1906 24-03-2021 05:31:18 -1.4 C 51 %
1907 24-03-2021 05:41:18 -1.7 C 50 %
1908 24-03-2021 05:51:18 -1.4 C 51 %
1909 24-03-2021 06:01:17 -1.6 C 51 %
1910 24-03-2021 06:11:17 -1.7 C 51 %
1911 24-03-2021 06:21:18 -1.7 C 50 %
1912 24-03-2021 06:31:17 -1.9 C 50 %
1913 24-03-2021 06:41:17 -1.7 C 50 %
1914 24-03-2021 06:51:18 -1.8 C 50 %
1915 24-03-2021 07:01:18 -1.4 C 51 %
1916 24-03-2021 07:11:18 -1.6 C 50 %
1917 24-03-2021 07:21:17 -1.4 C 50 %
1918 24-03-2021 07:31:18 -1.2 C 50 %
1919 24-03-2021 07:41:18 -1.2 C 50 %
1920 24-03-2021 07:51:17 -0.7 C 51 %
1921 24-03-2021 08:01:17 -0.8 C 50 %
1922 24-03-2021 08:11:18 -0.5 C 51 %
1923 24-03-2021 08:21:17 -0.3 C 51 %
1924 24-03-2021 08:31:17 -0.1 C 51 %
1925 24-03-2021 08:41:17 0.2 C 51 %
Sensor: Nr:Datum:Temp:Feuchte:
Aussen-T/F 1926 24-03-2021 08:51:17 0.7 C 51 %
1927 24-03-2021 09:01:18 0.7 C 51 %
1928 24-03-2021 09:11:18 0.8 C 51 %
1929 24-03-2021 09:21:17 1.2 C 50 %
1930 24-03-2021 09:31:18 1.7 C 50 %
1931 24-03-2021 09:41:18 2.5 C 49 %
1932 24-03-2021 09:51:17 3.1 C 48 %
1933 24-03-2021 10:01:17 4.6 C 46 %
1934 24-03-2021 10:11:17 5.1 C 44 %
1935 24-03-2021 10:21:17 5.8 C 43 %
1936 24-03-2021 10:31:17 6.9 C 41 %
1937 24-03-2021 10:41:17 8.4 C 40 %
1938 24-03-2021 10:51:18 9.3 C 37 %
1939 24-03-2021 11:01:17 10.6 C 36 %
1940 24-03-2021 11:11:17 12.9 C 31 %
1941 24-03-2021 11:21:18 13.8 C 30 %
1942 24-03-2021 11:31:17 14.7 C 28 %
1943 24-03-2021 11:41:17 13.2 C 29 %
1944 24-03-2021 11:51:17 13 C 29 %
1945 24-03-2021 12:01:18 15 C 26 %
1946 24-03-2021 12:11:18 15.4 C 26 %
1947 24-03-2021 12:21:18 15.5 C 26 %
1948 24-03-2021 12:31:17 15.2 C 26 %
1949 24-03-2021 12:41:17 14.7 C 27 %
1950 24-03-2021 12:51:17 15.5 C 26 %
Sensor: Nr:Datum:Temp:Feuchte:
Aussen-T/F 1951 24-03-2021 13:01:18 15.6 C 26 %
1952 24-03-2021 13:11:18 17 C 25 %
1953 24-03-2021 13:21:17 18.3 C 22 %
1954 24-03-2021 13:31:18 20.1 C 21 %
1955 24-03-2021 13:41:18 18.1 C 21 %
1956 24-03-2021 13:51:17 18.8 C 21 %
1957 24-03-2021 14:01:17 18.1 C 21 %
1958 24-03-2021 14:11:17 18.3 C 20 %
1959 24-03-2021 14:21:17 19.4 C 20 %
1960 24-03-2021 14:31:18 21.4 C 20 %
1961 24-03-2021 14:41:18 22.3 C 20 %
1962 24-03-2021 14:51:17 22.3 C 20 %
1963 24-03-2021 15:01:17 21.4 C 20 %
1964 24-03-2021 15:11:17 21.9 C 20 %
1965 24-03-2021 15:21:17 23 C 20 %
1966 24-03-2021 15:31:17 22.8 C 20 %
1967 24-03-2021 15:41:17 22.9 C 20 %
1968 24-03-2021 15:51:18 22.2 C 20 %
1969 24-03-2021 16:01:17 21.4 C 20 %
1970 24-03-2021 16:11:17 22.7 C 20 %
1971 24-03-2021 16:21:17 22 C 20 %
1972 24-03-2021 16:31:18 20.6 C 20 %
1973 24-03-2021 16:41:18 20.7 C 20 %
1974 24-03-2021 16:51:18 18.7 C 20 %
1975 24-03-2021 17:01:18 18.3 C 20 %
Sensor: Nr:Datum:Temp:Feuchte:
Aussen-T/F 1976 24-03-2021 17:11:18 17.6 C 20 %
1977 24-03-2021 17:21:17 17.5 C 20 %
1978 24-03-2021 17:31:18 17.2 C 20 %
1979 24-03-2021 17:41:18 16.8 C 21 %
1980 24-03-2021 17:51:18 16.4 C 22 %
1981 24-03-2021 18:01:18 15.6 C 23 %
1982 24-03-2021 18:11:18 14.4 C 25 %
1983 24-03-2021 18:21:17 13.5 C 26 %
1984 24-03-2021 18:31:17 12.9 C 28 %
1985 24-03-2021 18:41:17 11.9 C 30 %
1986 24-03-2021 18:51:17 11.7 C 30 %
1987 24-03-2021 19:01:18 11.4 C 30 %
1988 24-03-2021 19:11:18 11.2 C 30 %
1989 24-03-2021 19:21:18 11.1 C 30 %
1990 24-03-2021 19:31:18 10.6 C 31 %
1991 24-03-2021 19:41:18 10.5 C 31 %
1992 24-03-2021 19:51:18 10.2 C 31 %
1993 24-03-2021 20:01:18 10.2 C 31 %
1994 24-03-2021 20:11:18 9.8 C 33 %
1995 24-03-2021 20:21:18 9.7 C 33 %
1996 24-03-2021 20:31:17 9.4 C 33 %
1997 24-03-2021 20:41:17 9.2 C 34 %
1998 24-03-2021 20:51:18 8.6 C 35 %
1999 24-03-2021 21:01:18 7.9 C 36 %
2000 24-03-2021 21:11:18 7.6 C 36 %
Sensor: Nr:Datum:Temp:Feuchte:
Aussen-T/F 2001 24-03-2021 21:21:17 7.5 C 37 %
2002 24-03-2021 21:31:18 7.8 C 36 %
2003 24-03-2021 21:41:18 8.8 C 35 %
2004 24-03-2021 21:51:18 8.7 C 35 %
2005 24-03-2021 22:01:18 7.7 C 36 %
2006 24-03-2021 22:11:18 6.9 C 37 %
2007 24-03-2021 22:21:17 6 C 37 %
2008 24-03-2021 22:31:18 5.5 C 39 %
2009 24-03-2021 22:41:18 5.2 C 40 %
2010 24-03-2021 22:51:18 4.8 C 41 %
2011 24-03-2021 23:01:17 4.8 C 41 %
2012 24-03-2021 23:11:18 4.5 C 41 %
2013 24-03-2021 23:21:17 4.2 C 41 %
2014 24-03-2021 23:31:18 4.3 C 41 %
2015 24-03-2021 23:41:18 4.3 C 42 %
2016 24-03-2021 23:51:18 3.9 C 42 %
2017 25-03-2021 00:01:18 4.2 C 42 %
2018 25-03-2021 00:11:18 4 C 42 %
2019 25-03-2021 00:21:17 3.9 C 43 %
2020 25-03-2021 00:31:17 4.1 C 42 %
2021 25-03-2021 00:41:17 4.2 C 42 %
2022 25-03-2021 00:51:18 3.8 C 43 %
2023 25-03-2021 01:01:18 3.6 C 43 %
2024 25-03-2021 01:11:18 3.8 C 43 %
2025 25-03-2021 01:21:17 3.5 C 43 %
Sensor: Nr:Datum:Temp:Feuchte:
Aussen-T/F 2026 25-03-2021 01:31:18 3.2 C 44 %
2027 25-03-2021 01:41:18 3 C 44 %
2028 25-03-2021 01:51:18 2.7 C 45 %
2029 25-03-2021 02:01:17 2.6 C 46 %
2030 25-03-2021 02:11:17 2.3 C 46 %
2031 25-03-2021 02:21:17 2.2 C 46 %
2032 25-03-2021 02:31:17 2.2 C 46 %
2033 25-03-2021 02:41:17 2.1 C 47 %
2034 25-03-2021 02:51:18 1.8 C 47 %
2035 25-03-2021 03:01:17 1.8 C 48 %
2036 25-03-2021 03:11:17 1.6 C 48 %
2037 25-03-2021 03:21:17 1.6 C 48 %
2038 25-03-2021 03:31:17 1.5 C 48 %
2039 25-03-2021 03:41:17 1.4 C 49 %
2040 25-03-2021 03:51:17 1.4 C 49 %
2041 25-03-2021 04:01:17 1.5 C 49 %
2042 25-03-2021 04:11:17 1.2 C 49 %
2043 25-03-2021 04:21:17 1.4 C 49 %
2044 25-03-2021 04:31:17 1.2 C 49 %
2045 25-03-2021 04:41:18 1.5 C 50 %
2046 25-03-2021 04:51:17 1.1 C 49 %
2047 25-03-2021 05:01:17 1.2 C 50 %
2048 25-03-2021 05:11:17 1.1 C 50 %
2049 25-03-2021 05:21:18 0.9 C 50 %
2050 25-03-2021 05:31:18 0.8 C 50 %
Sensor: Nr:Datum:Temp:Feuchte:
Aussen-T/F 2051 25-03-2021 05:41:18 1 C 50 %
2052 25-03-2021 05:51:18 0.7 C 50 %
2053 25-03-2021 06:01:18 0.6 C 51 %
2054 25-03-2021 06:11:18 0.3 C 50 %
2055 25-03-2021 06:21:17 0.5 C 51 %
2056 25-03-2021 06:31:17 0.8 C 51 %
2057 25-03-2021 06:41:17 0.8 C 51 %
2058 25-03-2021 06:51:17 0.9 C 51 %
2059 25-03-2021 07:01:17 1.1 C 50 %
2060 25-03-2021 07:11:17 1.3 C 50 %
2061 25-03-2021 07:21:18 1.5 C 50 %
2062 25-03-2021 07:31:17 2.2 C 50 %
2063 25-03-2021 07:41:17 3.2 C 49 %
2064 25-03-2021 07:52:17 3.7 C 48 %
2065 25-03-2021 08:01:18 4.1 C 45 %
2066 25-03-2021 08:11:18 4.7 C 42 %
2067 25-03-2021 08:21:18 5.1 C 42 %
2068 25-03-2021 08:31:17 5.1 C 41 %
2069 25-03-2021 08:41:17 5 C 40 %
2070 25-03-2021 08:51:17 5.4 C 40 %
2071 25-03-2021 09:01:18 5.9 C 40 %
2072 25-03-2021 09:11:18 6.5 C 40 %
2073 25-03-2021 09:21:18 6.8 C 38 %
2074 25-03-2021 09:32:17 7.5 C 38 %
2075 25-03-2021 09:42:17 8.7 C 37 %
Sensor: Nr:Datum:Temp:Feuchte:
Aussen-T/F 2076 25-03-2021 09:51:18 9.5 C 36 %
2077 25-03-2021 10:01:17 10.2 C 35 %
2078 25-03-2021 10:11:17 10.5 C 35 %
2079 25-03-2021 10:21:17 10.6 C 35 %
2080 25-03-2021 10:31:17 11.8 C 34 %
2081 25-03-2021 10:41:17 12.3 C 32 %
2082 25-03-2021 10:51:17 12.4 C 32 %
2083 25-03-2021 11:01:17 13 C 31 %
2084 25-03-2021 11:11:18 13.6 C 31 %
2085 25-03-2021 11:21:18 13.6 C 30 %
2086 25-03-2021 11:31:18 14.1 C 30 %
2087 25-03-2021 11:41:18 14.8 C 30 %
2088 25-03-2021 11:52:17 14.6 C 30 %
2089 25-03-2021 12:01:17 13.6 C 30 %
2090 25-03-2021 12:11:17 13.6 C 30 %
2091 25-03-2021 12:21:17 14.2 C 30 %
2092 25-03-2021 12:31:18 14 C 30 %
2093 25-03-2021 12:41:18 14.2 C 30 %
2094 25-03-2021 12:52:17 14.7 C 30 %
2095 25-03-2021 13:01:18 16 C 28 %
2096 25-03-2021 13:11:18 15.7 C 29 %
2097 25-03-2021 13:22:17 17.7 C 27 %
2098 25-03-2021 13:31:18 18.4 C 26 %
2099 25-03-2021 13:41:18 18.7 C 25 %
2100 25-03-2021 13:52:17 18.3 C 25 %
Sensor: Nr:Datum:Temp:Feuchte:
Aussen-T/F 2101 25-03-2021 14:01:18 16.5 C 26 %
2102 25-03-2021 14:11:18 18.1 C 26 %
2103 25-03-2021 14:22:17 20.1 C 24 %
2104 25-03-2021 14:31:18 21.1 C 22 %
2105 25-03-2021 14:41:18 21.7 C 22 %
2106 25-03-2021 14:51:18 19.8 C 23 %
2107 25-03-2021 15:02:17 21.8 C 21 %
2108 25-03-2021 15:12:17 20.9 C 22 %
2109 25-03-2021 15:22:17 21.7 C 21 %
2110 25-03-2021 15:31:18 18.7 C 25 %
2111 25-03-2021 15:41:18 17.9 C 25 %
2112 25-03-2021 15:52:17 16.5 C 26 %
2113 25-03-2021 16:02:18 15.7 C 26 %
2114 25-03-2021 16:11:18 15.3 C 27 %
2115 25-03-2021 16:21:18 15.3 C 26 %
2116 25-03-2021 16:31:18 15.3 C 26 %
2117 25-03-2021 16:41:18 15.1 C 26 %
2118 25-03-2021 16:51:18 15 C 26 %
2119 25-03-2021 17:02:17 14.7 C 27 %
2120 25-03-2021 17:12:17 14.3 C 27 %
2121 25-03-2021 17:21:18 14.1 C 28 %
2122 25-03-2021 17:32:17 13.7 C 29 %
2123 25-03-2021 17:42:18 13.5 C 29 %
2124 25-03-2021 17:52:17 13.1 C 30 %
2125 25-03-2021 18:02:18 12.8 C 30 %
Sensor: Nr:Datum:Temp:Feuchte:
Aussen-T/F 2126 25-03-2021 18:11:18 12.5 C 31 %
2127 25-03-2021 18:22:17 12.4 C 31 %
2128 25-03-2021 18:32:18 12.1 C 32 %
2129 25-03-2021 18:42:18 12.1 C 31 %
2130 25-03-2021 18:52:17 12 C 31 %
2131 25-03-2021 19:02:17 11.9 C 32 %
2132 25-03-2021 19:12:17 11.6 C 33 %
2133 25-03-2021 19:22:17 11.6 C 33 %
2134 25-03-2021 19:32:18 11.3 C 33 %
2135 25-03-2021 19:42:18 10.7 C 35 %
2136 25-03-2021 19:52:17 10.6 C 35 %
2137 25-03-2021 20:02:18 10.7 C 35 %
2138 25-03-2021 20:11:18 10.7 C 35 %
2139 25-03-2021 20:22:17 10.6 C 35 %
2140 25-03-2021 20:32:18 10.4 C 36 %
2141 25-03-2021 20:42:18 10.1 C 36 %
2142 25-03-2021 20:51:18 10.2 C 36 %
2143 25-03-2021 21:02:17 10.2 C 36 %
2144 25-03-2021 21:12:18 9.9 C 37 %
2145 25-03-2021 21:21:18 9.4 C 38 %
2146 25-03-2021 21:32:17 9.2 C 38 %
2147 25-03-2021 21:42:17 9.1 C 38 %
2148 25-03-2021 21:52:18 8.5 C 39 %
2149 25-03-2021 22:01:18 8.9 C 39 %
2150 25-03-2021 22:11:18 8.1 C 39 %
Sensor: Nr:Datum:Temp:Feuchte:
Aussen-T/F 2151 25-03-2021 22:22:18 8.2 C 40 %
2152 25-03-2021 22:32:17 7.6 C 40 %
2153 25-03-2021 22:42:17 7.5 C 41 %
2154 25-03-2021 22:52:18 7.3 C 40 %
2155 25-03-2021 23:02:17 7 C 41 %
2156 25-03-2021 23:12:17 6.7 C 42 %
2157 25-03-2021 23:22:18 6.3 C 42 %
2158 25-03-2021 23:32:17 6.1 C 43 %
2159 25-03-2021 23:42:18 6.1 C 44 %
2160 25-03-2021 23:52:18 6.1 C 44 %
2161 26-03-2021 00:02:18 6 C 44 %
2162 26-03-2021 00:12:18 5.9 C 45 %
2163 26-03-2021 00:22:18 5.5 C 45 %
2164 26-03-2021 00:32:17 5.3 C 45 %
2165 26-03-2021 00:42:18 5 C 45 %
2166 26-03-2021 00:52:18 5.1 C 45 %
2167 26-03-2021 01:02:18 5.4 C 46 %
2168 26-03-2021 01:12:18 5.6 C 46 %
2169 26-03-2021 01:21:18 5.5 C 46 %
2170 26-03-2021 01:32:17 5.7 C 46 %
2171 26-03-2021 01:42:17 6 C 45 %
2172 26-03-2021 01:52:18 6 C 45 %
2173 26-03-2021 02:02:18 6 C 45 %
2174 26-03-2021 02:12:19 5.9 C 45 %
2175 26-03-2021 02:22:18 6 C 45 %
Sensor: Nr:Datum:Temp:Feuchte:
Aussen-T/F 2176 26-03-2021 02:32:18 5.9 C 45 %
2177 26-03-2021 02:42:19 5.7 C 45 %
2178 26-03-2021 02:52:18 5.7 C 45 %
2179 26-03-2021 03:02:17 5.8 C 45 %
2180 26-03-2021 03:12:18 5.9 C 45 %
2181 26-03-2021 03:22:18 6.3 C 44 %
2182 26-03-2021 03:32:18 6.1 C 44 %
2183 26-03-2021 03:42:18 6.1 C 44 %
2184 26-03-2021 03:52:17 6.3 C 43 %
2185 26-03-2021 04:02:17 6 C 43 %
2186 26-03-2021 04:12:17 5.5 C 44 %
2187 26-03-2021 04:22:18 4.8 C 45 %
2188 26-03-2021 04:32:17 4.4 C 45 %
2189 26-03-2021 04:42:17 4 C 46 %
2190 26-03-2021 04:52:18 3.8 C 47 %
2191 26-03-2021 05:02:17 3.7 C 47 %
2192 26-03-2021 05:12:17 3.7 C 48 %
2193 26-03-2021 05:22:18 3.4 C 47 %
2194 26-03-2021 05:32:17 3.2 C 48 %
2195 26-03-2021 05:42:17 3.1 C 48 %
2196 26-03-2021 05:52:18 3 C 48 %
2197 26-03-2021 06:02:18 2.8 C 49 %
2198 26-03-2021 06:12:18 2.7 C 49 %
2199 26-03-2021 06:22:18 2.5 C 49 %
2200 26-03-2021 06:32:17 2.5 C 50 %
Sensor: Nr:Datum:Temp:Feuchte:
Aussen-T/F 2201 26-03-2021 06:42:17 2.4 C 50 %
2202 26-03-2021 06:52:18 2.6 C 50 %
2203 26-03-2021 07:02:17 2.9 C 50 %
2204 26-03-2021 07:12:17 3.5 C 49 %
2205 26-03-2021 07:22:17 3.8 C 49 %
2206 26-03-2021 07:32:18 3.9 C 49 %
2207 26-03-2021 07:42:18 3.8 C 49 %
2208 26-03-2021 07:52:17 3.7 C 49 %
2209 26-03-2021 08:02:17 3.7 C 49 %
2210 26-03-2021 08:12:17 3.8 C 49 %
2211 26-03-2021 08:22:18 4 C 48 %
2212 26-03-2021 08:32:17 4.3 C 48 %
2213 26-03-2021 08:42:17 4.6 C 49 %
2214 26-03-2021 08:52:18 5 C 48 %
2215 26-03-2021 09:02:18 5.4 C 48 %
2216 26-03-2021 09:12:18 5.7 C 48 %
2217 26-03-2021 09:22:17 6.1 C 47 %
2218 26-03-2021 09:32:18 6.4 C 47 %
2219 26-03-2021 09:42:18 7 C 46 %
2220 26-03-2021 09:52:18 7.9 C 45 %
2221 26-03-2021 10:02:18 8.9 C 42 %
2222 26-03-2021 10:12:18 9.7 C 40 %
2223 26-03-2021 10:22:18 10.5 C 40 %
2224 26-03-2021 10:32:17 11.3 C 38 %
2225 26-03-2021 10:42:17 11.4 C 36 %
Sensor: Nr:Datum:Temp:Feuchte:
Aussen-T/F 2226 26-03-2021 10:52:18 12.3 C 34 %
2227 26-03-2021 11:02:17 13.2 C 31 %
2228 26-03-2021 11:12:17 13.3 C 31 %
2229 26-03-2021 11:22:18 15.7 C 29 %
2230 26-03-2021 11:32:18 16.6 C 27 %
2231 26-03-2021 11:42:18 16.8 C 26 %
2232 26-03-2021 11:52:17 16.5 C 26 %
2233 26-03-2021 12:02:17 15.5 C 26 %
2234 26-03-2021 12:12:18 14.8 C 27 %
2235 26-03-2021 12:22:18 15.9 C 26 %
2236 26-03-2021 12:32:18 16.6 C 26 %
2237 26-03-2021 12:42:18 15.7 C 27 %
2238 26-03-2021 12:52:17 16.8 C 26 %
2239 26-03-2021 13:02:17 17.3 C 26 %
2240 26-03-2021 13:12:17 16.6 C 26 %
2241 26-03-2021 13:22:17 16.9 C 25 %
2242 26-03-2021 13:32:18 16.9 C 25 %
2243 26-03-2021 13:42:18 18.1 C 25 %
2244 26-03-2021 13:52:18 18.9 C 24 %
2245 26-03-2021 14:02:18 15.7 C 25 %
2246 26-03-2021 14:12:18 18.4 C 24 %
2247 26-03-2021 14:22:18 18.9 C 23 %
2248 26-03-2021 14:32:17 20.8 C 22 %
2249 26-03-2021 14:42:17 17.6 C 23 %
2250 26-03-2021 14:52:17 17.3 C 24 %
Sensor: Nr:Datum:Temp:Feuchte:
Aussen-T/F 2251 26-03-2021 15:02:18 19 C 22 %
2252 26-03-2021 15:12:18 17.8 C 23 %
2253 26-03-2021 15:22:18 18.4 C 23 %
2254 26-03-2021 15:32:17 20.9 C 21 %
2255 26-03-2021 15:42:17 16.9 C 24 %
2256 26-03-2021 15:52:18 17 C 25 %
2257 26-03-2021 16:02:17 16.9 C 24 %
2258 26-03-2021 16:12:17 16.9 C 25 %
2259 26-03-2021 16:22:18 17.3 C 23 %
2260 26-03-2021 16:32:18 17.3 C 24 %
2261 26-03-2021 16:42:18 17.1 C 23 %
2262 26-03-2021 16:52:18 16.8 C 24 %
2263 26-03-2021 17:02:18 15.7 C 25 %
2264 26-03-2021 17:12:18 15.7 C 25 %
2265 26-03-2021 17:22:18 15.6 C 25 %
2266 26-03-2021 17:32:17 15.4 C 25 %
2267 26-03-2021 17:42:17 15.7 C 25 %
2268 26-03-2021 17:52:18 15.7 C 25 %
2269 26-03-2021 18:02:17 15.3 C 25 %
2270 26-03-2021 18:12:17 15.1 C 25 %
2271 26-03-2021 18:22:18 14.8 C 26 %
2272 26-03-2021 18:32:18 14.6 C 26 %
2273 26-03-2021 18:42:18 13.5 C 28 %
2274 26-03-2021 18:52:17 12.7 C 30 %
2275 26-03-2021 19:02:17 12 C 30 %
Sensor: Nr:Datum:Temp:Feuchte:
Aussen-T/F 2276 26-03-2021 19:12:17 11.9 C 32 %
2277 26-03-2021 19:22:18 11.7 C 32 %
2278 26-03-2021 19:32:17 11.8 C 32 %
2279 26-03-2021 19:42:18 11.3 C 31 %
2280 26-03-2021 19:52:18 11.4 C 31 %
2281 26-03-2021 20:02:17 11.2 C 32 %
2282 26-03-2021 20:12:17 11.4 C 31 %
2283 26-03-2021 20:22:17 11 C 31 %
2284 26-03-2021 20:32:17 11.1 C 31 %
2285 26-03-2021 20:42:18 10.5 C 32 %
2286 26-03-2021 20:52:17 10.3 C 32 %
2287 26-03-2021 21:02:18 10.2 C 32 %
2288 26-03-2021 21:12:18 10 C 32 %
2289 26-03-2021 21:22:18 9.5 C 34 %
2290 26-03-2021 21:32:17 9.2 C 35 %
2291 26-03-2021 21:42:17 9.3 C 35 %
2292 26-03-2021 21:52:17 9.2 C 35 %
2293 26-03-2021 22:02:17 8.8 C 35 %
2294 26-03-2021 22:12:17 8.6 C 36 %
2295 26-03-2021 22:22:18 8.7 C 35 %
2296 26-03-2021 22:32:18 8.5 C 36 %
2297 26-03-2021 22:42:18 8.7 C 36 %
2298 26-03-2021 22:52:18 8.4 C 36 %
2299 26-03-2021 23:02:18 8.9 C 35 %
2300 26-03-2021 23:12:18 8.8 C 36 %
Sensor: Nr:Datum:Temp:Feuchte:
Aussen-T/F 2301 26-03-2021 23:22:17 8.5 C 35 %
2302 26-03-2021 23:32:17 7.8 C 36 %
2303 26-03-2021 23:42:17 7.6 C 37 %
2304 26-03-2021 23:52:18 7.5 C 37 %
2305 27-03-2021 00:02:18 7.4 C 37 %
2306 27-03-2021 00:12:18 7.4 C 37 %
2307 27-03-2021 00:22:18 7.7 C 38 %
2308 27-03-2021 00:32:17 9 C 35 %
2309 27-03-2021 00:42:17 9.2 C 35 %
2310 27-03-2021 00:52:18 9.3 C 35 %
2311 27-03-2021 01:02:18 9 C 36 %
2312 27-03-2021 01:12:18 8.7 C 39 %
2313 27-03-2021 01:22:17 9.5 C 36 %
2314 27-03-2021 01:32:17 10.1 C 35 %
2315 27-03-2021 01:42:18 10.3 C 35 %
2316 27-03-2021 01:52:18 10.2 C 35 %
2317 27-03-2021 02:02:18 9.6 C 36 %
2318 27-03-2021 02:12:18 9.5 C 36 %
2319 27-03-2021 02:22:17 10.3 C 35 %
2320 27-03-2021 02:32:17 10.2 C 35 %
2321 27-03-2021 02:42:17 9.9 C 36 %
2322 27-03-2021 02:52:17 8.6 C 36 %
2323 27-03-2021 03:02:18 8.4 C 35 %
2324 27-03-2021 03:12:18 7.5 C 36 %
2325 27-03-2021 03:22:17 7.1 C 37 %
Sensor: Nr:Datum:Temp:Feuchte:
Aussen-T/F 2326 27-03-2021 03:32:18 7 C 36 %
2327 27-03-2021 03:42:18 6.7 C 37 %
2328 27-03-2021 03:52:17 7 C 36 %
2329 27-03-2021 04:02:18 7 C 36 %
2330 27-03-2021 04:12:18 6.9 C 37 %
2331 27-03-2021 04:22:17 6.8 C 37 %
2332 27-03-2021 04:32:17 6.9 C 36 %
2333 27-03-2021 04:42:17 6.9 C 36 %
2334 27-03-2021 04:52:17 6.7 C 37 %
2335 27-03-2021 05:02:18 6.6 C 36 %
2336 27-03-2021 05:12:18 6.6 C 36 %
2337 27-03-2021 05:22:17 6.4 C 36 %
2338 27-03-2021 05:32:17 6.2 C 36 %
2339 27-03-2021 05:42:18 6 C 36 %
2340 27-03-2021 05:52:17 5.8 C 36 %
2341 27-03-2021 06:02:17 5.3 C 37 %
2342 27-03-2021 06:12:17 5.3 C 37 %
2343 27-03-2021 06:22:18 5.4 C 37 %
2344 27-03-2021 06:32:17 5.4 C 37 %
2345 27-03-2021 06:42:18 5.1 C 37 %
2346 27-03-2021 06:52:18 5.3 C 37 %
2347 27-03-2021 07:02:17 5.3 C 37 %
2348 27-03-2021 07:12:17 5.6 C 37 %
2349 27-03-2021 07:22:18 5.4 C 37 %
2350 27-03-2021 07:32:17 5.8 C 37 %
Sensor: Nr:Datum:Temp:Feuchte:
Aussen-T/F 2351 27-03-2021 07:42:17 6 C 36 %
2352 27-03-2021 07:52:17 6.2 C 36 %
2353 27-03-2021 08:02:18 6.2 C 36 %
2354 27-03-2021 08:12:18 6.1 C 36 %
2355 27-03-2021 08:22:17 6.7 C 36 %
2356 27-03-2021 08:32:17 6.9 C 36 %
2357 27-03-2021 08:42:17 7.1 C 35 %
2358 27-03-2021 08:52:18 6.9 C 36 %
2359 27-03-2021 09:02:17 5.8 C 39 %
2360 27-03-2021 09:12:17 6.9 C 37 %
2361 27-03-2021 09:22:18 7.4 C 35 %
2362 27-03-2021 09:32:18 7.6 C 35 %
2363 27-03-2021 09:42:18 8 C 35 %
2364 27-03-2021 09:52:18 7.9 C 35 %
2365 27-03-2021 10:02:17 8.4 C 34 %
2366 27-03-2021 10:12:17 7.9 C 34 %
2367 27-03-2021 10:22:18 7.3 C 35 %
2368 27-03-2021 10:32:18 4.7 C 40 %
2369 27-03-2021 10:42:18 4.1 C 42 %
2370 27-03-2021 10:52:17 4.5 C 42 %
2371 27-03-2021 11:02:17 5.5 C 40 %
2372 27-03-2021 11:12:17 6 C 39 %
2373 27-03-2021 11:22:17 7 C 38 %
2374 27-03-2021 11:32:17 7.5 C 37 %
2375 27-03-2021 11:42:17 7.9 C 37 %
Sensor: Nr:Datum:Temp:Feuchte:
Aussen-T/F 2376 27-03-2021 11:52:17 7.7 C 35 %
2377 27-03-2021 12:02:18 5.7 C 40 %
2378 27-03-2021 12:12:18 7 C 39 %
2379 27-03-2021 12:22:17 9.1 C 36 %
2380 27-03-2021 12:32:17 9.2 C 35 %
2381 27-03-2021 12:42:17 9.2 C 35 %
2382 27-03-2021 12:52:18 8.8 C 36 %
2383 27-03-2021 13:02:18 7.8 C 36 %
2384 27-03-2021 13:12:18 6.3 C 39 %
2385 27-03-2021 13:22:17 6.8 C 39 %
2386 27-03-2021 13:32:18 7.9 C 37 %
2387 27-03-2021 13:42:18 7 C 36 %
2388 27-03-2021 13:52:18 6.6 C 37 %
2389 27-03-2021 14:02:18 6.5 C 37 %
2390 27-03-2021 14:12:18 7.1 C 36 %
2391 27-03-2021 14:22:18 10.1 C 32 %
2392 27-03-2021 14:32:18 11.1 C 30 %
2393 27-03-2021 14:42:18 12.8 C 30 %
2394 27-03-2021 14:52:18 11.4 C 29 %
2395 27-03-2021 15:02:18 8.9 C 31 %
2396 27-03-2021 15:12:18 9.1 C 31 %
2397 27-03-2021 15:22:17 9.2 C 30 %
2398 27-03-2021 15:32:17 9.5 C 30 %
2399 27-03-2021 15:42:17 9.4 C 30 %
2400 27-03-2021 15:52:17 9.8 C 30 %
Sensor: Nr:Datum:Temp:Feuchte:
Aussen-T/F 2401 27-03-2021 16:02:17 9.8 C 30 %
2402 27-03-2021 16:12:17 10 C 30 %
2403 27-03-2021 16:22:18 9.6 C 31 %
2404 27-03-2021 16:32:18 9.5 C 31 %
2405 27-03-2021 16:42:18 9.6 C 31 %
2406 27-03-2021 16:52:18 9.5 C 31 %
2407 27-03-2021 17:02:18 9.2 C 32 %
2408 27-03-2021 17:12:18 9.3 C 32 %
2409 27-03-2021 17:22:17 9 C 32 %
2410 27-03-2021 17:32:18 9 C 33 %
2411 27-03-2021 17:42:18 8.2 C 33 %
2412 27-03-2021 17:52:19 7.9 C 35 %
2413 27-03-2021 18:02:18 6.9 C 37 %
2414 27-03-2021 18:12:18 5.7 C 38 %
2415 27-03-2021 18:22:17 5.3 C 42 %
2416 27-03-2021 18:32:18 5.1 C 42 %
2417 27-03-2021 18:42:18 4.7 C 43 %
2418 27-03-2021 18:52:18 4.5 C 44 %
2419 27-03-2021 19:02:18 4.3 C 45 %
2420 27-03-2021 19:12:18 4.3 C 45 %
2421 27-03-2021 19:22:18 4.9 C 42 %
2422 27-03-2021 19:32:18 4.6 C 43 %
2423 27-03-2021 19:42:18 4.8 C 42 %
2424 27-03-2021 19:52:17 4.8 C 42 %
2425 27-03-2021 20:02:18 4.6 C 42 %
Sensor: Nr:Datum:Temp:Feuchte:
Aussen-T/F 2426 27-03-2021 20:12:18 4.1 C 43 %
2427 27-03-2021 20:22:17 4.2 C 43 %
2428 27-03-2021 20:32:17 4.2 C 43 %
2429 27-03-2021 20:42:17 4.9 C 42 %
2430 27-03-2021 20:52:17 4.9 C 42 %
2431 27-03-2021 21:02:17 4.9 C 42 %
2432 27-03-2021 21:12:17 5.3 C 41 %
2433 27-03-2021 21:22:18 4.9 C 42 %
2434 27-03-2021 21:32:18 5 C 41 %
2435 27-03-2021 21:42:18 4.3 C 42 %
2436 27-03-2021 21:52:18 4.1 C 43 %
2437 27-03-2021 22:02:17 3.7 C 44 %
2438 27-03-2021 22:12:17 3.9 C 45 %
2439 27-03-2021 22:22:18 3.7 C 44 %
2440 27-03-2021 22:32:17 4.3 C 42 %
2441 27-03-2021 22:42:17 3.9 C 43 %
2442 27-03-2021 22:52:17 4.1 C 42 %
2443 27-03-2021 23:02:18 3.5 C 43 %
2444 27-03-2021 23:12:18 3.2 C 45 %
2445 27-03-2021 23:22:18 3.1 C 46 %
2446 27-03-2021 23:32:17 3.1 C 46 %
2447 27-03-2021 23:42:17 3.6 C 44 %
2448 27-03-2021 23:52:18 3.7 C 44 %
2449 28-03-2021 00:02:17 3.5 C 44 %
2450 28-03-2021 00:12:17 3.3 C 44 %
Sensor: Nr:Datum:Temp:Feuchte:
Aussen-T/F 2451 28-03-2021 00:22:17 3.8 C 44 %
2452 28-03-2021 00:32:17 3.7 C 44 %
2453 28-03-2021 00:42:17 3.5 C 44 %
2454 28-03-2021 00:52:18 3 C 45 %
2455 28-03-2021 01:02:17 3.4 C 45 %
2456 28-03-2021 01:12:17 3.5 C 45 %
2457 28-03-2021 01:22:17 4.1 C 44 %
2458 28-03-2021 01:32:17 4.1 C 44 %
2459 28-03-2021 01:42:17 4.2 C 43 %
2460 28-03-2021 01:52:17 4.4 C 43 %
2461 28-03-2021 02:02:17 4.4 C 43 %
2462 28-03-2021 02:12:17 4.4 C 42 %
2463 28-03-2021 02:22:17 4.4 C 43 %
2464 28-03-2021 02:32:17 4.6 C 43 %
2465 28-03-2021 02:42:18 4.7 C 42 %
2466 28-03-2021 02:52:18 4.6 C 43 %
2467 28-03-2021 04:02:18 4.7 C 43 %
2468 28-03-2021 04:12:18 4.8 C 43 %
2469 28-03-2021 04:22:18 4.8 C 43 %
2470 28-03-2021 04:32:17 4.8 C 43 %
2471 28-03-2021 04:42:17 4.8 C 43 %
2472 28-03-2021 04:52:18 4.8 C 43 %
2473 28-03-2021 05:02:17 4.6 C 43 %
2474 28-03-2021 05:12:17 4.3 C 43 %
2475 28-03-2021 05:22:17 4.5 C 43 %
Sensor: Nr:Datum:Temp:Feuchte:
Aussen-T/F 2476 28-03-2021 05:32:18 4.2 C 43 %
2477 28-03-2021 05:42:18 4 C 43 %
2478 28-03-2021 05:52:18 3.9 C 45 %
2479 28-03-2021 06:02:17 3.8 C 45 %
2480 28-03-2021 06:12:18 3.8 C 45 %
2481 28-03-2021 06:22:17 3.8 C 45 %
2482 28-03-2021 06:32:17 3.7 C 45 %
2483 28-03-2021 06:42:17 3.9 C 45 %
2484 28-03-2021 06:52:17 3.9 C 45 %
2485 28-03-2021 07:02:18 4.1 C 43 %
2486 28-03-2021 07:12:18 4.3 C 43 %
2487 28-03-2021 07:22:17 4.7 C 42 %
2488 28-03-2021 07:32:18 4.8 C 42 %
2489 28-03-2021 07:42:18 5.3 C 41 %
2490 28-03-2021 07:52:18 5.3 C 41 %
2491 28-03-2021 08:02:17 5.4 C 41 %
2492 28-03-2021 08:12:18 5.4 C 41 %
2493 28-03-2021 08:22:17 5.6 C 41 %
2494 28-03-2021 08:32:18 5.7 C 41 %
2495 28-03-2021 08:42:18 6 C 40 %
2496 28-03-2021 08:52:18 5.8 C 41 %
2497 28-03-2021 09:02:17 6 C 40 %
2498 28-03-2021 09:12:17 6.4 C 40 %
2499 28-03-2021 09:22:18 6.7 C 40 %
2500 28-03-2021 09:32:18 7.1 C 39 %
Sensor: Nr:Datum:Temp:Feuchte:
Aussen-T/F 2501 28-03-2021 09:42:18 7.2 C 39 %
2502 28-03-2021 09:52:18 7.5 C 39 %
2503 28-03-2021 10:02:17 7.6 C 38 %
2504 28-03-2021 10:12:18 7 C 39 %
2505 28-03-2021 10:22:18 7 C 40 %
2506 28-03-2021 10:32:17 8.5 C 37 %
2507 28-03-2021 10:42:17 10.3 C 35 %
2508 28-03-2021 10:52:17 10.8 C 35 %
2509 28-03-2021 11:02:17 10.8 C 34 %
2510 28-03-2021 11:12:17 11.4 C 33 %
2511 28-03-2021 11:22:17 11.2 C 33 %
2512 28-03-2021 11:32:17 11.8 C 33 %
2513 28-03-2021 11:42:17 12.5 C 32 %
2514 28-03-2021 11:52:17 12.2 C 31 %
2515 28-03-2021 12:02:18 13.1 C 30 %
2516 28-03-2021 12:12:18 13 C 29 %
2517 28-03-2021 12:22:18 13.2 C 28 %
2518 28-03-2021 12:32:18 14.4 C 27 %
2519 28-03-2021 12:42:18 13.1 C 27 %
2520 28-03-2021 12:52:17 13.7 C 28 %
2521 28-03-2021 13:02:17 13.8 C 27 %
2522 28-03-2021 13:12:17 14.4 C 26 %
2523 28-03-2021 13:22:18 13.4 C 26 %
2524 28-03-2021 13:32:18 14.8 C 26 %
2525 28-03-2021 13:42:18 14 C 26 %
Sensor: Nr:Datum:Temp:Feuchte:
Aussen-T/F 2526 28-03-2021 13:52:18 14.4 C 26 %
2527 28-03-2021 14:02:18 14.7 C 26 %
2528 28-03-2021 14:12:18 15.6 C 25 %
2529 28-03-2021 14:22:18 16.2 C 25 %
2530 28-03-2021 14:32:18 16.3 C 25 %
2531 28-03-2021 14:42:18 15.3 C 25 %
2532 28-03-2021 14:52:18 16.5 C 25 %
2533 28-03-2021 15:02:18 15.9 C 25 %
2534 28-03-2021 15:12:18 17.3 C 24 %
2535 28-03-2021 15:22:18 18.1 C 22 %
2536 28-03-2021 15:32:18 18.2 C 22 %
2537 28-03-2021 15:42:18 17.2 C 22 %
2538 28-03-2021 15:52:18 16.6 C 22 %
2539 28-03-2021 16:02:18 18.1 C 21 %
2540 28-03-2021 16:12:18 17.2 C 22 %
2541 28-03-2021 16:22:18 17.6 C 22 %
2542 28-03-2021 16:32:17 17.6 C 22 %
2543 28-03-2021 16:42:18 17.1 C 22 %
2544 28-03-2021 16:52:17 16.7 C 22 %
2545 28-03-2021 17:02:18 16.7 C 22 %
2546 28-03-2021 17:12:18 15.8 C 23 %
2547 28-03-2021 17:22:18 15.6 C 23 %
2548 28-03-2021 17:32:18 15.7 C 23 %
2549 28-03-2021 17:42:18 15.8 C 24 %
2550 28-03-2021 17:52:18 16 C 23 %
Sensor: Nr:Datum:Temp:Feuchte:
Aussen-T/F 2551 28-03-2021 18:02:17 15.8 C 23 %
2552 28-03-2021 18:12:17 15.8 C 24 %
2553 28-03-2021 18:22:17 15.6 C 23 %
2554 28-03-2021 18:32:17 15.7 C 23 %
2555 28-03-2021 18:42:17 15.1 C 23 %
2556 28-03-2021 18:52:17 14.7 C 25 %
2557 28-03-2021 19:02:18 14.4 C 25 %
2558 28-03-2021 19:12:18 14.1 C 25 %
2559 28-03-2021 19:22:18 13.5 C 26 %
2560 28-03-2021 19:32:18 13.5 C 26 %
2561 28-03-2021 19:42:18 12.6 C 28 %
2562 28-03-2021 19:52:18 12.4 C 27 %
2563 28-03-2021 20:02:18 12.7 C 27 %
2564 28-03-2021 20:12:18 12.4 C 27 %
2565 28-03-2021 20:22:17 12 C 28 %
2566 28-03-2021 20:32:18 12 C 27 %
2567 28-03-2021 20:42:18 11.3 C 30 %
2568 28-03-2021 20:52:17 10.3 C 31 %
2569 28-03-2021 21:02:18 10 C 31 %
2570 28-03-2021 21:12:18 9.9 C 32 %
2571 28-03-2021 21:22:17 9.6 C 32 %
2572 28-03-2021 21:32:17 9.2 C 33 %
2573 28-03-2021 21:42:17 8.9 C 34 %
2574 28-03-2021 21:52:18 8.6 C 34 %
2575 28-03-2021 22:02:17 8.6 C 35 %
Sensor: Nr:Datum:Temp:Feuchte:
Aussen-T/F 2576 28-03-2021 22:12:18 8.4 C 35 %
2577 28-03-2021 22:22:18 8.4 C 35 %
2578 28-03-2021 22:32:18 8.4 C 35 %
2579 28-03-2021 22:42:18 8.4 C 35 %
2580 28-03-2021 22:52:18 8.4 C 35 %
2581 28-03-2021 23:02:18 8.2 C 35 %
2582 28-03-2021 23:12:18 8.2 C 35 %
2583 28-03-2021 23:22:18 8 C 35 %
2584 28-03-2021 23:32:18 8 C 35 %
2585 28-03-2021 23:42:18 7.7 C 36 %
2586 28-03-2021 23:52:17 7.7 C 36 %
2587 29-03-2021 00:02:17 7.6 C 36 %
2588 29-03-2021 00:12:17 7.4 C 36 %
2589 29-03-2021 00:22:17 7.2 C 37 %
2590 29-03-2021 00:32:17 7.3 C 36 %
2591 29-03-2021 00:42:17 6.7 C 37 %
2592 29-03-2021 00:52:17 6.8 C 37 %
2593 29-03-2021 01:02:17 6.6 C 37 %
2594 29-03-2021 01:12:18 6.3 C 38 %
2595 29-03-2021 01:22:17 6.1 C 38 %
2596 29-03-2021 01:32:17 5.4 C 39 %
2597 29-03-2021 01:42:17 5 C 40 %
2598 29-03-2021 01:52:18 4.8 C 40 %
2599 29-03-2021 02:02:17 5.1 C 40 %
2600 29-03-2021 02:12:17 5.1 C 40 %
Sensor: Nr:Datum:Temp:Feuchte:
Aussen-T/F 2601 29-03-2021 02:22:17 5 C 40 %
2602 29-03-2021 02:32:17 4.7 C 41 %
2603 29-03-2021 02:42:17 4.5 C 41 %
2604 29-03-2021 02:52:17 4.1 C 42 %
2605 29-03-2021 03:02:18 4 C 42 %
2606 29-03-2021 03:12:18 4 C 42 %
2607 29-03-2021 03:22:17 3.7 C 43 %
2608 29-03-2021 03:32:17 3.6 C 44 %
2609 29-03-2021 03:42:17 3.7 C 44 %
2610 29-03-2021 03:52:17 3.8 C 45 %
2611 29-03-2021 04:02:17 3.9 C 44 %
2612 29-03-2021 04:12:18 3.5 C 44 %
2613 29-03-2021 04:22:17 3.7 C 44 %
2614 29-03-2021 04:32:17 3.5 C 44 %
2615 29-03-2021 04:42:18 3.4 C 44 %
2616 29-03-2021 04:52:17 3.2 C 44 %
2617 29-03-2021 05:02:17 3 C 45 %
2618 29-03-2021 05:12:18 2.9 C 46 %
2619 29-03-2021 05:22:18 2.8 C 46 %
2620 29-03-2021 05:32:17 3.1 C 45 %
2621 29-03-2021 05:42:18 3 C 45 %
2622 29-03-2021 05:52:17 3 C 45 %
2623 29-03-2021 06:02:17 3.1 C 45 %
2624 29-03-2021 06:12:17 3.1 C 45 %
2625 29-03-2021 06:22:17 3.1 C 45 %
Sensor: Nr:Datum:Temp:Feuchte:
Aussen-T/F 2626 29-03-2021 06:32:18 3 C 45 %
2627 29-03-2021 06:42:18 3 C 45 %
2628 29-03-2021 06:52:18 2.7 C 46 %
2629 29-03-2021 07:02:18 2.7 C 46 %
2630 29-03-2021 07:12:18 2.6 C 46 %
2631 29-03-2021 07:22:18 2.6 C 47 %
2632 29-03-2021 07:32:18 2.7 C 47 %
2633 29-03-2021 07:42:18 2.8 C 47 %
2634 29-03-2021 07:52:18 2.7 C 47 %
2635 29-03-2021 08:02:18 3.1 C 46 %
2636 29-03-2021 08:12:18 3.5 C 45 %
2637 29-03-2021 08:22:18 3.5 C 45 %
2638 29-03-2021 08:32:18 3.3 C 45 %
2639 29-03-2021 08:42:18 3.4 C 45 %
2640 29-03-2021 08:52:18 3.4 C 45 %
2641 29-03-2021 09:02:18 3.5 C 45 %
2642 29-03-2021 09:12:18 3.9 C 45 %
2643 29-03-2021 09:22:17 4.4 C 44 %
2644 29-03-2021 09:32:18 4.7 C 43 %
2645 29-03-2021 09:42:18 5.4 C 42 %
2646 29-03-2021 09:52:18 6.2 C 40 %
2647 29-03-2021 10:02:17 6.6 C 40 %
2648 29-03-2021 10:12:17 7.4 C 38 %
2649 29-03-2021 10:22:17 8 C 37 %
2650 29-03-2021 10:32:17 8.7 C 37 %
Sensor: Nr:Datum:Temp:Feuchte:
Aussen-T/F 2651 29-03-2021 10:42:18 10.4 C 35 %
2652 29-03-2021 10:52:18 11.6 C 33 %
2653 29-03-2021 11:02:18 12.8 C 31 %
2654 29-03-2021 11:12:18 13.8 C 29 %
2655 29-03-2021 11:22:18 14.6 C 28 %
2656 29-03-2021 11:32:18 15.1 C 26 %
2657 29-03-2021 11:42:18 15.4 C 26 %
2658 29-03-2021 11:52:18 17.3 C 25 %
2659 29-03-2021 12:02:18 17.7 C 25 %
2660 29-03-2021 12:12:18 17.5 C 24 %
2661 29-03-2021 12:22:18 18.4 C 23 %
2662 29-03-2021 12:32:17 18.8 C 22 %
2663 29-03-2021 12:42:17 17.9 C 23 %
2664 29-03-2021 12:52:18 18.2 C 22 %
2665 29-03-2021 13:02:18 19.4 C 21 %
2666 29-03-2021 13:12:18 19.3 C 21 %
2667 29-03-2021 13:22:17 18.9 C 21 %
2668 29-03-2021 13:32:17 19.3 C 21 %
2669 29-03-2021 13:42:17 19.1 C 20 %
2670 29-03-2021 13:52:17 19.5 C 21 %
2671 29-03-2021 14:02:18 20.4 C 20 %
2672 29-03-2021 14:12:18 20.7 C 20 %
2673 29-03-2021 14:22:17 22 C 20 %
2674 29-03-2021 14:32:18 23 C 20 %
2675 29-03-2021 14:42:18 23.2 C 20 %
Sensor: Nr:Datum:Temp:Feuchte:
Aussen-T/F 2676 29-03-2021 14:52:18 24.4 C 20 %
2677 29-03-2021 15:02:17 23 C 20 %
2678 29-03-2021 15:12:17 24.1 C 20 %
2679 29-03-2021 15:22:17 24.5 C 20 %
2680 29-03-2021 15:32:18 24.1 C 20 %
2681 29-03-2021 15:42:18 26.5 C 20 %
2682 29-03-2021 15:52:18 24.8 C 20 %
2683 29-03-2021 16:02:18 25.1 C 20 %
2684 29-03-2021 16:12:18 25.8 C 20 %
2685 29-03-2021 16:22:18 24.9 C 20 %
2686 29-03-2021 16:32:17 24.8 C 20 %
2687 29-03-2021 16:42:17 25.2 C 20 %
2688 29-03-2021 16:52:18 25.9 C 20 %
2689 29-03-2021 17:02:17 25.7 C 20 %
2690 29-03-2021 17:12:17 23.8 C 20 %
2691 29-03-2021 17:22:18 25.5 C 20 %
2692 29-03-2021 17:32:17 25.9 C 20 %
2693 29-03-2021 17:42:17 25 C 20 %
2694 29-03-2021 17:52:18 23.7 C 20 %
2695 29-03-2021 18:02:17 22.5 C 20 %
2696 29-03-2021 18:12:17 22 C 20 %
2697 29-03-2021 18:22:18 21.6 C 20 %
2698 29-03-2021 18:32:18 21.7 C 20 %
2699 29-03-2021 18:42:18 21.3 C 20 %
2700 29-03-2021 18:52:18 20.9 C 20 %
Sensor: Nr:Datum:Temp:Feuchte:
Aussen-T/F 2701 29-03-2021 19:02:18 20.1 C 20 %
2702 29-03-2021 19:12:18 18.8 C 21 %
2703 29-03-2021 19:22:17 18.1 C 21 %
2704 29-03-2021 19:32:17 17.3 C 22 %
2705 29-03-2021 19:42:18 16.5 C 23 %
2706 29-03-2021 19:52:18 16.1 C 23 %
2707 29-03-2021 20:02:18 15.3 C 25 %
2708 29-03-2021 20:12:18 15 C 25 %
2709 29-03-2021 20:22:17 14.4 C 26 %
2710 29-03-2021 20:32:17 14.5 C 26 %
2711 29-03-2021 20:42:18 14.1 C 27 %
2712 29-03-2021 20:52:17 13.8 C 27 %
2713 29-03-2021 21:02:18 13.3 C 27 %
2714 29-03-2021 21:12:18 13.4 C 27 %
2715 29-03-2021 21:22:17 13.1 C 28 %
2716 29-03-2021 21:32:17 12.5 C 30 %
2717 29-03-2021 21:42:17 11.7 C 31 %
2718 29-03-2021 21:52:17 11.6 C 31 %
2719 29-03-2021 22:02:18 11.2 C 31 %
2720 29-03-2021 22:12:18 10.1 C 32 %
2721 29-03-2021 22:22:18 9.6 C 34 %
2722 29-03-2021 22:32:18 8.9 C 35 %
2723 29-03-2021 22:42:18 8.9 C 35 %
2724 29-03-2021 22:52:18 8.6 C 35 %
2725 29-03-2021 23:02:18 8.2 C 35 %
Sensor: Nr:Datum:Temp:Feuchte:
Aussen-T/F 2726 29-03-2021 23:12:18 8.1 C 35 %
2727 29-03-2021 23:22:18 8 C 35 %
2728 29-03-2021 23:32:17 7.8 C 36 %
2729 29-03-2021 23:42:17 7.7 C 36 %
2730 29-03-2021 23:52:18 7.9 C 36 %
2731 30-03-2021 00:02:17 7.3 C 36 %
2732 30-03-2021 00:12:17 6.8 C 38 %
2733 30-03-2021 00:22:17 6.8 C 38 %
2734 30-03-2021 00:32:17 6.6 C 38 %
2735 30-03-2021 00:42:17 6.3 C 38 %
2736 30-03-2021 00:52:17 6.1 C 39 %
2737 30-03-2021 01:02:18 5.8 C 39 %
2738 30-03-2021 01:12:18 5.7 C 40 %
2739 30-03-2021 01:22:17 5.6 C 40 %
2740 30-03-2021 01:32:17 5.4 C 40 %
2741 30-03-2021 01:42:17 5.3 C 40 %
2742 30-03-2021 01:52:18 5.3 C 40 %
2743 30-03-2021 02:02:18 5.2 C 40 %
2744 30-03-2021 02:12:18 5 C 40 %
2745 30-03-2021 02:22:18 4.8 C 41 %
2746 30-03-2021 02:32:17 4.6 C 41 %
2747 30-03-2021 02:42:17 4.5 C 42 %
2748 30-03-2021 02:52:17 4.4 C 41 %
2749 30-03-2021 03:02:17 4.2 C 42 %
2750 30-03-2021 03:12:17 4.4 C 42 %
Sensor: Nr:Datum:Temp:Feuchte:
Aussen-T/F 2751 30-03-2021 03:22:17 4.3 C 42 %
2752 30-03-2021 03:32:18 3.8 C 43 %
2753 30-03-2021 03:42:18 3.5 C 43 %
2754 30-03-2021 03:52:17 3.5 C 44 %
2755 30-03-2021 04:02:17 3.3 C 44 %
2756 30-03-2021 04:12:17 3.2 C 44 %
2757 30-03-2021 04:22:17 2.8 C 45 %
2758 30-03-2021 04:32:17 2.5 C 45 %
2759 30-03-2021 04:42:17 2.6 C 46 %
2760 30-03-2021 04:52:17 2.7 C 46 %
2761 30-03-2021 05:02:17 2.5 C 46 %
2762 30-03-2021 05:12:17 2.4 C 46 %
2763 30-03-2021 05:22:17 1.9 C 47 %
2764 30-03-2021 05:32:18 1.8 C 47 %
2765 30-03-2021 05:42:18 1.8 C 48 %
2766 30-03-2021 05:52:17 1.7 C 48 %
2767 30-03-2021 06:02:18 1.5 C 47 %
2768 30-03-2021 06:12:18 1.5 C 49 %
2769 30-03-2021 06:22:18 2 C 48 %
2770 30-03-2021 06:32:17 2.1 C 48 %
2771 30-03-2021 06:42:17 2.1 C 47 %
2772 30-03-2021 06:52:18 2.2 C 47 %
2773 30-03-2021 07:02:17 1.4 C 47 %
2774 30-03-2021 07:12:17 1.6 C 49 %
2775 30-03-2021 07:22:18 1.5 C 48 %
Sensor: Nr:Datum:Temp:Feuchte:
Aussen-T/F 2776 30-03-2021 07:32:18 1.4 C 48 %
2777 30-03-2021 07:42:18 1.3 C 48 %
2778 30-03-2021 07:52:17 1.2 C 48 %
2779 30-03-2021 08:02:17 1.1 C 48 %
2780 30-03-2021 08:12:17 1.1 C 49 %
2781 30-03-2021 08:22:18 1.6 C 50 %
2782 30-03-2021 08:32:18 1.5 C 49 %
2783 30-03-2021 08:42:18 1.7 C 49 %
2784 30-03-2021 08:52:17 2.1 C 49 %
2785 30-03-2021 09:02:17 2.1 C 48 %
2786 30-03-2021 09:12:17 2.5 C 47 %
2787 30-03-2021 09:22:17 2.7 C 47 %
2788 30-03-2021 09:32:17 2.8 C 46 %
2789 30-03-2021 09:42:17 3.2 C 47 %
2790 30-03-2021 09:52:18 3.5 C 46 %
2791 30-03-2021 10:02:18 4.1 C 45 %
2792 30-03-2021 10:12:18 4.5 C 44 %
2793 30-03-2021 10:22:17 4.9 C 44 %
2794 30-03-2021 10:32:18 5.7 C 43 %
2795 30-03-2021 10:42:18 6.5 C 41 %
2796 30-03-2021 10:52:17 7.4 C 40 %
2797 30-03-2021 11:02:17 8.7 C 39 %
2798 30-03-2021 11:12:17 9.7 C 38 %
2799 30-03-2021 11:22:18 11.3 C 35 %
2800 30-03-2021 11:32:17 13 C 31 %
Sensor: Nr:Datum:Temp:Feuchte:
Aussen-T/F 2801 30-03-2021 11:42:17 13.5 C 30 %
2802 30-03-2021 11:52:17 15.4 C 30 %
2803 30-03-2021 12:02:17 17.2 C 27 %
2804 30-03-2021 12:12:17 17.8 C 25 %
2805 30-03-2021 12:22:18 18 C 25 %
2806 30-03-2021 12:32:17 21.1 C 22 %
2807 30-03-2021 12:42:17 19.5 C 23 %
2808 30-03-2021 12:52:17 18.1 C 25 %
2809 30-03-2021 13:02:17 19.8 C 23 %
2810 30-03-2021 13:12:17 19.4 C 23 %
2811 30-03-2021 13:22:17 19.5 C 23 %
2812 30-03-2021 13:32:17 19.7 C 23 %
2813 30-03-2021 13:42:17 20.2 C 21 %
2814 30-03-2021 13:52:17 20.5 C 21 %
2815 30-03-2021 14:02:17 22 C 20 %
2816 30-03-2021 14:12:17 22.1 C 20 %
2817 30-03-2021 14:22:18 24.1 C 20 %
2818 30-03-2021 14:32:18 26.3 C 20 %
2819 30-03-2021 14:42:18 27.1 C 20 %
2820 30-03-2021 14:52:18 26.8 C 20 %
2821 30-03-2021 15:02:18 27.8 C 20 %
2822 30-03-2021 15:12:18 28.3 C 20 %
2823 30-03-2021 15:22:18 29.7 C 20 %
2824 30-03-2021 15:32:18 28.1 C 20 %
2825 30-03-2021 15:42:18 29.3 C 20 %
Sensor: Nr:Datum:Temp:Feuchte:
Aussen-T/F 2826 30-03-2021 15:52:17 30.2 C 20 %
2827 30-03-2021 16:02:18 30.1 C 20 %
2828 30-03-2021 16:12:18 31.2 C 20 %
2829 30-03-2021 16:22:18 31.2 C 20 %
2830 30-03-2021 16:32:18 32.2 C 20 %
2831 30-03-2021 16:42:18 30.2 C 20 %
2832 30-03-2021 16:52:17 29.8 C 20 %
2833 30-03-2021 17:02:17 28.8 C 20 %
2834 30-03-2021 17:12:18 28.4 C 20 %
2835 30-03-2021 17:22:17 29.2 C 20 %
2836 30-03-2021 17:32:17 26.6 C 20 %
2837 30-03-2021 17:42:17 28.5 C 20 %
2838 30-03-2021 17:52:17 26.6 C 20 %
2839 30-03-2021 18:02:17 24.6 C 20 %
2840 30-03-2021 18:12:17 24.6 C 20 %
2841 30-03-2021 18:22:17 24.1 C 20 %
2842 30-03-2021 18:32:17 24.1 C 20 %
2843 30-03-2021 18:42:17 23.7 C 20 %
2844 30-03-2021 18:52:17 22.5 C 20 %
2845 30-03-2021 19:02:18 21.6 C 20 %
2846 30-03-2021 19:12:18 20.5 C 20 %
2847 30-03-2021 19:22:18 19.1 C 20 %
2848 30-03-2021 19:32:17 18.4 C 20 %
2849 30-03-2021 19:42:18 17.9 C 20 %
2850 30-03-2021 19:52:17 17.1 C 20 %
Sensor: Nr:Datum:Temp:Feuchte:
Aussen-T/F 2851 30-03-2021 20:02:17 16.6 C 20 %
2852 30-03-2021 20:12:17 16 C 20 %
2853 30-03-2021 20:22:18 16 C 20 %
2854 30-03-2021 20:32:18 15.8 C 21 %
2855 30-03-2021 20:42:18 15.4 C 21 %
2856 30-03-2021 20:52:17 14.8 C 23 %
2857 30-03-2021 21:02:18 14.6 C 23 %
2858 30-03-2021 21:12:18 13.8 C 25 %
2859 30-03-2021 21:22:18 13.3 C 25 %
2860 30-03-2021 21:32:18 12 C 27 %
2861 30-03-2021 21:42:18 11.2 C 29 %
2862 30-03-2021 21:52:17 11.1 C 30 %
2863 30-03-2021 22:02:17 10.4 C 31 %
2864 30-03-2021 22:12:17 10.5 C 31 %
2865 30-03-2021 22:22:18 10.5 C 31 %
2866 30-03-2021 22:32:17 9.9 C 31 %
2867 30-03-2021 22:42:17 9.6 C 31 %
2868 30-03-2021 22:52:17 9 C 33 %
2869 30-03-2021 23:02:18 9 C 32 %
2870 30-03-2021 23:12:18 8.5 C 33 %
2871 30-03-2021 23:22:18 8.5 C 34 %
2872 30-03-2021 23:32:18 8.2 C 34 %
2873 30-03-2021 23:42:18 8 C 34 %
2874 30-03-2021 23:52:18 7.8 C 35 %
2875 31-03-2021 00:02:17 8 C 34 %
Sensor: Nr:Datum:Temp:Feuchte:
Aussen-T/F 2876 31-03-2021 00:12:17 7.6 C 35 %
2877 31-03-2021 00:22:17 7.6 C 35 %
2878 31-03-2021 00:32:17 7.7 C 35 %
2879 31-03-2021 00:42:17 7.2 C 35 %
2880 31-03-2021 00:52:17 7.2 C 35 %
2881 31-03-2021 01:02:17 6.7 C 36 %
2882 31-03-2021 01:12:17 6.8 C 36 %
2883 31-03-2021 01:22:17 6.4 C 37 %
2884 31-03-2021 01:32:18 6.2 C 37 %
2885 31-03-2021 01:42:18 6.2 C 37 %
2886 31-03-2021 01:52:17 6.1 C 37 %
2887 31-03-2021 02:02:17 5.9 C 38 %
2888 31-03-2021 02:12:17 5.6 C 39 %
2889 31-03-2021 02:22:17 5.5 C 39 %
2890 31-03-2021 02:32:17 5.4 C 39 %
2891 31-03-2021 02:42:17 5.2 C 40 %
2892 31-03-2021 02:52:17 5.7 C 39 %
2893 31-03-2021 03:02:17 5.1 C 40 %
2894 31-03-2021 03:12:17 4.9 C 40 %
2895 31-03-2021 03:22:17 4.8 C 41 %
2896 31-03-2021 03:32:18 4.3 C 41 %
2897 31-03-2021 03:42:18 4.5 C 41 %
2898 31-03-2021 03:52:17 4.6 C 41 %
2899 31-03-2021 04:02:17 4.3 C 41 %
2900 31-03-2021 04:12:17 4.2 C 41 %
Sensor: Nr:Datum:Temp:Feuchte:
Aussen-T/F 2901 31-03-2021 04:22:17 4.1 C 41 %
2902 31-03-2021 04:32:17 4 C 42 %
2903 31-03-2021 04:42:18 3.6 C 43 %
2904 31-03-2021 04:52:17 3.5 C 43 %
2905 31-03-2021 05:02:17 3.3 C 44 %
2906 31-03-2021 05:12:17 3.2 C 44 %
2907 31-03-2021 05:22:18 3 C 44 %
2908 31-03-2021 05:32:18 3.3 C 44 %
2909 31-03-2021 05:42:18 3.3 C 44 %
2910 31-03-2021 05:52:17 3.2 C 44 %
2911 31-03-2021 06:02:17 3.3 C 45 %
2912 31-03-2021 06:12:17 2.9 C 45 %
2913 31-03-2021 06:22:17 2.7 C 45 %
2914 31-03-2021 06:32:17 2.4 C 45 %
2915 31-03-2021 06:42:17 2.2 C 45 %
2916 31-03-2021 06:52:18 2.4 C 46 %
2917 31-03-2021 07:02:17 2.5 C 46 %
2918 31-03-2021 07:12:17 2.2 C 46 %
2919 31-03-2021 07:22:18 2.3 C 46 %
2920 31-03-2021 07:32:18 2.5 C 46 %
2921 31-03-2021 07:42:18 2.7 C 46 %
2922 31-03-2021 07:52:18 2.7 C 46 %
2923 31-03-2021 08:02:17 2.8 C 46 %
2924 31-03-2021 08:12:17 3.3 C 46 %
2925 31-03-2021 08:22:18 3.1 C 45 %
Sensor: Nr:Datum:Temp:Feuchte:
Aussen-T/F 2926 31-03-2021 08:32:18 3.4 C 45 %
2927 31-03-2021 08:42:18 3.6 C 45 %
2928 31-03-2021 08:52:18 3.8 C 45 %
2929 31-03-2021 09:02:17 4 C 43 %
2930 31-03-2021 09:12:18 4.3 C 43 %
2931 31-03-2021 09:22:18 4.7 C 43 %
2932 31-03-2021 09:32:17 5.1 C 42 %
2933 31-03-2021 09:42:18 5.6 C 41 %
2934 31-03-2021 09:52:18 5.7 C 41 %
2935 31-03-2021 10:02:18 6 C 40 %
2936 31-03-2021 10:12:18 6.8 C 40 %
2937 31-03-2021 10:22:18 7 C 39 %
2938 31-03-2021 10:32:18 7.6 C 39 %
2939 31-03-2021 10:42:18 8.3 C 38 %
2940 31-03-2021 10:52:18 9.7 C 37 %
2941 31-03-2021 11:02:18 11.2 C 35 %
2942 31-03-2021 11:12:18 12 C 33 %
2943 31-03-2021 11:22:18 13.4 C 31 %
2944 31-03-2021 11:32:18 15.2 C 30 %
2945 31-03-2021 11:42:18 16.1 C 28 %
2946 31-03-2021 11:52:18 17.1 C 27 %
2947 31-03-2021 12:02:17 19.6 C 25 %
2948 31-03-2021 12:12:17 21.6 C 22 %
2949 31-03-2021 12:22:17 22.4 C 22 %
2950 31-03-2021 12:32:17 24 C 20 %
Sensor: Nr:Datum:Temp:Feuchte:
Aussen-T/F 2951 31-03-2021 12:42:17 24.6 C 20 %
2952 31-03-2021 12:52:18 20.8 C 20 %
2953 31-03-2021 13:02:17 22.7 C 20 %
2954 31-03-2021 13:12:17 23.3 C 20 %
2955 31-03-2021 13:22:17 22.4 C 20 %
2956 31-03-2021 13:32:18 22.2 C 20 %
2957 31-03-2021 13:42:18 23.1 C 20 %
2958 31-03-2021 13:52:18 23.2 C 20 %
2959 31-03-2021 14:02:18 23.5 C 20 %
2960 31-03-2021 14:12:18 24.1 C 20 %
2961 31-03-2021 14:22:17 26.4 C 20 %
2962 31-03-2021 14:32:17 28.3 C 20 %
2963 31-03-2021 14:42:18 30.2 C 20 %
2964 31-03-2021 14:52:17 30 C 20 %
2965 31-03-2021 15:02:17 29.6 C 20 %
2966 31-03-2021 15:12:18 29.2 C 20 %
2967 31-03-2021 15:22:17 29.5 C 20 %
2968 31-03-2021 15:32:18 32.4 C 20 %
2969 31-03-2021 15:42:18 31.4 C 20 %
2970 31-03-2021 15:52:17 30.4 C 20 %
2971 31-03-2021 16:02:17 31 C 20 %
2972 31-03-2021 16:12:18 31.1 C 20 %
2973 31-03-2021 16:22:17 31.5 C 20 %
2974 31-03-2021 16:32:18 29.8 C 20 %
2975 31-03-2021 16:42:18 30.7 C 20 %
Sensor: Nr:Datum:Temp:Feuchte:
Aussen-T/F 2976 31-03-2021 16:52:18 30 C 20 %
2977 31-03-2021 17:02:17 30.1 C 20 %
2978 31-03-2021 17:12:18 30.8 C 20 %
2979 31-03-2021 17:22:17 30.7 C 20 %
2980 31-03-2021 17:32:18 29.7 C 20 %
2981 31-03-2021 17:42:18 30.6 C 20 %
2982 31-03-2021 17:52:18 27.6 C 20 %
2983 31-03-2021 18:02:18 26.7 C 20 %
2984 31-03-2021 18:12:18 26.1 C 20 %
2985 31-03-2021 18:22:18 26.1 C 20 %
2986 31-03-2021 18:32:18 25.5 C 20 %
2987 31-03-2021 18:42:18 25.2 C 20 %
2988 31-03-2021 18:52:17 24.8 C 20 %
2989 31-03-2021 19:02:17 24.1 C 20 %
2990 31-03-2021 19:12:17 24 C 20 %
2991 31-03-2021 19:22:18 23.2 C 20 %
2992 31-03-2021 19:32:17 21.8 C 20 %
2993 31-03-2021 19:42:17 20.7 C 20 %
2994 31-03-2021 19:52:18 19.5 C 21 %
2995 31-03-2021 20:02:17 18.6 C 22 %
2996 31-03-2021 20:12:18 18.6 C 22 %
2997 31-03-2021 20:22:17 18.1 C 22 %
2998 31-03-2021 20:32:18 17.9 C 23 %
2999 31-03-2021 20:42:18 17 C 24 %
3000 31-03-2021 20:52:18 16.8 C 25 %
Sensor: Nr:Datum:Temp:Feuchte:
Aussen-T/F 3001 31-03-2021 21:02:18 16.3 C 25 %
3002 31-03-2021 21:12:18 15.2 C 26 %
3003 31-03-2021 21:22:17 15 C 27 %
3004 31-03-2021 21:32:17 14.6 C 28 %
3005 31-03-2021 21:42:18 14.1 C 28 %
3006 31-03-2021 21:52:18 13.8 C 29 %
3007 31-03-2021 22:02:18 13.1 C 30 %
3008 31-03-2021 22:12:18 13.2 C 30 %
3009 31-03-2021 22:22:18 13.1 C 30 %
3010 31-03-2021 22:32:17 13.1 C 30 %
3011 31-03-2021 22:42:17 15.1 C 27 %
3012 31-03-2021 22:52:18 13.8 C 29 %
3013 31-03-2021 23:02:18 12.5 C 31 %
3014 31-03-2021 23:12:18 12 C 31 %
3015 31-03-2021 23:22:17 11.9 C 32 %
3016 31-03-2021 23:32:18 12 C 31 %
3017 31-03-2021 23:42:18 11.3 C 32 %
3018 31-03-2021 23:52:18 11.1 C 32 %
Sensor: Nr:Datum:Temp:Feuchte:
G-T/H 1 11-03-2021 00:00:17 8.7 C 75 %
2 11-03-2021 00:10:18 8.7 C 75 %
3 11-03-2021 00:20:18 8.7 C 75 %
4 11-03-2021 00:30:18 8.7 C 75 %
5 11-03-2021 00:40:18 8.7 C 75 %
6 11-03-2021 00:50:18 8.7 C 75 %
7 11-03-2021 01:00:18 8.7 C 75 %
8 11-03-2021 01:10:18 8.8 C 75 %
9 11-03-2021 01:20:17 8.8 C 75 %
10 11-03-2021 01:30:17 8.8 C 75 %
11 11-03-2021 01:40:17 8.8 C 75 %
12 11-03-2021 01:50:17 8.7 C 75 %
13 11-03-2021 02:00:17 8.8 C 75 %
14 11-03-2021 02:10:17 8.8 C 75 %
15 11-03-2021 02:20:18 8.8 C 75 %
16 11-03-2021 02:30:18 8.8 C 75 %
17 11-03-2021 02:40:18 8.8 C 75 %
18 11-03-2021 02:50:17 8.8 C 75 %
19 11-03-2021 03:00:18 8.8 C 75 %
20 11-03-2021 03:10:18 8.8 C 75 %
21 11-03-2021 03:20:18 8.8 C 75 %
22 11-03-2021 03:30:18 8.8 C 75 %
23 11-03-2021 03:40:18 8.8 C 75 %
24 11-03-2021 03:50:17 8.8 C 75 %
25 11-03-2021 04:00:18 8.8 C 75 %
Sensor: Nr:Datum:Temp:Feuchte:
G-T/H 26 11-03-2021 04:10:18 8.8 C 75 %
27 11-03-2021 04:20:18 8.8 C 75 %
28 11-03-2021 04:30:17 8.8 C 75 %
29 11-03-2021 04:40:17 8.8 C 75 %
30 11-03-2021 04:50:18 8.8 C 75 %
31 11-03-2021 05:00:18 8.8 C 75 %
32 11-03-2021 05:10:18 8.8 C 75 %
33 11-03-2021 05:20:17 8.8 C 75 %
34 11-03-2021 05:30:17 8.9 C 75 %
35 11-03-2021 05:40:17 8.9 C 75 %
36 11-03-2021 05:50:17 8.8 C 75 %
37 11-03-2021 06:00:18 8.9 C 75 %
38 11-03-2021 06:10:18 8.9 C 75 %
39 11-03-2021 06:20:18 8.9 C 75 %
40 11-03-2021 06:30:18 8.9 C 75 %
41 11-03-2021 06:40:18 8.8 C 75 %
42 11-03-2021 06:50:17 8.9 C 75 %
43 11-03-2021 07:00:17 8.9 C 75 %
44 11-03-2021 07:10:17 8.9 C 75 %
45 11-03-2021 07:20:17 8.9 C 75 %
46 11-03-2021 07:30:17 8.9 C 75 %
47 11-03-2021 07:40:17 8.9 C 75 %
48 11-03-2021 07:50:18 8.9 C 75 %
49 11-03-2021 08:00:17 8.9 C 75 %
50 11-03-2021 08:10:17 8.9 C 75 %
Sensor: Nr:Datum:Temp:Feuchte:
G-T/H 51 11-03-2021 08:20:17 8.9 C 75 %
52 11-03-2021 08:30:17 8.9 C 75 %
53 11-03-2021 08:40:17 8.9 C 75 %
54 11-03-2021 08:50:17 9 C 74 %
55 11-03-2021 09:00:17 8.9 C 75 %
56 11-03-2021 09:10:17 8.9 C 75 %
57 11-03-2021 09:20:17 8.9 C 75 %
58 11-03-2021 09:30:17 9 C 74 %
59 11-03-2021 09:40:17 9 C 74 %
60 11-03-2021 09:50:17 9 C 74 %
61 11-03-2021 10:00:18 9 C 74 %
62 11-03-2021 10:10:18 9 C 74 %
63 11-03-2021 10:20:17 9 C 74 %
64 11-03-2021 10:30:17 9 C 74 %
65 11-03-2021 10:40:17 9 C 74 %
66 11-03-2021 10:50:18 9 C 74 %
67 11-03-2021 11:00:18 9.1 C 74 %
68 11-03-2021 11:10:18 9.1 C 74 %
69 11-03-2021 11:20:18 9.1 C 74 %
70 11-03-2021 11:30:17 9.1 C 74 %
71 11-03-2021 11:40:18 9.1 C 74 %
72 11-03-2021 11:50:17 9.1 C 74 %
73 11-03-2021 12:00:18 9.1 C 74 %
74 11-03-2021 12:10:18 9.1 C 74 %
75 11-03-2021 12:20:18 9.1 C 74 %
Sensor: Nr:Datum:Temp:Feuchte:
G-T/H 76 11-03-2021 12:30:18 9.1 C 74 %
77 11-03-2021 12:40:18 9.2 C 74 %
78 11-03-2021 12:50:17 9.2 C 74 %
79 11-03-2021 13:00:18 9.2 C 75 %
80 11-03-2021 13:10:18 9.2 C 75 %
81 11-03-2021 13:20:18 9.2 C 75 %
82 11-03-2021 13:30:18 9.3 C 75 %
83 11-03-2021 13:40:18 9.3 C 75 %
84 11-03-2021 13:50:18 9.3 C 75 %
85 11-03-2021 14:00:18 9.3 C 75 %
86 11-03-2021 14:10:18 9.3 C 75 %
87 11-03-2021 14:20:18 9.3 C 75 %
88 11-03-2021 14:30:17 9.3 C 75 %
89 11-03-2021 14:40:17 9.3 C 75 %
90 11-03-2021 14:50:17 9.3 C 75 %
91 11-03-2021 15:00:17 9.3 C 75 %
92 11-03-2021 15:10:17 9.3 C 75 %
93 11-03-2021 15:20:18 9.4 C 75 %
94 11-03-2021 15:30:17 9.4 C 75 %
95 11-03-2021 15:40:17 9.4 C 75 %
96 11-03-2021 15:50:17 9.4 C 75 %
97 11-03-2021 16:00:17 9.4 C 75 %
98 11-03-2021 16:10:17 9.4 C 75 %
99 11-03-2021 16:20:17 9.5 C 75 %
100 11-03-2021 16:30:18 9.5 C 75 %
Sensor: Nr:Datum:Temp:Feuchte:
G-T/H 101 11-03-2021 16:40:18 9.5 C 75 %
102 11-03-2021 16:50:17 9.5 C 75 %
103 11-03-2021 17:00:17 9.5 C 75 %
104 11-03-2021 17:10:17 9.5 C 75 %
105 11-03-2021 17:20:17 9.6 C 75 %
106 11-03-2021 17:30:18 9.6 C 75 %
107 11-03-2021 17:40:18 9.6 C 75 %
108 11-03-2021 17:50:17 9.6 C 75 %
109 11-03-2021 18:00:17 9.6 C 75 %
110 11-03-2021 18:10:17 9.6 C 75 %
111 11-03-2021 18:20:17 9.5 C 75 %
112 11-03-2021 18:30:18 9.6 C 75 %
113 11-03-2021 18:40:18 9.6 C 75 %
114 11-03-2021 18:50:18 9.6 C 75 %
115 11-03-2021 19:00:18 9.6 C 75 %
116 11-03-2021 19:10:18 9.6 C 75 %
117 11-03-2021 19:20:17 9.6 C 75 %
118 11-03-2021 19:30:18 9.6 C 75 %
119 11-03-2021 19:40:18 9.6 C 75 %
120 11-03-2021 19:50:18 9.6 C 75 %
121 11-03-2021 20:00:17 9.6 C 75 %
122 11-03-2021 20:10:18 9.6 C 75 %
123 11-03-2021 20:20:18 9.6 C 75 %
124 11-03-2021 20:30:17 9.6 C 75 %
125 11-03-2021 20:40:17 9.6 C 75 %
Sensor: Nr:Datum:Temp:Feuchte:
G-T/H 126 11-03-2021 20:50:17 9.6 C 75 %
127 11-03-2021 21:00:18 9.6 C 75 %
128 11-03-2021 21:10:18 9.6 C 75 %
129 11-03-2021 21:20:17 9.6 C 75 %
130 11-03-2021 21:30:17 9.6 C 75 %
131 11-03-2021 21:40:17 9.6 C 75 %
132 11-03-2021 21:50:18 9.6 C 75 %
133 11-03-2021 22:00:18 9.6 C 75 %
134 11-03-2021 22:10:18 9.6 C 75 %
135 11-03-2021 22:20:17 9.6 C 75 %
136 11-03-2021 22:30:18 9.6 C 75 %
137 11-03-2021 22:40:18 9.6 C 75 %
138 11-03-2021 22:50:18 9.6 C 75 %
139 11-03-2021 23:00:18 9.6 C 75 %
140 11-03-2021 23:10:18 9.6 C 75 %
141 11-03-2021 23:20:18 9.6 C 75 %
142 11-03-2021 23:30:17 9.6 C 75 %
143 11-03-2021 23:40:17 9.5 C 75 %
144 11-03-2021 23:50:17 9.5 C 75 %
145 12-03-2021 00:00:17 9.5 C 75 %
146 12-03-2021 00:10:17 9.5 C 75 %
147 12-03-2021 00:20:17 9.5 C 75 %
148 12-03-2021 00:30:17 9.5 C 75 %
149 12-03-2021 00:40:17 9.5 C 75 %
150 12-03-2021 00:50:18 9.5 C 75 %
Sensor: Nr:Datum:Temp:Feuchte:
G-T/H 151 12-03-2021 01:00:17 9.5 C 75 %
152 12-03-2021 01:10:17 9.5 C 75 %
153 12-03-2021 01:20:18 9.5 C 74 %
154 12-03-2021 01:30:17 9.5 C 74 %
155 12-03-2021 01:40:17 9.5 C 74 %
156 12-03-2021 01:50:17 9.5 C 74 %
157 12-03-2021 02:00:17 9.5 C 74 %
158 12-03-2021 02:10:17 9.5 C 74 %
159 12-03-2021 02:20:18 9.5 C 74 %
160 12-03-2021 02:30:18 9.5 C 74 %
161 12-03-2021 02:40:18 9.4 C 74 %
162 12-03-2021 02:50:18 9.4 C 74 %
163 12-03-2021 03:00:18 9.4 C 74 %
164 12-03-2021 03:10:18 9.4 C 74 %
165 12-03-2021 03:20:17 9.4 C 74 %
166 12-03-2021 03:30:17 9.4 C 74 %
167 12-03-2021 03:40:17 9.3 C 74 %
168 12-03-2021 03:50:17 9.4 C 74 %
169 12-03-2021 04:00:17 9.3 C 74 %
170 12-03-2021 04:10:17 9.3 C 74 %
171 12-03-2021 04:20:18 9.3 C 74 %
172 12-03-2021 04:30:18 9.3 C 74 %
173 12-03-2021 04:40:18 9.3 C 74 %
174 12-03-2021 04:50:17 9.3 C 74 %
175 12-03-2021 05:00:18 9.3 C 74 %
Sensor: Nr:Datum:Temp:Feuchte:
G-T/H 176 12-03-2021 05:10:18 9.3 C 74 %
177 12-03-2021 05:20:17 9.3 C 74 %
178 12-03-2021 05:30:18 9.2 C 74 %
179 12-03-2021 05:40:18 9.2 C 74 %
180 12-03-2021 05:50:17 9.2 C 74 %
181 12-03-2021 06:00:17 9.2 C 74 %
182 12-03-2021 06:10:18 9.2 C 74 %
183 12-03-2021 06:20:18 9.2 C 74 %
184 12-03-2021 06:30:18 9.2 C 74 %
185 12-03-2021 06:40:18 9.2 C 74 %
186 12-03-2021 06:50:17 9.1 C 74 %
187 12-03-2021 07:00:18 9.1 C 74 %
188 12-03-2021 07:10:18 9.1 C 74 %
189 12-03-2021 07:20:17 9.1 C 74 %
190 12-03-2021 07:30:17 9.1 C 74 %
191 12-03-2021 07:40:17 9.1 C 74 %
192 12-03-2021 07:50:18 9.1 C 74 %
193 12-03-2021 08:00:17 9.1 C 74 %
194 12-03-2021 08:10:17 9.1 C 74 %
195 12-03-2021 08:20:17 9.1 C 74 %
196 12-03-2021 08:30:17 9.1 C 74 %
197 12-03-2021 08:40:17 9.1 C 74 %
198 12-03-2021 08:50:18 9.1 C 74 %
199 12-03-2021 09:00:18 9.1 C 74 %
200 12-03-2021 09:10:18 9.1 C 74 %
Sensor: Nr:Datum:Temp:Feuchte:
G-T/H 201 12-03-2021 09:20:18 9.1 C 74 %
202 12-03-2021 09:30:17 9.1 C 74 %
203 12-03-2021 09:40:17 9.1 C 74 %
204 12-03-2021 09:50:18 9.1 C 74 %
205 12-03-2021 10:00:17 9.1 C 74 %
206 12-03-2021 10:10:18 9.1 C 74 %
207 12-03-2021 10:20:17 9 C 74 %
208 12-03-2021 10:30:17 9.1 C 74 %
209 12-03-2021 10:40:17 9.1 C 74 %
210 12-03-2021 10:50:18 9.1 C 74 %
211 12-03-2021 11:00:17 9.1 C 74 %
212 12-03-2021 11:10:17 9.1 C 74 %
213 12-03-2021 11:20:17 9.1 C 74 %
214 12-03-2021 11:30:17 9.1 C 74 %
215 12-03-2021 11:40:17 9.1 C 74 %
216 12-03-2021 11:50:18 9.1 C 74 %
217 12-03-2021 12:00:18 9.1 C 74 %
218 12-03-2021 12:10:18 9.1 C 74 %
219 12-03-2021 12:20:18 9.1 C 74 %
220 12-03-2021 12:30:18 9.1 C 74 %
221 12-03-2021 12:40:18 9.1 C 74 %
222 12-03-2021 12:50:17 9.1 C 74 %
223 12-03-2021 13:00:17 9.2 C 74 %
224 12-03-2021 13:10:18 9.2 C 74 %
225 12-03-2021 13:20:17 9.2 C 74 %
Sensor: Nr:Datum:Temp:Feuchte:
G-T/H 226 12-03-2021 13:30:18 9.2 C 74 %
227 12-03-2021 13:40:18 9.2 C 74 %
228 12-03-2021 13:50:17 9.2 C 74 %
229 12-03-2021 14:00:17 9.2 C 74 %
230 12-03-2021 14:10:17 9.2 C 74 %
231 12-03-2021 14:20:17 9.2 C 74 %
232 12-03-2021 14:30:18 9.3 C 74 %
233 12-03-2021 14:40:18 9.3 C 74 %
234 12-03-2021 14:50:18 9.3 C 74 %
235 12-03-2021 15:00:18 9.3 C 74 %
236 12-03-2021 15:10:18 9.3 C 74 %
237 12-03-2021 15:20:17 9.3 C 74 %
238 12-03-2021 15:30:17 9.3 C 74 %
239 12-03-2021 15:40:17 9.4 C 74 %
240 12-03-2021 15:50:18 9.4 C 74 %
241 12-03-2021 16:00:17 9.4 C 74 %
242 12-03-2021 16:10:17 9.4 C 74 %
243 12-03-2021 16:20:17 9.4 C 74 %
244 12-03-2021 16:30:17 9.4 C 74 %
245 12-03-2021 16:40:18 9.4 C 74 %
246 12-03-2021 16:50:17 9.5 C 74 %
247 12-03-2021 17:00:18 9.5 C 74 %
248 12-03-2021 17:10:18 9.5 C 74 %
249 12-03-2021 17:20:17 9.5 C 74 %
250 12-03-2021 17:30:18 9.5 C 74 %
Sensor: Nr:Datum:Temp:Feuchte:
G-T/H 251 12-03-2021 17:40:18 9.5 C 74 %
252 12-03-2021 17:50:17 9.5 C 74 %
253 12-03-2021 18:00:18 9.5 C 74 %
254 12-03-2021 18:10:18 9.5 C 74 %
255 12-03-2021 18:20:18 9.5 C 74 %
256 12-03-2021 18:30:18 9.5 C 74 %
257 12-03-2021 18:40:18 9.5 C 74 %
258 12-03-2021 18:50:18 9.5 C 74 %
259 12-03-2021 19:00:18 9.5 C 74 %
260 12-03-2021 19:10:18 9.5 C 74 %
261 12-03-2021 19:20:18 9.5 C 74 %
262 12-03-2021 19:30:17 9.5 C 74 %
263 12-03-2021 19:40:17 9.5 C 74 %
264 12-03-2021 19:50:18 9.5 C 74 %
265 12-03-2021 20:00:18 9.5 C 74 %
266 12-03-2021 20:10:18 9.5 C 74 %
267 12-03-2021 20:20:17 9.6 C 74 %
268 12-03-2021 20:30:18 9.5 C 74 %
269 12-03-2021 20:40:18 9.6 C 74 %
270 12-03-2021 20:50:18 9.6 C 74 %
271 12-03-2021 21:00:18 9.5 C 74 %
272 12-03-2021 21:10:18 9.6 C 74 %
273 12-03-2021 21:20:17 9.6 C 74 %
274 12-03-2021 21:30:17 9.6 C 74 %
275 12-03-2021 21:40:17 9.5 C 74 %
Sensor: Nr:Datum:Temp:Feuchte:
G-T/H 276 12-03-2021 21:50:17 9.5 C 74 %
277 12-03-2021 22:00:18 9.5 C 74 %
278 12-03-2021 22:10:18 9.5 C 74 %
279 12-03-2021 22:20:17 9.6 C 74 %
280 12-03-2021 22:30:17 9.5 C 74 %
281 12-03-2021 22:40:17 9.5 C 74 %
282 12-03-2021 22:50:18 9.5 C 74 %
283 12-03-2021 23:00:17 9.5 C 74 %
284 12-03-2021 23:10:18 9.5 C 74 %
285 12-03-2021 23:20:18 9.5 C 74 %
286 12-03-2021 23:30:18 9.5 C 74 %
287 12-03-2021 23:40:18 9.5 C 74 %
288 12-03-2021 23:50:17 9.5 C 74 %
289 13-03-2021 00:00:17 9.5 C 74 %
290 13-03-2021 00:10:17 9.5 C 74 %
291 13-03-2021 00:20:18 9.5 C 74 %
292 13-03-2021 00:30:17 9.5 C 74 %
293 13-03-2021 00:40:17 9.5 C 74 %
294 13-03-2021 00:50:18 9.5 C 74 %
295 13-03-2021 01:00:18 9.5 C 74 %
296 13-03-2021 01:10:18 9.5 C 74 %
297 13-03-2021 01:20:18 9.5 C 74 %
298 13-03-2021 01:30:17 9.5 C 74 %
299 13-03-2021 01:40:17 9.5 C 74 %
300 13-03-2021 01:50:17 9.5 C 74 %
Sensor: Nr:Datum:Temp:Feuchte:
G-T/H 301 13-03-2021 02:00:17 9.5 C 74 %
302 13-03-2021 02:10:17 9.5 C 74 %
303 13-03-2021 02:20:17 9.4 C 74 %
304 13-03-2021 02:30:17 9.4 C 74 %
305 13-03-2021 02:40:17 9.4 C 74 %
306 13-03-2021 02:50:18 9.4 C 74 %
307 13-03-2021 03:00:17 9.4 C 74 %
308 13-03-2021 03:10:17 9.4 C 74 %
309 13-03-2021 03:20:17 9.4 C 74 %
310 13-03-2021 03:30:17 9.4 C 74 %
311 13-03-2021 03:40:17 9.4 C 74 %
312 13-03-2021 03:50:17 9.4 C 74 %
313 13-03-2021 04:00:18 9.4 C 74 %
314 13-03-2021 04:10:18 9.4 C 74 %
315 13-03-2021 04:20:18 9.4 C 74 %
316 13-03-2021 04:30:17 9.4 C 74 %
317 13-03-2021 04:40:17 9.4 C 74 %
318 13-03-2021 04:50:18 9.4 C 74 %
319 13-03-2021 05:00:18 9.4 C 74 %
320 13-03-2021 05:10:18 9.3 C 74 %
321 13-03-2021 05:20:17 9.3 C 74 %
322 13-03-2021 05:30:18 9.3 C 74 %
323 13-03-2021 05:40:18 9.3 C 74 %
324 13-03-2021 05:50:17 9.3 C 74 %
325 13-03-2021 06:00:18 9.3 C 74 %
Sensor: Nr:Datum:Temp:Feuchte:
G-T/H 326 13-03-2021 06:10:18 9.3 C 74 %
327 13-03-2021 06:20:18 9.3 C 74 %
328 13-03-2021 06:30:17 9.3 C 74 %
329 13-03-2021 06:40:17 9.3 C 74 %
330 13-03-2021 06:50:17 9.3 C 74 %
331 13-03-2021 07:00:17 9.3 C 74 %
332 13-03-2021 07:10:17 9.3 C 74 %
333 13-03-2021 07:20:18 9.3 C 74 %
334 13-03-2021 07:30:18 9.3 C 74 %
335 13-03-2021 07:40:18 9.3 C 74 %
336 13-03-2021 07:50:18 9.3 C 74 %
337 13-03-2021 08:00:17 9.3 C 74 %
338 13-03-2021 08:10:17 9.3 C 74 %
339 13-03-2021 08:20:18 9.3 C 74 %
340 13-03-2021 08:30:17 9.3 C 74 %
341 13-03-2021 08:40:18 9.3 C 74 %
342 13-03-2021 08:50:17 9.3 C 74 %
343 13-03-2021 09:00:17 9.3 C 74 %
344 13-03-2021 09:10:17 9.3 C 74 %
345 13-03-2021 09:20:18 9.3 C 74 %
346 13-03-2021 09:30:17 9.3 C 74 %
347 13-03-2021 09:40:17 9.3 C 74 %
348 13-03-2021 09:50:17 9.3 C 74 %
349 13-03-2021 10:00:18 9.3 C 74 %
350 13-03-2021 10:10:18 9.3 C 74 %
Sensor: Nr:Datum:Temp:Feuchte:
G-T/H 351 13-03-2021 10:20:17 9.3 C 74 %
352 13-03-2021 10:30:17 9.3 C 74 %
353 13-03-2021 10:40:17 9.3 C 74 %
354 13-03-2021 10:50:18 9.3 C 74 %
355 13-03-2021 11:00:17 9.3 C 74 %
356 13-03-2021 11:10:17 9.3 C 74 %
357 13-03-2021 11:20:18 9.3 C 74 %
358 13-03-2021 11:30:17 9.3 C 74 %
359 13-03-2021 11:40:17 9.3 C 74 %
360 13-03-2021 11:50:17 9.3 C 74 %
361 13-03-2021 12:00:17 9.4 C 74 %
362 13-03-2021 12:10:17 9.4 C 74 %
363 13-03-2021 12:20:18 9.4 C 74 %
364 13-03-2021 12:30:17 9.4 C 74 %
365 13-03-2021 12:40:17 9.4 C 74 %
366 13-03-2021 12:51:17 9.4 C 74 %
367 13-03-2021 13:01:17 9.4 C 74 %
368 13-03-2021 13:10:17 9.4 C 74 %
369 13-03-2021 13:20:18 9.4 C 74 %
370 13-03-2021 13:30:17 9.4 C 74 %
371 13-03-2021 13:40:17 9.4 C 74 %
372 13-03-2021 13:50:18 9.4 C 74 %
373 13-03-2021 14:00:17 9.4 C 74 %
374 13-03-2021 14:10:17 9.5 C 74 %
375 13-03-2021 14:21:17 9.5 C 74 %
Sensor: Nr:Datum:Temp:Feuchte:
G-T/H 376 13-03-2021 14:30:17 9.5 C 74 %
377 13-03-2021 14:40:18 9.5 C 74 %
378 13-03-2021 14:50:18 9.5 C 74 %
379 13-03-2021 15:00:18 9.5 C 74 %
380 13-03-2021 15:10:18 9.5 C 74 %
381 13-03-2021 15:20:17 9.5 C 74 %
382 13-03-2021 15:31:17 9.5 C 74 %
383 13-03-2021 15:41:17 9.5 C 74 %
384 13-03-2021 15:51:17 9.5 C 74 %
385 13-03-2021 16:01:17 9.5 C 74 %
386 13-03-2021 16:10:17 9.5 C 74 %
387 13-03-2021 16:21:17 9.5 C 74 %
388 13-03-2021 16:31:17 9.5 C 74 %
389 13-03-2021 16:41:17 9.5 C 74 %
390 13-03-2021 16:50:18 9.5 C 74 %
391 13-03-2021 17:00:18 9.5 C 74 %
392 13-03-2021 17:10:18 9.5 C 74 %
393 13-03-2021 17:21:17 9.5 C 74 %
394 13-03-2021 17:30:18 9.5 C 74 %
395 13-03-2021 17:40:18 9.5 C 74 %
396 13-03-2021 17:50:19 9.5 C 74 %
397 13-03-2021 18:01:17 9.5 C 74 %
398 13-03-2021 18:11:17 9.5 C 74 %
399 13-03-2021 18:21:17 9.5 C 74 %
400 13-03-2021 18:31:17 9.5 C 74 %
Sensor: Nr:Datum:Temp:Feuchte:
G-T/H 401 13-03-2021 18:41:17 9.5 C 74 %
402 13-03-2021 18:51:17 9.5 C 74 %
403 13-03-2021 19:00:18 9.5 C 74 %
404 13-03-2021 19:10:18 9.5 C 74 %
405 13-03-2021 19:21:17 9.5 C 74 %
406 13-03-2021 19:31:17 9.4 C 74 %
407 13-03-2021 19:41:17 9.4 C 74 %
408 13-03-2021 19:51:18 9.4 C 74 %
409 13-03-2021 20:01:18 9.4 C 74 %
410 13-03-2021 20:11:18 9.5 C 74 %
411 13-03-2021 20:21:17 9.4 C 74 %
412 13-03-2021 20:31:18 9.4 C 74 %
413 13-03-2021 20:41:18 9.4 C 74 %
414 13-03-2021 20:51:17 9.4 C 74 %
415 13-03-2021 21:01:17 9.4 C 74 %
416 13-03-2021 21:11:17 9.4 C 74 %
417 13-03-2021 21:21:18 9.4 C 74 %
418 13-03-2021 21:31:17 9.4 C 74 %
419 13-03-2021 21:41:17 9.4 C 74 %
420 13-03-2021 21:51:18 9.4 C 74 %
421 13-03-2021 22:01:17 9.3 C 74 %
422 13-03-2021 22:11:17 9.3 C 74 %
423 13-03-2021 22:21:17 9.3 C 74 %
424 13-03-2021 22:31:17 9.3 C 73 %
425 13-03-2021 22:41:17 9.3 C 73 %
Sensor: Nr:Datum:Temp:Feuchte:
G-T/H 426 13-03-2021 22:51:17 9.3 C 73 %
427 13-03-2021 23:01:17 9.3 C 73 %
428 13-03-2021 23:11:17 9.3 C 73 %
429 13-03-2021 23:21:18 9.3 C 73 %
430 13-03-2021 23:31:17 9.3 C 73 %
431 13-03-2021 23:41:17 9.3 C 73 %
432 13-03-2021 23:51:17 9.2 C 73 %
433 14-03-2021 00:01:18 9.2 C 73 %
434 14-03-2021 00:11:18 9.2 C 73 %
435 14-03-2021 00:21:17 9.2 C 73 %
436 14-03-2021 00:31:17 9.2 C 73 %
437 14-03-2021 00:41:17 9.2 C 73 %
438 14-03-2021 00:51:17 9.2 C 73 %
439 14-03-2021 01:01:17 9.2 C 73 %
440 14-03-2021 01:11:17 9.2 C 73 %
441 14-03-2021 01:21:17 9.2 C 73 %
442 14-03-2021 01:31:17 9.2 C 73 %
443 14-03-2021 01:41:17 9.1 C 73 %
444 14-03-2021 01:51:17 9.1 C 73 %
445 14-03-2021 02:01:18 9.1 C 73 %
446 14-03-2021 02:11:18 9.1 C 73 %
447 14-03-2021 02:21:17 9.1 C 73 %
448 14-03-2021 02:31:17 9.1 C 73 %
449 14-03-2021 02:41:17 9.1 C 73 %
450 14-03-2021 02:51:18 9.1 C 73 %
Sensor: Nr:Datum:Temp:Feuchte:
G-T/H 451 14-03-2021 03:01:17 9.1 C 73 %
452 14-03-2021 03:11:17 9.1 C 73 %
453 14-03-2021 03:21:18 9 C 73 %
454 14-03-2021 03:31:18 9 C 73 %
455 14-03-2021 03:41:18 9 C 73 %
456 14-03-2021 03:51:18 9 C 73 %
457 14-03-2021 04:01:17 9 C 73 %
458 14-03-2021 04:11:17 9 C 73 %
459 14-03-2021 04:21:18 9 C 73 %
460 14-03-2021 04:31:18 9 C 73 %
461 14-03-2021 04:41:18 9 C 73 %
462 14-03-2021 04:51:18 9 C 73 %
463 14-03-2021 05:01:17 8.9 C 74 %
464 14-03-2021 05:11:17 8.9 C 74 %
465 14-03-2021 05:21:17 8.9 C 74 %
466 14-03-2021 05:31:18 8.9 C 74 %
467 14-03-2021 05:41:18 8.9 C 74 %
468 14-03-2021 05:51:18 8.9 C 74 %
469 14-03-2021 06:01:17 8.9 C 74 %
470 14-03-2021 06:11:17 8.9 C 74 %
471 14-03-2021 06:21:17 8.9 C 74 %
472 14-03-2021 06:31:18 8.8 C 74 %
473 14-03-2021 06:41:18 8.8 C 74 %
474 14-03-2021 06:51:18 8.8 C 74 %
475 14-03-2021 07:01:17 8.8 C 73 %
Sensor: Nr:Datum:Temp:Feuchte:
G-T/H 476 14-03-2021 07:11:17 8.8 C 73 %
477 14-03-2021 07:21:18 8.7 C 73 %
478 14-03-2021 07:31:17 8.7 C 73 %
479 14-03-2021 07:41:18 8.7 C 73 %
480 14-03-2021 07:51:18 8.7 C 73 %
481 14-03-2021 08:01:18 8.7 C 73 %
482 14-03-2021 08:11:18 8.7 C 73 %
483 14-03-2021 08:21:17 8.7 C 73 %
484 14-03-2021 08:31:18 8.7 C 73 %
485 14-03-2021 08:41:18 8.7 C 73 %
486 14-03-2021 08:51:18 8.7 C 73 %
487 14-03-2021 09:01:18 8.7 C 73 %
488 14-03-2021 09:11:18 8.7 C 73 %
489 14-03-2021 09:21:17 8.7 C 74 %
490 14-03-2021 09:31:18 8.7 C 74 %
491 14-03-2021 09:41:18 8.7 C 74 %
492 14-03-2021 09:51:17 8.7 C 74 %
493 14-03-2021 10:01:17 8.7 C 74 %
494 14-03-2021 10:11:17 8.7 C 74 %
495 14-03-2021 10:21:18 8.7 C 74 %
496 14-03-2021 10:31:17 8.7 C 74 %
497 14-03-2021 10:41:17 8.7 C 74 %
498 14-03-2021 10:51:17 8.7 C 74 %
499 14-03-2021 11:01:18 8.7 C 74 %
500 14-03-2021 11:11:18 8.7 C 74 %
Sensor: Nr:Datum:Temp:Feuchte:
G-T/H 501 14-03-2021 11:21:18 8.7 C 74 %
502 14-03-2021 11:31:18 8.6 C 74 %
503 14-03-2021 11:41:18 8.7 C 74 %
504 14-03-2021 11:51:18 8.7 C 74 %
505 14-03-2021 12:01:17 8.7 C 74 %
506 14-03-2021 12:11:17 8.7 C 74 %
507 14-03-2021 12:21:18 8.7 C 74 %
508 14-03-2021 12:31:18 8.7 C 74 %
509 14-03-2021 12:41:18 8.7 C 74 %
510 14-03-2021 12:51:18 8.7 C 74 %
511 14-03-2021 13:01:17 8.8 C 74 %
512 14-03-2021 13:11:18 8.7 C 74 %
513 14-03-2021 13:21:17 8.7 C 74 %
514 14-03-2021 13:31:17 8.7 C 74 %
515 14-03-2021 13:41:18 8.7 C 74 %
516 14-03-2021 13:51:18 8.7 C 74 %
517 14-03-2021 14:01:18 8.7 C 74 %
518 14-03-2021 14:11:18 8.7 C 74 %
519 14-03-2021 14:21:18 8.7 C 74 %
520 14-03-2021 14:31:18 8.7 C 74 %
521 14-03-2021 14:41:18 8.7 C 74 %
522 14-03-2021 14:51:17 8.8 C 74 %
523 14-03-2021 15:01:17 8.8 C 74 %
524 14-03-2021 15:11:17 8.8 C 74 %
525 14-03-2021 15:21:18 8.8 C 74 %
Sensor: Nr:Datum:Temp:Feuchte:
G-T/H 526 14-03-2021 15:31:18 8.8 C 74 %
527 14-03-2021 15:41:18 8.8 C 74 %
528 14-03-2021 15:51:17 8.8 C 74 %
529 14-03-2021 16:01:17 8.9 C 74 %
530 14-03-2021 16:11:17 8.9 C 74 %
531 14-03-2021 16:21:17 8.9 C 74 %
532 14-03-2021 16:31:18 8.8 C 74 %
533 14-03-2021 16:41:18 8.8 C 74 %
534 14-03-2021 16:51:18 8.9 C 74 %
535 14-03-2021 17:01:17 8.9 C 74 %
536 14-03-2021 17:11:17 8.8 C 74 %
537 14-03-2021 17:21:18 8.8 C 74 %
538 14-03-2021 17:31:18 8.8 C 75 %
539 14-03-2021 17:41:18 8.7 C 74 %
540 14-03-2021 17:51:18 8.7 C 74 %
541 14-03-2021 18:01:17 8.8 C 74 %
542 14-03-2021 18:11:17 8.8 C 74 %
543 14-03-2021 18:21:18 8.8 C 74 %
544 14-03-2021 18:31:17 8.9 C 74 %
545 14-03-2021 18:41:18 8.8 C 74 %
546 14-03-2021 18:51:18 8.9 C 74 %
547 14-03-2021 19:01:18 8.8 C 74 %
548 14-03-2021 19:11:18 8.9 C 74 %
549 14-03-2021 19:21:17 8.8 C 74 %
550 14-03-2021 19:31:18 8.9 C 74 %
Sensor: Nr:Datum:Temp:Feuchte:
G-T/H 551 14-03-2021 19:41:18 8.8 C 74 %
552 14-03-2021 19:51:17 8.9 C 74 %
553 14-03-2021 20:01:18 8.8 C 74 %
554 14-03-2021 20:11:18 8.9 C 74 %
555 14-03-2021 20:21:18 8.8 C 74 %
556 14-03-2021 20:31:17 8.8 C 74 %
557 14-03-2021 20:41:18 8.9 C 74 %
558 14-03-2021 20:51:18 8.9 C 74 %
559 14-03-2021 21:01:17 8.9 C 74 %
560 14-03-2021 21:11:17 8.9 C 74 %
561 14-03-2021 21:21:17 8.9 C 74 %
562 14-03-2021 21:31:17 8.8 C 74 %
563 14-03-2021 21:41:17 8.8 C 75 %
564 14-03-2021 21:51:18 8.8 C 75 %
565 14-03-2021 22:01:17 8.9 C 75 %
566 14-03-2021 22:11:17 8.8 C 75 %
567 14-03-2021 22:21:17 8.8 C 75 %
568 14-03-2021 22:31:17 8.8 C 75 %
569 14-03-2021 22:41:17 8.8 C 75 %
570 14-03-2021 22:51:18 8.8 C 75 %
571 14-03-2021 23:01:17 8.8 C 75 %
572 14-03-2021 23:11:17 8.8 C 75 %
573 14-03-2021 23:21:18 8.8 C 75 %
574 14-03-2021 23:31:18 8.8 C 75 %
575 14-03-2021 23:41:18 8.8 C 75 %
Sensor: Nr:Datum:Temp:Feuchte:
G-T/H 576 14-03-2021 23:51:17 8.8 C 75 %
577 15-03-2021 00:01:18 8.8 C 75 %
578 15-03-2021 00:11:18 8.8 C 75 %
579 15-03-2021 00:21:17 8.7 C 74 %
580 15-03-2021 00:31:18 8.7 C 74 %
581 15-03-2021 00:41:18 8.7 C 74 %
582 15-03-2021 00:51:17 8.7 C 74 %
583 15-03-2021 01:01:17 8.7 C 74 %
584 15-03-2021 01:11:17 8.7 C 74 %
585 15-03-2021 01:21:18 8.7 C 74 %
586 15-03-2021 01:31:17 8.7 C 74 %
587 15-03-2021 01:41:17 8.7 C 74 %
588 15-03-2021 01:51:17 8.7 C 74 %
589 15-03-2021 02:01:17 8.7 C 74 %
590 15-03-2021 02:11:17 8.7 C 74 %
591 15-03-2021 02:21:17 8.7 C 74 %
592 15-03-2021 02:31:18 8.7 C 74 %
593 15-03-2021 02:41:18 8.7 C 74 %
594 15-03-2021 02:51:18 8.7 C 74 %
595 15-03-2021 03:01:18 8.7 C 74 %
596 15-03-2021 03:11:18 8.7 C 74 %
597 15-03-2021 03:21:18 8.7 C 74 %
598 15-03-2021 03:31:18 8.7 C 74 %
599 15-03-2021 03:41:18 8.6 C 74 %
600 15-03-2021 03:51:18 8.6 C 74 %
Sensor: Nr:Datum:Temp:Feuchte:
G-T/H 601 15-03-2021 04:01:17 8.6 C 74 %
602 15-03-2021 04:11:17 8.6 C 74 %
603 15-03-2021 04:21:18 8.6 C 74 %
604 15-03-2021 04:31:17 8.6 C 74 %
605 15-03-2021 04:41:17 8.6 C 74 %
606 15-03-2021 04:51:17 8.6 C 74 %
607 15-03-2021 05:01:17 8.6 C 74 %
608 15-03-2021 05:11:17 8.6 C 74 %
609 15-03-2021 05:21:17 8.6 C 74 %
610 15-03-2021 05:31:17 8.6 C 74 %
611 15-03-2021 05:41:18 8.6 C 74 %
612 15-03-2021 05:51:17 8.6 C 74 %
613 15-03-2021 06:01:17 8.6 C 74 %
614 15-03-2021 06:11:17 8.6 C 74 %
615 15-03-2021 06:21:18 8.6 C 74 %
616 15-03-2021 06:31:17 8.6 C 74 %
617 15-03-2021 06:41:17 8.6 C 74 %
618 15-03-2021 06:51:17 8.6 C 74 %
619 15-03-2021 07:01:17 8.5 C 74 %
620 15-03-2021 07:11:17 8.6 C 74 %
621 15-03-2021 07:21:17 8.6 C 74 %
622 15-03-2021 07:31:17 8.6 C 74 %
623 15-03-2021 07:41:17 8.5 C 74 %
624 15-03-2021 07:51:17 8.5 C 74 %
625 15-03-2021 08:01:18 8.6 C 75 %
Sensor: Nr:Datum:Temp:Feuchte:
G-T/H 626 15-03-2021 08:11:18 8.6 C 75 %
627 15-03-2021 08:21:17 8.5 C 75 %
628 15-03-2021 08:31:17 8.5 C 75 %
629 15-03-2021 08:41:17 8.6 C 75 %
630 15-03-2021 08:51:18 8.5 C 75 %
631 15-03-2021 09:01:17 8.5 C 75 %
632 15-03-2021 09:11:17 8.5 C 75 %
633 15-03-2021 09:21:17 8.5 C 75 %
634 15-03-2021 09:31:18 8.5 C 75 %
635 15-03-2021 09:41:18 8.5 C 75 %
636 15-03-2021 09:51:17 8.6 C 75 %
637 15-03-2021 10:01:17 8.5 C 75 %
638 15-03-2021 10:11:17 8.6 C 75 %
639 15-03-2021 10:21:18 8.5 C 75 %
640 15-03-2021 10:31:17 8.6 C 75 %
641 15-03-2021 10:41:17 8.6 C 75 %
642 15-03-2021 10:51:17 8.6 C 75 %
643 15-03-2021 11:01:17 8.6 C 75 %
644 15-03-2021 11:11:17 8.6 C 75 %
645 15-03-2021 11:21:17 8.6 C 75 %
646 15-03-2021 11:31:17 8.6 C 75 %
647 15-03-2021 11:41:17 8.6 C 75 %
648 15-03-2021 11:51:17 8.6 C 75 %
649 15-03-2021 12:01:17 8.6 C 75 %
650 15-03-2021 12:11:17 8.6 C 75 %
Sensor: Nr:Datum:Temp:Feuchte:
G-T/H 651 15-03-2021 12:21:17 8.6 C 75 %
652 15-03-2021 12:31:17 8.6 C 75 %
653 15-03-2021 12:41:18 8.6 C 75 %
654 15-03-2021 12:51:18 8.6 C 75 %
655 15-03-2021 13:01:17 8.6 C 75 %
656 15-03-2021 13:11:17 8.6 C 75 %
657 15-03-2021 13:21:18 8.7 C 75 %
658 15-03-2021 13:31:18 8.7 C 75 %
659 15-03-2021 13:41:18 8.6 C 75 %
660 15-03-2021 13:51:18 8.7 C 74 %
661 15-03-2021 14:01:17 8.6 C 74 %
662 15-03-2021 14:11:17 8.6 C 74 %
663 15-03-2021 14:21:17 8.6 C 74 %
664 15-03-2021 14:31:17 8.6 C 74 %
665 15-03-2021 14:41:17 8.6 C 74 %
666 15-03-2021 14:51:18 8.6 C 74 %
667 15-03-2021 15:01:18 8.7 C 74 %
668 15-03-2021 15:11:18 8.6 C 74 %
669 15-03-2021 15:21:17 8.6 C 74 %
670 15-03-2021 15:31:17 8.7 C 74 %
671 15-03-2021 15:41:17 8.7 C 74 %
672 15-03-2021 15:51:17 8.7 C 74 %
673 15-03-2021 16:01:17 8.7 C 74 %
674 15-03-2021 16:11:17 8.7 C 74 %
675 15-03-2021 16:21:18 8.7 C 74 %
Sensor: Nr:Datum:Temp:Feuchte:
G-T/H 676 15-03-2021 16:31:17 8.7 C 74 %
677 15-03-2021 16:41:17 8.7 C 74 %
678 15-03-2021 16:51:17 8.7 C 74 %
679 15-03-2021 17:01:17 8.7 C 74 %
680 15-03-2021 17:11:18 8.8 C 74 %
681 15-03-2021 17:21:17 8.8 C 74 %
682 15-03-2021 17:31:17 8.8 C 74 %
683 15-03-2021 17:41:17 8.7 C 74 %
684 15-03-2021 17:51:18 8.8 C 74 %
685 15-03-2021 18:01:17 8.8 C 74 %
686 15-03-2021 18:11:17 8.8 C 74 %
687 15-03-2021 18:21:18 8.8 C 74 %
688 15-03-2021 18:31:17 8.8 C 74 %
689 15-03-2021 18:41:17 8.8 C 74 %
690 15-03-2021 18:51:17 8.8 C 74 %
691 15-03-2021 19:01:18 8.8 C 74 %
692 15-03-2021 19:11:18 8.8 C 74 %
693 15-03-2021 19:21:17 8.8 C 74 %
694 15-03-2021 19:31:17 8.8 C 74 %
695 15-03-2021 19:41:17 8.8 C 74 %
696 15-03-2021 19:51:18 8.8 C 75 %
697 15-03-2021 20:01:17 8.8 C 75 %
698 15-03-2021 20:11:17 8.8 C 75 %
699 15-03-2021 20:21:18 8.8 C 75 %
700 15-03-2021 20:31:17 8.8 C 75 %
Sensor: Nr:Datum:Temp:Feuchte:
G-T/H 701 15-03-2021 20:41:18 8.8 C 75 %
702 15-03-2021 20:51:17 8.8 C 75 %
703 15-03-2021 21:01:18 8.8 C 75 %
704 15-03-2021 21:11:18 8.8 C 75 %
705 15-03-2021 21:21:17 8.8 C 75 %
706 15-03-2021 21:31:17 8.8 C 75 %
707 15-03-2021 21:41:17 8.8 C 75 %
708 15-03-2021 21:51:17 8.8 C 75 %
709 15-03-2021 22:01:17 8.8 C 75 %
710 15-03-2021 22:11:18 8.8 C 75 %
711 15-03-2021 22:21:17 8.8 C 75 %
712 15-03-2021 22:31:17 8.8 C 75 %
713 15-03-2021 22:41:17 8.8 C 75 %
714 15-03-2021 22:51:18 8.8 C 75 %
715 15-03-2021 23:01:17 8.7 C 75 %
716 15-03-2021 23:11:17 8.8 C 75 %
717 15-03-2021 23:21:18 8.7 C 75 %
718 15-03-2021 23:31:17 8.7 C 74 %
719 15-03-2021 23:41:17 8.7 C 74 %
720 15-03-2021 23:51:18 8.7 C 74 %
721 16-03-2021 00:01:17 8.7 C 74 %
722 16-03-2021 00:11:17 8.7 C 74 %
723 16-03-2021 00:21:17 8.7 C 74 %
724 16-03-2021 00:31:17 8.7 C 74 %
725 16-03-2021 00:41:17 8.7 C 74 %
Sensor: Nr:Datum:Temp:Feuchte:
G-T/H 726 16-03-2021 00:51:17 8.7 C 74 %
727 16-03-2021 01:01:18 8.7 C 74 %
728 16-03-2021 01:11:18 8.7 C 74 %
729 16-03-2021 01:21:18 8.7 C 74 %
730 16-03-2021 01:31:18 8.7 C 74 %
731 16-03-2021 01:41:18 8.7 C 74 %
732 16-03-2021 01:51:17 8.7 C 74 %
733 16-03-2021 02:01:18 8.7 C 74 %
734 16-03-2021 02:11:18 8.7 C 74 %
735 16-03-2021 02:21:18 8.7 C 74 %
736 16-03-2021 02:31:17 8.7 C 74 %
737 16-03-2021 02:41:17 8.7 C 74 %
738 16-03-2021 02:51:18 8.7 C 74 %
739 16-03-2021 03:01:17 8.7 C 74 %
740 16-03-2021 03:11:17 8.7 C 74 %
741 16-03-2021 03:21:17 8.6 C 74 %
742 16-03-2021 03:31:18 8.6 C 74 %
743 16-03-2021 03:41:18 8.6 C 74 %
744 16-03-2021 03:51:17 8.6 C 74 %
745 16-03-2021 04:01:18 8.6 C 74 %
746 16-03-2021 04:11:18 8.6 C 74 %
747 16-03-2021 04:21:17 8.6 C 74 %
748 16-03-2021 04:31:18 8.6 C 74 %
749 16-03-2021 04:41:18 8.6 C 74 %
750 16-03-2021 04:51:17 8.7 C 74 %
Sensor: Nr:Datum:Temp:Feuchte:
G-T/H 751 16-03-2021 05:01:18 8.6 C 74 %
752 16-03-2021 05:11:18 8.6 C 74 %
753 16-03-2021 05:21:17 8.6 C 74 %
754 16-03-2021 05:31:18 8.6 C 74 %
755 16-03-2021 05:41:18 8.6 C 74 %
756 16-03-2021 05:51:17 8.6 C 74 %
757 16-03-2021 06:01:17 8.6 C 74 %
758 16-03-2021 06:11:17 8.6 C 74 %
759 16-03-2021 06:21:18 8.6 C 74 %
760 16-03-2021 06:31:17 8.6 C 74 %
761 16-03-2021 06:41:17 8.6 C 74 %
762 16-03-2021 06:51:17 8.6 C 74 %
763 16-03-2021 07:01:17 8.6 C 74 %
764 16-03-2021 07:11:17 8.6 C 74 %
765 16-03-2021 07:21:17 8.6 C 74 %
766 16-03-2021 07:31:17 8.6 C 74 %
767 16-03-2021 07:41:17 8.6 C 74 %
768 16-03-2021 07:51:17 8.6 C 74 %
769 16-03-2021 08:01:18 8.6 C 74 %
770 16-03-2021 08:11:18 8.6 C 74 %
771 16-03-2021 08:21:18 8.6 C 74 %
772 16-03-2021 08:31:17 8.6 C 74 %
773 16-03-2021 08:41:17 8.6 C 74 %
774 16-03-2021 08:51:18 8.6 C 74 %
775 16-03-2021 09:01:17 8.6 C 74 %
Sensor: Nr:Datum:Temp:Feuchte:
G-T/H 776 16-03-2021 09:11:17 8.6 C 74 %
777 16-03-2021 09:21:17 8.6 C 74 %
778 16-03-2021 09:31:17 8.6 C 74 %
779 16-03-2021 09:41:17 8.6 C 74 %
780 16-03-2021 09:51:18 8.6 C 74 %
781 16-03-2021 10:01:18 8.6 C 74 %
782 16-03-2021 10:11:18 8.6 C 74 %
783 16-03-2021 10:21:17 8.6 C 74 %
784 16-03-2021 10:31:18 8.6 C 74 %
785 16-03-2021 10:41:18 8.6 C 74 %
786 16-03-2021 10:51:18 8.6 C 74 %
787 16-03-2021 11:01:17 8.6 C 74 %
788 16-03-2021 11:11:17 8.6 C 74 %
789 16-03-2021 11:21:17 8.6 C 74 %
790 16-03-2021 11:31:17 8.6 C 74 %
791 16-03-2021 11:41:17 8.6 C 74 %
792 16-03-2021 11:51:17 8.6 C 74 %
793 16-03-2021 12:01:17 8.6 C 74 %
794 16-03-2021 12:11:17 8.6 C 74 %
795 16-03-2021 12:21:17 8.6 C 74 %
796 16-03-2021 12:31:17 8.6 C 74 %
797 16-03-2021 12:41:17 8.6 C 74 %
798 16-03-2021 12:51:17 8.6 C 74 %
799 16-03-2021 13:01:18 8.7 C 74 %
800 16-03-2021 13:11:18 8.7 C 74 %
Sensor: Nr:Datum:Temp:Feuchte:
G-T/H 801 16-03-2021 13:21:17 8.7 C 74 %
802 16-03-2021 13:31:17 8.7 C 74 %
803 16-03-2021 13:41:17 8.7 C 74 %
804 16-03-2021 13:51:17 8.7 C 74 %
805 16-03-2021 14:01:18 8.7 C 74 %
806 16-03-2021 14:11:18 8.7 C 74 %
807 16-03-2021 14:21:17 8.7 C 74 %
808 16-03-2021 14:31:17 8.7 C 74 %
809 16-03-2021 14:41:17 8.7 C 74 %
810 16-03-2021 14:51:17 8.8 C 74 %
811 16-03-2021 15:01:17 8.8 C 74 %
812 16-03-2021 15:11:17 8.7 C 74 %
813 16-03-2021 15:21:18 8.8 C 74 %
814 16-03-2021 15:31:18 8.8 C 74 %
815 16-03-2021 15:41:18 8.8 C 74 %
816 16-03-2021 15:51:17 8.8 C 74 %
817 16-03-2021 16:01:17 8.8 C 74 %
818 16-03-2021 16:11:17 8.8 C 74 %
819 16-03-2021 16:21:17 8.8 C 74 %
820 16-03-2021 16:31:17 8.8 C 74 %
821 16-03-2021 16:41:17 8.9 C 74 %
822 16-03-2021 16:51:17 8.9 C 74 %
823 16-03-2021 17:01:17 8.9 C 74 %
824 16-03-2021 17:11:17 8.9 C 74 %
825 16-03-2021 17:21:17 8.9 C 74 %
Sensor: Nr:Datum:Temp:Feuchte:
G-T/H 826 16-03-2021 17:31:17 8.9 C 74 %
827 16-03-2021 17:41:17 8.9 C 75 %
828 16-03-2021 17:51:17 8.9 C 75 %
829 16-03-2021 18:01:18 8.9 C 75 %
830 16-03-2021 18:11:18 8.9 C 75 %
831 16-03-2021 18:21:17 8.9 C 75 %
832 16-03-2021 18:31:18 8.9 C 75 %
833 16-03-2021 18:41:18 8.9 C 75 %
834 16-03-2021 18:51:17 8.9 C 75 %
835 16-03-2021 19:01:17 8.9 C 75 %
836 16-03-2021 19:11:17 8.9 C 75 %
837 16-03-2021 19:21:18 8.9 C 75 %
838 16-03-2021 19:31:18 8.9 C 75 %
839 16-03-2021 19:41:18 8.9 C 75 %
840 16-03-2021 19:51:17 8.9 C 75 %
841 16-03-2021 20:01:18 8.9 C 75 %
842 16-03-2021 20:11:18 8.9 C 75 %
843 16-03-2021 20:21:17 8.9 C 75 %
844 16-03-2021 20:31:17 9 C 74 %
845 16-03-2021 20:41:17 9 C 74 %
846 16-03-2021 20:51:17 9 C 74 %
847 16-03-2021 21:01:17 8.9 C 75 %
848 16-03-2021 21:11:17 8.9 C 75 %
849 16-03-2021 21:21:17 8.9 C 75 %
850 16-03-2021 21:31:18 8.9 C 75 %
Sensor: Nr:Datum:Temp:Feuchte:
G-T/H 851 16-03-2021 21:41:18 8.9 C 75 %
852 16-03-2021 21:51:18 9 C 74 %
853 16-03-2021 22:01:17 9 C 74 %
854 16-03-2021 22:11:17 8.9 C 75 %
855 16-03-2021 22:21:18 9 C 74 %
856 16-03-2021 22:31:17 8.9 C 75 %
857 16-03-2021 22:41:17 8.9 C 75 %
858 16-03-2021 22:51:18 8.9 C 75 %
859 16-03-2021 23:01:17 8.9 C 75 %
860 16-03-2021 23:11:17 8.9 C 75 %
861 16-03-2021 23:21:17 8.9 C 75 %
862 16-03-2021 23:31:17 8.9 C 75 %
863 16-03-2021 23:41:17 9 C 74 %
864 16-03-2021 23:51:18 8.9 C 75 %
865 17-03-2021 00:01:17 9 C 74 %
866 17-03-2021 00:11:17 8.9 C 75 %
867 17-03-2021 00:21:18 8.9 C 75 %
868 17-03-2021 00:31:18 9 C 74 %
869 17-03-2021 00:41:18 9 C 74 %
870 17-03-2021 00:51:18 9 C 74 %
871 17-03-2021 01:01:17 9 C 74 %
872 17-03-2021 01:11:17 8.9 C 75 %
873 17-03-2021 01:21:17 8.9 C 75 %
874 17-03-2021 01:31:18 8.9 C 75 %
875 17-03-2021 01:41:18 8.9 C 75 %
Sensor: Nr:Datum:Temp:Feuchte:
G-T/H 876 17-03-2021 01:51:17 8.9 C 75 %
877 17-03-2021 02:01:17 8.9 C 75 %
878 17-03-2021 02:11:17 8.9 C 75 %
879 17-03-2021 02:21:17 8.9 C 75 %
880 17-03-2021 02:31:18 8.9 C 75 %
881 17-03-2021 02:41:18 8.9 C 75 %
882 17-03-2021 02:51:17 8.9 C 75 %
883 17-03-2021 03:01:17 8.9 C 75 %
884 17-03-2021 03:11:17 8.9 C 75 %
885 17-03-2021 03:21:17 8.9 C 75 %
886 17-03-2021 03:31:18 8.9 C 75 %
887 17-03-2021 03:41:18 8.9 C 75 %
888 17-03-2021 03:51:17 8.9 C 75 %
889 17-03-2021 04:01:18 8.9 C 75 %
890 17-03-2021 04:11:18 8.9 C 75 %
891 17-03-2021 04:21:18 8.9 C 75 %
892 17-03-2021 04:31:18 8.9 C 75 %
893 17-03-2021 04:41:18 8.9 C 75 %
894 17-03-2021 04:51:18 8.9 C 75 %
895 17-03-2021 05:01:17 8.9 C 75 %
896 17-03-2021 05:11:17 8.9 C 75 %
897 17-03-2021 05:21:18 8.9 C 75 %
898 17-03-2021 05:31:18 8.9 C 75 %
899 17-03-2021 05:41:18 8.9 C 75 %
900 17-03-2021 05:51:17 8.9 C 75 %
Sensor: Nr:Datum:Temp:Feuchte:
G-T/H 901 17-03-2021 06:01:17 8.9 C 75 %
902 17-03-2021 06:11:17 8.9 C 75 %
903 17-03-2021 06:21:17 8.9 C 75 %
904 17-03-2021 06:31:17 8.9 C 75 %
905 17-03-2021 06:41:18 8.9 C 75 %
906 17-03-2021 06:51:17 8.8 C 75 %
907 17-03-2021 07:01:18 8.8 C 75 %
908 17-03-2021 07:11:18 8.8 C 75 %
909 17-03-2021 07:21:17 8.8 C 75 %
910 17-03-2021 07:31:18 8.8 C 75 %
911 17-03-2021 07:41:18 8.8 C 75 %
912 17-03-2021 07:51:17 8.8 C 75 %
913 17-03-2021 08:01:17 8.8 C 75 %
914 17-03-2021 08:11:17 8.8 C 75 %
915 17-03-2021 08:21:18 8.8 C 74 %
916 17-03-2021 08:31:18 8.8 C 74 %
917 17-03-2021 08:41:18 8.8 C 74 %
918 17-03-2021 08:51:17 8.8 C 74 %
919 17-03-2021 09:01:17 8.8 C 74 %
920 17-03-2021 09:11:17 8.8 C 74 %
921 17-03-2021 09:21:17 8.8 C 74 %
922 17-03-2021 09:31:17 8.8 C 74 %
923 17-03-2021 09:41:17 8.8 C 74 %
924 17-03-2021 09:51:18 8.8 C 74 %
925 17-03-2021 10:01:17 8.8 C 74 %
Sensor: Nr:Datum:Temp:Feuchte:
G-T/H 926 17-03-2021 10:11:17 8.8 C 74 %
927 17-03-2021 10:21:17 8.8 C 74 %
928 17-03-2021 10:31:18 8.8 C 74 %
929 17-03-2021 10:41:18 8.8 C 74 %
930 17-03-2021 10:51:18 8.8 C 74 %
931 17-03-2021 11:01:17 8.8 C 74 %
932 17-03-2021 11:11:17 8.8 C 74 %
933 17-03-2021 11:21:18 8.8 C 74 %
934 17-03-2021 11:31:17 8.8 C 74 %
935 17-03-2021 11:41:17 8.8 C 74 %
936 17-03-2021 11:51:17 8.8 C 74 %
937 17-03-2021 12:01:17 8.8 C 74 %
938 17-03-2021 12:11:17 8.8 C 74 %
939 17-03-2021 12:21:17 8.8 C 74 %
940 17-03-2021 12:31:17 8.8 C 74 %
941 17-03-2021 12:41:18 8.8 C 74 %
942 17-03-2021 12:51:18 8.8 C 74 %
943 17-03-2021 13:01:17 8.8 C 74 %
944 17-03-2021 13:11:17 8.8 C 74 %
945 17-03-2021 13:21:17 8.8 C 74 %
946 17-03-2021 13:31:18 8.8 C 74 %
947 17-03-2021 13:41:18 8.8 C 74 %
948 17-03-2021 13:51:17 8.8 C 74 %
949 17-03-2021 14:01:17 8.8 C 74 %
950 17-03-2021 14:11:18 8.9 C 74 %
Sensor: Nr:Datum:Temp:Feuchte:
G-T/H 951 17-03-2021 14:21:17 8.9 C 73 %
952 17-03-2021 14:31:17 8.9 C 73 %
953 17-03-2021 14:41:17 8.8 C 73 %
954 17-03-2021 14:51:18 8.8 C 73 %
955 17-03-2021 15:01:17 8.8 C 73 %
956 17-03-2021 15:11:17 8.8 C 73 %
957 17-03-2021 15:21:18 8.8 C 73 %
958 17-03-2021 15:31:17 8.8 C 73 %
959 17-03-2021 15:41:17 8.9 C 73 %
960 17-03-2021 15:51:18 8.9 C 73 %
961 17-03-2021 16:01:18 8.9 C 73 %
962 17-03-2021 16:11:18 8.9 C 73 %
963 17-03-2021 16:21:18 8.9 C 73 %
964 17-03-2021 16:31:18 8.9 C 73 %
965 17-03-2021 16:41:18 8.9 C 73 %
966 17-03-2021 16:51:18 8.9 C 73 %
967 17-03-2021 17:01:17 8.9 C 73 %
968 17-03-2021 17:11:17 8.9 C 73 %
969 17-03-2021 17:21:17 8.9 C 73 %
970 17-03-2021 17:31:18 8.9 C 73 %
971 17-03-2021 17:41:18 8.9 C 73 %
972 17-03-2021 17:51:17 8.9 C 73 %
973 17-03-2021 18:01:17 8.9 C 72 %
974 17-03-2021 18:11:17 8.9 C 72 %
975 17-03-2021 18:21:18 8.9 C 72 %
Sensor: Nr:Datum:Temp:Feuchte:
G-T/H 976 17-03-2021 18:31:18 8.9 C 72 %
977 17-03-2021 18:41:18 8.9 C 72 %
978 17-03-2021 18:51:18 8.9 C 72 %
979 17-03-2021 19:01:17 8.9 C 72 %
980 17-03-2021 19:11:17 8.9 C 72 %
981 17-03-2021 19:21:18 8.9 C 72 %
982 17-03-2021 19:31:18 8.9 C 73 %
983 17-03-2021 19:41:18 8.9 C 73 %
984 17-03-2021 19:51:17 8.9 C 73 %
985 17-03-2021 20:01:18 8.9 C 73 %
986 17-03-2021 20:11:18 8.9 C 73 %
987 17-03-2021 20:21:17 8.8 C 73 %
988 17-03-2021 20:31:18 8.9 C 73 %
989 17-03-2021 20:41:18 8.9 C 73 %
990 17-03-2021 20:51:18 8.9 C 73 %
991 17-03-2021 21:01:17 8.8 C 73 %
992 17-03-2021 21:11:17 8.8 C 73 %
993 17-03-2021 21:21:18 8.8 C 73 %
994 17-03-2021 21:31:18 8.8 C 73 %
995 17-03-2021 21:41:18 8.8 C 73 %
996 17-03-2021 21:51:18 8.8 C 73 %
997 17-03-2021 22:01:17 8.8 C 73 %
998 17-03-2021 22:11:17 8.8 C 73 %
999 17-03-2021 22:21:18 8.8 C 73 %
1000 17-03-2021 22:31:17 8.8 C 73 %
Sensor: Nr:Datum:Temp:Feuchte:
G-T/H 1001 17-03-2021 22:41:17 8.8 C 73 %
1002 17-03-2021 22:51:17 8.8 C 73 %
1003 17-03-2021 23:01:17 8.8 C 73 %
1004 17-03-2021 23:11:17 8.8 C 73 %
1005 17-03-2021 23:21:17 8.8 C 73 %
1006 17-03-2021 23:31:18 8.8 C 73 %
1007 17-03-2021 23:41:18 8.7 C 73 %
1008 17-03-2021 23:51:18 8.8 C 73 %
1009 18-03-2021 00:01:17 8.7 C 73 %
1010 18-03-2021 00:11:17 8.7 C 73 %
1011 18-03-2021 00:21:18 8.7 C 73 %
1012 18-03-2021 00:31:18 8.7 C 73 %
1013 18-03-2021 00:41:18 8.7 C 73 %
1014 18-03-2021 00:51:17 8.7 C 72 %
1015 18-03-2021 01:01:18 8.6 C 72 %
1016 18-03-2021 01:11:18 8.6 C 72 %
1017 18-03-2021 01:21:18 8.6 C 72 %
1018 18-03-2021 01:31:17 8.6 C 72 %
1019 18-03-2021 01:41:17 8.6 C 72 %
1020 18-03-2021 01:51:17 8.6 C 72 %
1021 18-03-2021 02:01:17 8.6 C 72 %
1022 18-03-2021 02:11:17 8.6 C 72 %
1023 18-03-2021 02:21:17 8.5 C 72 %
1024 18-03-2021 02:31:17 8.5 C 72 %
1025 18-03-2021 02:41:17 8.5 C 72 %
Sensor: Nr:Datum:Temp:Feuchte:
G-T/H 1026 18-03-2021 02:51:18 8.5 C 72 %
1027 18-03-2021 03:01:18 8.5 C 72 %
1028 18-03-2021 03:11:18 8.5 C 72 %
1029 18-03-2021 03:21:18 8.5 C 72 %
1030 18-03-2021 03:31:18 8.5 C 72 %
1031 18-03-2021 03:41:18 8.5 C 72 %
1032 18-03-2021 03:51:18 8.4 C 72 %
1033 18-03-2021 04:01:17 8.4 C 72 %
1034 18-03-2021 04:11:18 8.4 C 71 %
1035 18-03-2021 04:21:17 8.4 C 71 %
1036 18-03-2021 04:31:18 8.4 C 71 %
1037 18-03-2021 04:41:18 8.3 C 71 %
1038 18-03-2021 04:51:18 8.3 C 71 %
1039 18-03-2021 05:01:18 8.3 C 71 %
1040 18-03-2021 05:11:18 8.3 C 71 %
1041 18-03-2021 05:21:17 8.2 C 71 %
1042 18-03-2021 05:31:17 8.3 C 71 %
1043 18-03-2021 05:41:17 8.2 C 71 %
1044 18-03-2021 05:51:18 8.2 C 71 %
1045 18-03-2021 06:01:18 8.2 C 71 %
1046 18-03-2021 06:11:18 8.2 C 71 %
1047 18-03-2021 06:21:18 8.2 C 71 %
1048 18-03-2021 06:31:17 8.2 C 71 %
1049 18-03-2021 06:41:17 8.2 C 71 %
1050 18-03-2021 06:51:17 8.1 C 71 %
Sensor: Nr:Datum:Temp:Feuchte:
G-T/H 1051 18-03-2021 07:01:18 8.1 C 71 %
1052 18-03-2021 07:11:18 8.2 C 71 %
1053 18-03-2021 07:21:18 8.1 C 71 %
1054 18-03-2021 07:31:17 8.1 C 71 %
1055 18-03-2021 07:41:17 8.1 C 71 %
1056 18-03-2021 07:51:17 8.1 C 71 %
1057 18-03-2021 08:01:17 8.1 C 71 %
1058 18-03-2021 08:11:17 8.1 C 71 %
1059 18-03-2021 08:21:18 8.1 C 71 %
1060 18-03-2021 08:31:18 8.1 C 71 %
1061 18-03-2021 08:41:18 8 C 71 %
1062 18-03-2021 08:51:18 8 C 71 %
1063 18-03-2021 09:01:17 8 C 71 %
1064 18-03-2021 09:11:18 8.1 C 71 %
1065 18-03-2021 09:21:18 8 C 71 %
1066 18-03-2021 09:31:18 8 C 71 %
1067 18-03-2021 09:41:18 8 C 71 %
1068 18-03-2021 09:51:18 8 C 71 %
1069 18-03-2021 10:01:17 8 C 71 %
1070 18-03-2021 10:11:17 8 C 71 %
1071 18-03-2021 10:21:18 8 C 71 %
1072 18-03-2021 10:31:17 8 C 71 %
1073 18-03-2021 10:41:17 8 C 71 %
1074 18-03-2021 10:51:17 8 C 71 %
1075 18-03-2021 11:01:18 8 C 71 %
Sensor: Nr:Datum:Temp:Feuchte:
G-T/H 1076 18-03-2021 11:11:18 8 C 71 %
1077 18-03-2021 11:21:18 8 C 71 %
1078 18-03-2021 11:31:17 8 C 71 %
1079 18-03-2021 11:41:17 8 C 71 %
1080 18-03-2021 11:51:17 8 C 71 %
1081 18-03-2021 12:01:17 8 C 71 %
1082 18-03-2021 12:11:17 8 C 72 %
1083 18-03-2021 12:21:17 8 C 72 %
1084 18-03-2021 12:31:18 8 C 72 %
1085 18-03-2021 12:41:18 8 C 72 %
1086 18-03-2021 12:51:18 8.1 C 72 %
1087 18-03-2021 13:01:18 8.1 C 72 %
1088 18-03-2021 13:11:18 8.1 C 72 %
1089 18-03-2021 13:21:17 8.1 C 72 %
1090 18-03-2021 13:31:17 8.1 C 72 %
1091 18-03-2021 13:41:17 8.1 C 72 %
1092 18-03-2021 13:51:17 8.1 C 72 %
1093 18-03-2021 14:01:17 8.1 C 72 %
1094 18-03-2021 14:11:17 8.1 C 72 %
1095 18-03-2021 14:21:17 8.1 C 72 %
1096 18-03-2021 14:31:18 8.1 C 72 %
1097 18-03-2021 14:41:18 8.1 C 72 %
1098 18-03-2021 14:51:17 8.1 C 72 %
1099 18-03-2021 15:01:18 8.2 C 72 %
1100 18-03-2021 15:11:18 8.2 C 72 %
Sensor: Nr:Datum:Temp:Feuchte:
G-T/H 1101 18-03-2021 15:21:17 8.2 C 72 %
1102 18-03-2021 15:31:17 8.2 C 72 %
1103 18-03-2021 15:41:17 8.2 C 72 %
1104 18-03-2021 15:51:18 8.2 C 72 %
1105 18-03-2021 16:01:17 8.2 C 72 %
1106 18-03-2021 16:11:17 8.2 C 72 %
1107 18-03-2021 16:21:18 8.2 C 72 %
1108 18-03-2021 16:31:17 8.2 C 72 %
1109 18-03-2021 16:41:18 8.2 C 72 %
1110 18-03-2021 16:51:17 8.2 C 72 %
1111 18-03-2021 17:01:17 8.2 C 72 %
1112 18-03-2021 17:11:17 8.2 C 72 %
1113 18-03-2021 17:21:18 8.3 C 72 %
1114 18-03-2021 17:31:17 8.3 C 72 %
1115 18-03-2021 17:41:17 8.3 C 72 %
1116 18-03-2021 17:51:17 8.3 C 72 %
1117 18-03-2021 18:01:17 8.3 C 72 %
1118 18-03-2021 18:11:17 8.3 C 72 %
1119 18-03-2021 18:21:17 8.3 C 72 %
1120 18-03-2021 18:31:18 8.3 C 72 %
1121 18-03-2021 18:41:18 8.3 C 72 %
1122 18-03-2021 18:51:17 8.4 C 72 %
1123 18-03-2021 19:01:17 8.3 C 72 %
1124 18-03-2021 19:11:17 8.4 C 72 %
1125 18-03-2021 19:21:17 8.4 C 72 %
Sensor: Nr:Datum:Temp:Feuchte:
G-T/H 1126 18-03-2021 19:31:17 8.4 C 72 %
1127 18-03-2021 19:41:18 8.4 C 72 %
1128 18-03-2021 19:51:17 8.4 C 72 %
1129 18-03-2021 20:01:17 8.4 C 73 %
1130 18-03-2021 20:11:17 8.4 C 73 %
1131 18-03-2021 20:21:17 8.4 C 73 %
1132 18-03-2021 20:31:17 8.4 C 73 %
1133 18-03-2021 20:41:17 8.4 C 73 %
1134 18-03-2021 20:51:18 8.4 C 73 %
1135 18-03-2021 21:01:17 8.4 C 73 %
1136 18-03-2021 21:11:17 8.4 C 73 %
1137 18-03-2021 21:21:18 8.4 C 73 %
1138 18-03-2021 21:31:17 8.4 C 73 %
1139 18-03-2021 21:41:17 8.4 C 73 %
1140 18-03-2021 21:51:17 8.4 C 73 %
1141 18-03-2021 22:01:18 8.4 C 73 %
1142 18-03-2021 22:11:18 8.4 C 73 %
1143 18-03-2021 22:21:17 8.4 C 73 %
1144 18-03-2021 22:31:18 8.4 C 73 %
1145 18-03-2021 22:41:18 8.4 C 73 %
1146 18-03-2021 22:51:18 8.5 C 73 %
1147 18-03-2021 23:01:18 8.4 C 73 %
1148 18-03-2021 23:11:18 8.4 C 73 %
1149 18-03-2021 23:21:18 8.4 C 73 %
1150 18-03-2021 23:31:17 8.5 C 73 %
Sensor: Nr:Datum:Temp:Feuchte:
G-T/H 1151 18-03-2021 23:41:17 8.5 C 73 %
1152 18-03-2021 23:51:17 8.5 C 73 %
1153 19-03-2021 00:01:17 8.5 C 73 %
1154 19-03-2021 00:11:17 8.4 C 73 %
1155 19-03-2021 00:21:18 8.5 C 73 %
1156 19-03-2021 00:31:17 8.4 C 73 %
1157 19-03-2021 00:41:17 8.4 C 73 %
1158 19-03-2021 00:51:18 8.4 C 73 %
1159 19-03-2021 01:01:17 8.4 C 73 %
1160 19-03-2021 01:11:18 8.4 C 73 %
1161 19-03-2021 01:21:18 8.4 C 73 %
1162 19-03-2021 01:31:18 8.4 C 73 %
1163 19-03-2021 01:41:18 8.4 C 73 %
1164 19-03-2021 01:51:17 8.4 C 73 %
1165 19-03-2021 02:01:18 8.4 C 73 %
1166 19-03-2021 02:11:18 8.4 C 73 %
1167 19-03-2021 02:21:18 8.4 C 73 %
1168 19-03-2021 02:31:17 8.4 C 73 %
1169 19-03-2021 02:41:18 8.4 C 73 %
1170 19-03-2021 02:51:18 8.4 C 73 %
1171 19-03-2021 03:01:17 8.4 C 73 %
1172 19-03-2021 03:11:17 8.4 C 73 %
1173 19-03-2021 03:21:18 8.4 C 73 %
1174 19-03-2021 03:31:17 8.4 C 73 %
1175 19-03-2021 03:41:17 8.4 C 73 %
Sensor: Nr:Datum:Temp:Feuchte:
G-T/H 1176 19-03-2021 03:51:18 8.4 C 73 %
1177 19-03-2021 04:01:18 8.4 C 73 %
1178 19-03-2021 04:11:18 8.4 C 73 %
1179 19-03-2021 04:21:17 8.3 C 73 %
1180 19-03-2021 04:31:17 8.3 C 73 %
1181 19-03-2021 04:41:17 8.4 C 73 %
1182 19-03-2021 04:51:17 8.3 C 73 %
1183 19-03-2021 05:01:18 8.3 C 73 %
1184 19-03-2021 05:11:18 8.3 C 73 %
1185 19-03-2021 05:21:17 8.3 C 73 %
1186 19-03-2021 05:31:17 8.3 C 73 %
1187 19-03-2021 05:41:17 8.3 C 73 %
1188 19-03-2021 05:51:17 8.3 C 73 %
1189 19-03-2021 06:01:17 8.3 C 73 %
1190 19-03-2021 06:11:17 8.2 C 73 %
1191 19-03-2021 06:21:18 8.2 C 73 %
1192 19-03-2021 06:31:17 8.2 C 73 %
1193 19-03-2021 06:41:17 8.2 C 73 %
1194 19-03-2021 06:51:18 8.2 C 73 %
1195 19-03-2021 07:01:18 8.2 C 73 %
1196 19-03-2021 07:11:18 8.2 C 72 %
1197 19-03-2021 07:21:18 8.2 C 72 %
1198 19-03-2021 07:31:17 8.2 C 72 %
1199 19-03-2021 07:41:17 8.2 C 72 %
1200 19-03-2021 07:51:17 8.2 C 72 %
Sensor: Nr:Datum:Temp:Feuchte:
G-T/H 1201 19-03-2021 08:01:17 8.2 C 72 %
1202 19-03-2021 08:11:17 8.2 C 72 %
1203 19-03-2021 08:21:17 8.2 C 72 %
1204 19-03-2021 08:31:17 8.2 C 72 %
1205 19-03-2021 08:41:17 8.2 C 72 %
1206 19-03-2021 08:51:18 8.2 C 72 %
1207 19-03-2021 09:01:17 8.2 C 72 %
1208 19-03-2021 09:11:17 8.2 C 72 %
1209 19-03-2021 09:21:17 8.2 C 72 %
1210 19-03-2021 09:31:18 8.1 C 72 %
1211 19-03-2021 09:41:18 8.1 C 72 %
1212 19-03-2021 09:51:17 8.1 C 72 %
1213 19-03-2021 10:01:18 8.1 C 72 %
1214 19-03-2021 10:11:18 8.1 C 72 %
1215 19-03-2021 10:21:17 8.1 C 72 %
1216 19-03-2021 10:31:18 8.1 C 72 %
1217 19-03-2021 10:41:18 8.1 C 72 %
1218 19-03-2021 10:51:17 8.1 C 72 %
1219 19-03-2021 11:01:17 8.1 C 72 %
1220 19-03-2021 11:11:17 8.1 C 72 %
1221 19-03-2021 11:21:17 8.1 C 72 %
1222 19-03-2021 11:31:18 8.1 C 71 %
1223 19-03-2021 11:41:18 8.1 C 71 %
1224 19-03-2021 11:51:18 8.1 C 71 %
1225 19-03-2021 12:01:17 8.1 C 71 %
Sensor: Nr:Datum:Temp:Feuchte:
G-T/H 1226 19-03-2021 12:11:17 8.1 C 71 %
1227 19-03-2021 12:21:18 8.1 C 71 %
1228 19-03-2021 12:31:17 8.1 C 70 %
1229 19-03-2021 12:41:17 8.1 C 70 %
1230 19-03-2021 12:51:17 8.1 C 70 %
1231 19-03-2021 13:01:18 8.1 C 69 %
1232 19-03-2021 13:11:18 8.1 C 69 %
1233 19-03-2021 13:21:17 8.1 C 69 %
1234 19-03-2021 13:31:17 8.1 C 69 %
1235 19-03-2021 13:41:17 8.1 C 69 %
1236 19-03-2021 13:51:17 8.2 C 69 %
1237 19-03-2021 14:01:18 8.2 C 69 %
1238 19-03-2021 14:11:18 8.2 C 68 %
1239 19-03-2021 14:21:18 8.2 C 68 %
1240 19-03-2021 14:31:18 8.2 C 68 %
1241 19-03-2021 14:41:18 8.2 C 68 %
1242 19-03-2021 14:51:17 8.2 C 68 %
1243 19-03-2021 15:01:18 8.2 C 69 %
1244 19-03-2021 15:11:18 8.2 C 69 %
1245 19-03-2021 15:21:17 8.2 C 69 %
1246 19-03-2021 15:31:17 8.2 C 68 %
1247 19-03-2021 15:41:17 8.2 C 68 %
1248 19-03-2021 15:51:17 8.2 C 68 %
1249 19-03-2021 16:01:17 8.2 C 68 %
1250 19-03-2021 16:11:17 8.2 C 68 %
Sensor: Nr:Datum:Temp:Feuchte:
G-T/H 1251 19-03-2021 16:21:18 8.2 C 68 %
1252 19-03-2021 16:31:17 8.2 C 68 %
1253 19-03-2021 16:41:17 8.2 C 68 %
1254 19-03-2021 16:51:17 8.2 C 68 %
1255 19-03-2021 17:01:18 8.2 C 68 %
1256 19-03-2021 17:11:18 8.2 C 68 %
1257 19-03-2021 17:21:17 8.3 C 68 %
1258 19-03-2021 17:31:18 8.2 C 68 %
1259 19-03-2021 17:41:18 8.3 C 68 %
1260 19-03-2021 17:51:17 8.3 C 68 %
1261 19-03-2021 18:01:17 8.3 C 68 %
1262 19-03-2021 18:11:17 8.3 C 68 %
1263 19-03-2021 18:21:17 8.3 C 68 %
1264 19-03-2021 18:31:17 8.3 C 68 %
1265 19-03-2021 18:41:17 8.3 C 68 %
1266 19-03-2021 18:51:17 8.3 C 68 %
1267 19-03-2021 19:01:17 8.3 C 68 %
1268 19-03-2021 19:11:17 8.3 C 69 %
1269 19-03-2021 19:21:18 8.3 C 69 %
1270 19-03-2021 19:31:18 8.3 C 69 %
1271 19-03-2021 19:41:18 8.4 C 69 %
1272 19-03-2021 19:51:18 8.4 C 69 %
1273 19-03-2021 20:01:18 8.3 C 69 %
1274 19-03-2021 20:11:18 8.3 C 69 %
1275 19-03-2021 20:21:18 8.3 C 69 %
Sensor: Nr:Datum:Temp:Feuchte:
G-T/H 1276 19-03-2021 20:31:18 8.3 C 69 %
1277 19-03-2021 20:41:18 8.3 C 69 %
1278 19-03-2021 20:51:17 8.3 C 69 %
1279 19-03-2021 21:01:18 8.3 C 69 %
1280 19-03-2021 21:11:18 8.3 C 70 %
1281 19-03-2021 21:21:17 8.3 C 70 %
1282 19-03-2021 21:31:17 8.3 C 70 %
1283 19-03-2021 21:41:17 8.3 C 70 %
1284 19-03-2021 21:51:17 8.3 C 70 %
1285 19-03-2021 22:01:18 8.3 C 70 %
1286 19-03-2021 22:11:18 8.3 C 70 %
1287 19-03-2021 22:21:17 8.3 C 70 %
1288 19-03-2021 22:31:18 8.3 C 70 %
1289 19-03-2021 22:41:18 8.3 C 70 %
1290 19-03-2021 22:51:17 8.2 C 70 %
1291 19-03-2021 23:01:17 8.2 C 70 %
1292 19-03-2021 23:11:17 8.2 C 70 %
1293 19-03-2021 23:21:17 8.2 C 70 %
1294 19-03-2021 23:31:18 8.2 C 70 %
1295 19-03-2021 23:41:18 8.2 C 70 %
1296 19-03-2021 23:51:17 8.2 C 70 %
1297 20-03-2021 00:01:17 8.2 C 70 %
1298 20-03-2021 00:11:17 8.2 C 70 %
1299 20-03-2021 00:21:18 8.2 C 70 %
1300 20-03-2021 00:31:18 8.2 C 70 %
Sensor: Nr:Datum:Temp:Feuchte:
G-T/H 1301 20-03-2021 00:41:18 8.2 C 70 %
1302 20-03-2021 00:51:17 8.1 C 70 %
1303 20-03-2021 01:01:17 8.1 C 70 %
1304 20-03-2021 01:11:17 8.1 C 70 %
1305 20-03-2021 01:21:18 8.1 C 70 %
1306 20-03-2021 01:31:17 8.1 C 70 %
1307 20-03-2021 01:41:17 8.1 C 70 %
1308 20-03-2021 01:51:18 8 C 70 %
1309 20-03-2021 02:01:17 8.1 C 70 %
1310 20-03-2021 02:11:17 8 C 70 %
1311 20-03-2021 02:21:18 8 C 70 %
1312 20-03-2021 02:31:18 8 C 69 %
1313 20-03-2021 02:41:18 8 C 69 %
1314 20-03-2021 02:51:18 8 C 69 %
1315 20-03-2021 03:01:17 8 C 69 %
1316 20-03-2021 03:11:17 8 C 69 %
1317 20-03-2021 03:21:18 7.9 C 70 %
1318 20-03-2021 03:31:18 7.9 C 70 %
1319 20-03-2021 03:41:18 7.9 C 70 %
1320 20-03-2021 03:51:17 7.9 C 70 %
1321 20-03-2021 04:01:18 7.9 C 70 %
1322 20-03-2021 04:11:18 7.9 C 70 %
1323 20-03-2021 04:21:17 7.8 C 70 %
1324 20-03-2021 04:31:18 7.8 C 70 %
1325 20-03-2021 04:41:18 7.8 C 70 %
Sensor: Nr:Datum:Temp:Feuchte:
G-T/H 1326 20-03-2021 04:51:17 7.8 C 70 %
1327 20-03-2021 05:01:17 7.8 C 70 %
1328 20-03-2021 05:11:17 7.8 C 70 %
1329 20-03-2021 05:21:18 7.8 C 70 %
1330 20-03-2021 05:31:18 7.7 C 70 %
1331 20-03-2021 05:41:18 7.7 C 70 %
1332 20-03-2021 05:51:17 7.7 C 70 %
1333 20-03-2021 06:01:18 7.7 C 70 %
1334 20-03-2021 06:11:18 7.7 C 70 %
1335 20-03-2021 06:21:18 7.7 C 70 %
1336 20-03-2021 06:31:17 7.6 C 70 %
1337 20-03-2021 06:41:17 7.6 C 70 %
1338 20-03-2021 06:51:18 7.6 C 70 %
1339 20-03-2021 07:01:18 7.6 C 70 %
1340 20-03-2021 07:11:18 7.6 C 70 %
1341 20-03-2021 07:21:17 7.6 C 70 %
1342 20-03-2021 07:31:18 7.6 C 70 %
1343 20-03-2021 07:41:18 7.6 C 70 %
1344 20-03-2021 07:51:17 7.5 C 70 %
1345 20-03-2021 08:01:17 7.5 C 70 %
1346 20-03-2021 08:11:17 7.5 C 70 %
1347 20-03-2021 08:21:17 7.5 C 70 %
1348 20-03-2021 08:31:17 7.5 C 70 %
1349 20-03-2021 08:41:18 7.5 C 70 %
1350 20-03-2021 08:51:17 7.5 C 70 %
Sensor: Nr:Datum:Temp:Feuchte:
G-T/H 1351 20-03-2021 09:01:17 7.5 C 70 %
1352 20-03-2021 09:11:18 7.5 C 70 %
1353 20-03-2021 09:21:17 7.5 C 70 %
1354 20-03-2021 09:31:17 7.5 C 70 %
1355 20-03-2021 09:41:17 7.5 C 70 %
1356 20-03-2021 09:51:17 7.5 C 70 %
1357 20-03-2021 10:01:18 7.5 C 70 %
1358 20-03-2021 10:11:18 7.5 C 70 %
1359 20-03-2021 10:21:17 7.4 C 70 %
1360 20-03-2021 10:31:17 7.4 C 70 %
1361 20-03-2021 10:41:18 7.4 C 70 %
1362 20-03-2021 10:51:17 7.4 C 70 %
1363 20-03-2021 11:01:18 7.4 C 70 %
1364 20-03-2021 11:11:18 7.5 C 70 %
1365 20-03-2021 11:21:17 7.5 C 70 %
1366 20-03-2021 11:31:17 7.4 C 70 %
1367 20-03-2021 11:41:17 7.5 C 70 %
1368 20-03-2021 11:51:17 7.5 C 70 %
1369 20-03-2021 12:01:18 7.5 C 70 %
1370 20-03-2021 12:11:18 7.5 C 70 %
1371 20-03-2021 12:21:17 7.5 C 70 %
1372 20-03-2021 12:31:17 7.5 C 70 %
1373 20-03-2021 12:41:17 7.5 C 70 %
1374 20-03-2021 12:51:17 7.5 C 68 %
1375 20-03-2021 13:01:17 7.5 C 63 %
Sensor: Nr:Datum:Temp:Feuchte:
G-T/H 1376 20-03-2021 13:11:17 7.5 C 60 %
1377 20-03-2021 13:21:17 7.4 C 59 %
1378 20-03-2021 13:31:18 7.5 C 60 %
1379 20-03-2021 13:41:18 7.5 C 61 %
1380 20-03-2021 13:51:18 7.5 C 62 %
1381 20-03-2021 14:01:18 7.6 C 62 %
1382 20-03-2021 14:11:18 7.6 C 63 %
1383 20-03-2021 14:21:17 7.6 C 64 %
1384 20-03-2021 14:31:17 7.6 C 64 %
1385 20-03-2021 14:41:17 7.6 C 65 %
1386 20-03-2021 14:51:18 7.7 C 65 %
1387 20-03-2021 15:01:17 7.6 C 66 %
1388 20-03-2021 15:11:17 7.7 C 66 %
1389 20-03-2021 15:21:17 7.7 C 66 %
1390 20-03-2021 15:31:18 7.7 C 66 %
1391 20-03-2021 15:41:18 7.7 C 67 %
1392 20-03-2021 15:51:18 7.8 C 67 %
1393 20-03-2021 16:01:17 7.8 C 67 %
1394 20-03-2021 16:11:17 7.8 C 67 %
1395 20-03-2021 16:21:18 7.8 C 68 %
1396 20-03-2021 16:31:17 7.8 C 68 %
1397 20-03-2021 16:41:17 7.8 C 68 %
1398 20-03-2021 16:51:18 7.8 C 68 %
1399 20-03-2021 17:01:18 7.8 C 68 %
1400 20-03-2021 17:11:18 7.8 C 68 %
Sensor: Nr:Datum:Temp:Feuchte:
G-T/H 1401 20-03-2021 17:21:17 7.9 C 68 %
1402 20-03-2021 17:31:18 7.9 C 69 %
1403 20-03-2021 17:41:18 7.9 C 69 %
1404 20-03-2021 17:51:19 7.9 C 69 %
1405 20-03-2021 18:01:17 7.9 C 69 %
1406 20-03-2021 18:11:17 7.9 C 69 %
1407 20-03-2021 18:21:17 7.9 C 69 %
1408 20-03-2021 18:31:18 7.9 C 69 %
1409 20-03-2021 18:41:18 7.9 C 69 %
1410 20-03-2021 18:51:18 7.9 C 69 %
1411 20-03-2021 19:01:18 7.9 C 69 %
1412 20-03-2021 19:11:18 7.9 C 69 %
1413 20-03-2021 19:21:18 8 C 69 %
1414 20-03-2021 19:31:17 7.9 C 70 %
1415 20-03-2021 19:41:17 7.9 C 70 %
1416 20-03-2021 19:51:17 7.9 C 70 %
1417 20-03-2021 20:01:18 8 C 69 %
1418 20-03-2021 20:11:18 8 C 69 %
1419 20-03-2021 20:21:17 8 C 69 %
1420 20-03-2021 20:31:17 8 C 69 %
1421 20-03-2021 20:41:17 8 C 69 %
1422 20-03-2021 20:51:17 8 C 69 %
1423 20-03-2021 21:01:18 8 C 69 %
1424 20-03-2021 21:11:18 8 C 69 %
1425 20-03-2021 21:21:17 8 C 69 %
Sensor: Nr:Datum:Temp:Feuchte:
G-T/H 1426 20-03-2021 21:31:17 8 C 69 %
1427 20-03-2021 21:41:17 8 C 69 %
1428 20-03-2021 21:51:18 8 C 69 %
1429 20-03-2021 22:01:18 8 C 69 %
1430 20-03-2021 22:11:18 8 C 69 %
1431 20-03-2021 22:21:17 8 C 69 %
1432 20-03-2021 22:31:17 8 C 69 %
1433 20-03-2021 22:41:17 8 C 70 %
1434 20-03-2021 22:51:18 8 C 70 %
1435 20-03-2021 23:01:17 8.1 C 70 %
1436 20-03-2021 23:11:17 8.1 C 70 %
1437 20-03-2021 23:21:17 8.1 C 70 %
1438 20-03-2021 23:31:17 8.1 C 70 %
1439 20-03-2021 23:41:18 8.1 C 70 %
1440 20-03-2021 23:51:17 8.1 C 70 %
1441 21-03-2021 00:01:18 8 C 70 %
1442 21-03-2021 00:11:18 8 C 70 %
1443 21-03-2021 00:21:18 8.1 C 70 %
1444 21-03-2021 00:31:17 8.1 C 70 %
1445 21-03-2021 00:41:17 8.1 C 70 %
1446 21-03-2021 00:51:18 8 C 70 %
1447 21-03-2021 01:01:17 8.1 C 70 %
1448 21-03-2021 01:11:17 8.1 C 70 %
1449 21-03-2021 01:21:18 8.1 C 70 %
1450 21-03-2021 01:31:17 8.1 C 70 %
Sensor: Nr:Datum:Temp:Feuchte:
G-T/H 1451 21-03-2021 01:41:17 8 C 70 %
1452 21-03-2021 01:51:17 8 C 70 %
1453 21-03-2021 02:01:17 8.1 C 70 %
1454 21-03-2021 02:11:17 8.1 C 70 %
1455 21-03-2021 02:21:17 8.1 C 70 %
1456 21-03-2021 02:31:17 8.1 C 70 %
1457 21-03-2021 02:41:17 8.1 C 70 %
1458 21-03-2021 02:51:17 8.1 C 70 %
1459 21-03-2021 03:01:18 8.1 C 70 %
1460 21-03-2021 03:11:18 8.1 C 70 %
1461 21-03-2021 03:21:18 8.1 C 70 %
1462 21-03-2021 03:31:18 8.1 C 70 %
1463 21-03-2021 03:41:18 8.1 C 70 %
1464 21-03-2021 03:51:17 8.1 C 70 %
1465 21-03-2021 04:01:18 8.1 C 70 %
1466 21-03-2021 04:11:18 8.1 C 71 %
1467 21-03-2021 04:21:18 8.1 C 71 %
1468 21-03-2021 04:31:17 8.1 C 71 %
1469 21-03-2021 04:41:17 8.1 C 71 %
1470 21-03-2021 04:51:17 8.1 C 71 %
1471 21-03-2021 05:01:18 8.1 C 71 %
1472 21-03-2021 05:11:18 8.1 C 71 %
1473 21-03-2021 05:21:17 8.1 C 71 %
1474 21-03-2021 05:31:17 8.1 C 71 %
1475 21-03-2021 05:41:17 8.1 C 71 %
Sensor: Nr:Datum:Temp:Feuchte:
G-T/H 1476 21-03-2021 05:51:17 8.1 C 71 %
1477 21-03-2021 06:01:17 8.1 C 71 %
1478 21-03-2021 06:11:17 8.1 C 71 %
1479 21-03-2021 06:21:17 8.1 C 71 %
1480 21-03-2021 06:31:17 8.1 C 71 %
1481 21-03-2021 06:41:17 8.1 C 71 %
1482 21-03-2021 06:51:17 8.1 C 71 %
1483 21-03-2021 07:01:18 8.1 C 71 %
1484 21-03-2021 07:11:18 8.1 C 71 %
1485 21-03-2021 07:21:17 8.1 C 71 %
1486 21-03-2021 07:31:17 8.1 C 71 %
1487 21-03-2021 07:41:17 8.1 C 71 %
1488 21-03-2021 07:51:17 8.1 C 71 %
1489 21-03-2021 08:01:18 8.1 C 71 %
1490 21-03-2021 08:11:18 8.1 C 71 %
1491 21-03-2021 08:21:18 8.1 C 71 %
1492 21-03-2021 08:31:17 8.1 C 71 %
1493 21-03-2021 08:41:17 8.1 C 71 %
1494 21-03-2021 08:51:17 8.1 C 71 %
1495 21-03-2021 09:01:18 8.1 C 71 %
1496 21-03-2021 09:11:18 8.1 C 72 %
1497 21-03-2021 09:21:18 8.1 C 72 %
1498 21-03-2021 09:31:18 8.1 C 72 %
1499 21-03-2021 09:41:18 8.1 C 72 %
1500 21-03-2021 09:51:17 8.1 C 72 %
Sensor: Nr:Datum:Temp:Feuchte:
G-T/H 1501 21-03-2021 10:01:18 8.1 C 72 %
1502 21-03-2021 10:11:18 8.1 C 72 %
1503 21-03-2021 10:21:17 8.1 C 72 %
1504 21-03-2021 10:31:18 8.1 C 72 %
1505 21-03-2021 10:41:18 8.2 C 72 %
1506 21-03-2021 10:51:18 8.2 C 72 %
1507 21-03-2021 11:01:17 8.1 C 72 %
1508 21-03-2021 11:11:17 8.2 C 72 %
1509 21-03-2021 11:21:17 8.2 C 72 %
1510 21-03-2021 11:31:17 8.2 C 72 %
1511 21-03-2021 11:41:17 8.2 C 72 %
1512 21-03-2021 11:51:17 8.2 C 72 %
1513 21-03-2021 12:01:18 8.2 C 72 %
1514 21-03-2021 12:11:18 8.2 C 72 %
1515 21-03-2021 12:21:18 8.2 C 72 %
1516 21-03-2021 12:31:18 8.2 C 72 %
1517 21-03-2021 12:41:18 8.2 C 72 %
1518 21-03-2021 12:51:18 8.2 C 72 %
1519 21-03-2021 13:01:17 8.2 C 72 %
1520 21-03-2021 13:11:17 8.2 C 72 %
1521 21-03-2021 13:21:17 8.3 C 72 %
1522 21-03-2021 13:31:17 8.3 C 72 %
1523 21-03-2021 13:41:17 8.3 C 72 %
1524 21-03-2021 13:51:18 8.3 C 72 %
1525 21-03-2021 14:01:17 8.3 C 72 %
Sensor: Nr:Datum:Temp:Feuchte:
G-T/H 1526 21-03-2021 14:11:17 8.3 C 72 %
1527 21-03-2021 14:21:17 8.3 C 72 %
1528 21-03-2021 14:31:18 8.4 C 72 %
1529 21-03-2021 14:41:18 8.4 C 72 %
1530 21-03-2021 14:51:17 8.4 C 72 %
1531 21-03-2021 15:01:18 8.4 C 72 %
1532 21-03-2021 15:11:18 8.4 C 72 %
1533 21-03-2021 15:21:18 8.4 C 72 %
1534 21-03-2021 15:31:18 8.4 C 72 %
1535 21-03-2021 15:41:18 8.5 C 71 %
1536 21-03-2021 15:51:18 8.5 C 71 %
1537 21-03-2021 16:01:17 8.5 C 71 %
1538 21-03-2021 16:11:17 8.5 C 72 %
1539 21-03-2021 16:21:17 8.5 C 72 %
1540 21-03-2021 16:31:18 8.5 C 72 %
1541 21-03-2021 16:41:18 8.5 C 72 %
1542 21-03-2021 16:51:17 8.5 C 72 %
1543 21-03-2021 17:01:18 8.5 C 72 %
1544 21-03-2021 17:11:18 8.5 C 72 %
1545 21-03-2021 17:21:18 8.6 C 72 %
1546 21-03-2021 17:31:17 8.6 C 72 %
1547 21-03-2021 17:41:17 8.5 C 72 %
1548 21-03-2021 17:51:17 8.6 C 72 %
1549 21-03-2021 18:01:18 8.6 C 72 %
1550 21-03-2021 18:11:18 8.6 C 72 %
Sensor: Nr:Datum:Temp:Feuchte:
G-T/H 1551 21-03-2021 18:21:18 8.6 C 72 %
1552 21-03-2021 18:31:17 8.6 C 72 %
1553 21-03-2021 18:41:17 8.6 C 72 %
1554 21-03-2021 18:51:18 8.6 C 72 %
1555 21-03-2021 19:01:18 8.6 C 72 %
1556 21-03-2021 19:11:18 8.6 C 72 %
1557 21-03-2021 19:21:17 8.6 C 72 %
1558 21-03-2021 19:31:18 8.6 C 72 %
1559 21-03-2021 19:41:18 8.6 C 72 %
1560 21-03-2021 19:51:18 8.7 C 72 %
1561 21-03-2021 20:01:18 8.6 C 72 %
1562 21-03-2021 20:11:18 8.6 C 72 %
1563 21-03-2021 20:21:17 8.7 C 72 %
1564 21-03-2021 20:31:17 8.7 C 72 %
1565 21-03-2021 20:41:17 8.7 C 72 %
1566 21-03-2021 20:51:17 8.7 C 72 %
1567 21-03-2021 21:01:18 8.7 C 72 %
1568 21-03-2021 21:11:18 8.6 C 72 %
1569 21-03-2021 21:21:17 8.7 C 72 %
1570 21-03-2021 21:31:17 8.7 C 72 %
1571 21-03-2021 21:41:17 8.6 C 72 %
1572 21-03-2021 21:51:17 8.7 C 72 %
1573 21-03-2021 22:01:17 8.7 C 72 %
1574 21-03-2021 22:11:17 8.7 C 72 %
1575 21-03-2021 22:21:18 8.7 C 72 %
Sensor: Nr:Datum:Temp:Feuchte:
G-T/H 1576 21-03-2021 22:31:17 8.6 C 72 %
1577 21-03-2021 22:41:17 8.7 C 72 %
1578 21-03-2021 22:51:18 8.7 C 72 %
1579 21-03-2021 23:01:18 8.7 C 72 %
1580 21-03-2021 23:11:18 8.6 C 72 %
1581 21-03-2021 23:21:17 8.6 C 72 %
1582 21-03-2021 23:31:18 8.6 C 72 %
1583 21-03-2021 23:41:18 8.6 C 72 %
1584 21-03-2021 23:51:17 8.6 C 72 %
1585 22-03-2021 00:01:17 8.6 C 72 %
1586 22-03-2021 00:11:17 8.6 C 72 %
1587 22-03-2021 00:21:18 8.6 C 72 %
1588 22-03-2021 00:31:17 8.6 C 72 %
1589 22-03-2021 00:41:17 8.6 C 72 %
1590 22-03-2021 00:51:17 8.6 C 72 %
1591 22-03-2021 01:01:17 8.6 C 72 %
1592 22-03-2021 01:11:17 8.6 C 72 %
1593 22-03-2021 01:21:18 8.6 C 72 %
1594 22-03-2021 01:31:18 8.6 C 72 %
1595 22-03-2021 01:41:18 8.6 C 72 %
1596 22-03-2021 01:51:18 8.6 C 72 %
1597 22-03-2021 02:01:18 8.5 C 72 %
1598 22-03-2021 02:11:18 8.5 C 72 %
1599 22-03-2021 02:21:18 8.5 C 72 %
1600 22-03-2021 02:31:18 8.5 C 72 %
Sensor: Nr:Datum:Temp:Feuchte:
G-T/H 1601 22-03-2021 02:41:18 8.5 C 72 %
1602 22-03-2021 02:51:18 8.5 C 72 %
1603 22-03-2021 03:01:17 8.5 C 72 %
1604 22-03-2021 03:11:17 8.5 C 72 %
1605 22-03-2021 03:21:17 8.5 C 72 %
1606 22-03-2021 03:31:18 8.5 C 72 %
1607 22-03-2021 03:41:18 8.5 C 72 %
1608 22-03-2021 03:51:18 8.5 C 72 %
1609 22-03-2021 04:01:17 8.5 C 72 %
1610 22-03-2021 04:11:18 8.5 C 72 %
1611 22-03-2021 04:21:18 8.5 C 72 %
1612 22-03-2021 04:31:18 8.5 C 72 %
1613 22-03-2021 04:41:18 8.5 C 72 %
1614 22-03-2021 04:51:18 8.5 C 72 %
1615 22-03-2021 05:01:18 8.5 C 72 %
1616 22-03-2021 05:11:18 8.4 C 72 %
1617 22-03-2021 05:21:18 8.4 C 72 %
1618 22-03-2021 05:31:18 8.4 C 72 %
1619 22-03-2021 05:41:18 8.4 C 72 %
1620 22-03-2021 05:51:17 8.4 C 72 %
1621 22-03-2021 06:01:17 8.4 C 72 %
1622 22-03-2021 06:11:18 8.4 C 72 %
1623 22-03-2021 06:21:18 8.4 C 72 %
1624 22-03-2021 06:31:18 8.4 C 72 %
1625 22-03-2021 06:41:18 8.4 C 72 %
Sensor: Nr:Datum:Temp:Feuchte:
G-T/H 1626 22-03-2021 06:51:18 8.4 C 72 %
1627 22-03-2021 07:01:17 8.4 C 72 %
1628 22-03-2021 07:11:17 8.4 C 72 %
1629 22-03-2021 07:21:17 8.4 C 72 %
1630 22-03-2021 07:31:17 8.4 C 72 %
1631 22-03-2021 07:41:17 8.4 C 72 %
1632 22-03-2021 07:51:17 8.4 C 72 %
1633 22-03-2021 08:01:17 8.4 C 72 %
1634 22-03-2021 08:11:18 8.4 C 72 %
1635 22-03-2021 08:21:18 8.4 C 72 %
1636 22-03-2021 08:31:17 8.4 C 72 %
1637 22-03-2021 08:41:17 8.4 C 72 %
1638 22-03-2021 08:51:18 8.4 C 72 %
1639 22-03-2021 09:01:17 8.4 C 72 %
1640 22-03-2021 09:11:17 8.4 C 72 %
1641 22-03-2021 09:21:17 8.4 C 72 %
1642 22-03-2021 09:31:17 8.4 C 72 %
1643 22-03-2021 09:41:17 8.4 C 72 %
1644 22-03-2021 09:51:17 8.4 C 72 %
1645 22-03-2021 10:01:17 8.4 C 72 %
1646 22-03-2021 10:11:17 8.4 C 72 %
1647 22-03-2021 10:21:17 8.4 C 72 %
1648 22-03-2021 10:31:18 8.4 C 72 %
1649 22-03-2021 10:41:18 8.4 C 72 %
1650 22-03-2021 10:51:18 8.4 C 72 %
Sensor: Nr:Datum:Temp:Feuchte:
G-T/H 1651 22-03-2021 11:01:17 8.4 C 72 %
1652 22-03-2021 11:11:17 8.4 C 72 %
1653 22-03-2021 11:21:17 8.4 C 72 %
1654 22-03-2021 11:31:17 8.4 C 73 %
1655 22-03-2021 11:41:17 8.4 C 73 %
1656 22-03-2021 11:51:18 8.4 C 73 %
1657 22-03-2021 12:01:17 8.5 C 72 %
1658 22-03-2021 12:11:17 8.5 C 72 %
1659 22-03-2021 12:21:17 8.5 C 72 %
1660 22-03-2021 12:31:18 8.4 C 72 %
1661 22-03-2021 12:41:18 8.5 C 72 %
1662 22-03-2021 12:51:17 8.5 C 72 %
1663 22-03-2021 13:01:17 8.4 C 72 %
1664 22-03-2021 13:11:17 8.5 C 72 %
1665 22-03-2021 13:21:17 8.5 C 72 %